<?xml version="1.0" encoding="utf-8"?>
<gpx xmlns:xsi="http://www.w3.org/2001/XMLSchema-instance" xmlns:xsd="http://www.w3.org/2001/XMLSchema" version="1.1" creator="Shapelink.com" xmlns="http://www.topografix.com/GPX/1/1" xmlns:gpxtpx="http://www.garmin.com/xmlschemas/TrackPointExtension/v1">
  <metadata>
    <name>Ejecutar 5.30 km, 2020-01-20</name>
    <desc></desc>
    <author><name>Peter Littke</name></author> 
    <time>2020-01-20T06:26:01Z</time>
  </metadata>
  <trk>
    <name>Ejecutar 5.30 km, 2020-01-20</name>
    <trkseg>
      <trkpt lat="59.2992" lon="18.081851">
        <ele>52</ele>
        <time>2020-01-20T06:26:01Z</time>
      </trkpt>
      <trkpt lat="59.299204" lon="18.081896">
        <ele>52</ele>
        <time>2020-01-20T06:26:04Z</time>
      </trkpt>
      <trkpt lat="59.299209" lon="18.081939">
        <ele>51</ele>
        <time>2020-01-20T06:26:05Z</time>
      </trkpt>
      <trkpt lat="59.299214" lon="18.08198">
        <ele>51</ele>
        <time>2020-01-20T06:26:07Z</time>
      </trkpt>
      <trkpt lat="59.299218" lon="18.082034">
        <ele>51</ele>
        <time>2020-01-20T06:26:10Z</time>
      </trkpt>
      <trkpt lat="59.299215" lon="18.082082">
        <ele>51</ele>
        <time>2020-01-20T06:26:10Z</time>
      </trkpt>
      <trkpt lat="59.299209" lon="18.082131">
        <ele>51</ele>
        <time>2020-01-20T06:26:11Z</time>
      </trkpt>
      <trkpt lat="59.299195" lon="18.082179">
        <ele>51</ele>
        <time>2020-01-20T06:26:12Z</time>
      </trkpt>
      <trkpt lat="59.299179" lon="18.082221">
        <ele>51</ele>
        <time>2020-01-20T06:26:13Z</time>
      </trkpt>
      <trkpt lat="59.299158" lon="18.082256">
        <ele>51</ele>
        <time>2020-01-20T06:26:14Z</time>
      </trkpt>
      <trkpt lat="59.299136" lon="18.08229">
        <ele>51</ele>
        <time>2020-01-20T06:26:15Z</time>
      </trkpt>
      <trkpt lat="59.299108" lon="18.08232">
        <ele>51</ele>
        <time>2020-01-20T06:26:16Z</time>
      </trkpt>
      <trkpt lat="59.299082" lon="18.082341">
        <ele>51</ele>
        <time>2020-01-20T06:26:18Z</time>
      </trkpt>
      <trkpt lat="59.299052" lon="18.082361">
        <ele>50</ele>
        <time>2020-01-20T06:26:18Z</time>
      </trkpt>
      <trkpt lat="59.299019" lon="18.082384">
        <ele>50</ele>
        <time>2020-01-20T06:26:19Z</time>
      </trkpt>
      <trkpt lat="59.298987" lon="18.082408">
        <ele>50</ele>
        <time>2020-01-20T06:26:21Z</time>
      </trkpt>
      <trkpt lat="59.298954" lon="18.082433">
        <ele>50</ele>
        <time>2020-01-20T06:26:21Z</time>
      </trkpt>
      <trkpt lat="59.298922" lon="18.082459">
        <ele>50</ele>
        <time>2020-01-20T06:26:23Z</time>
      </trkpt>
      <trkpt lat="59.298894" lon="18.082485">
        <ele>50</ele>
        <time>2020-01-20T06:26:23Z</time>
      </trkpt>
      <trkpt lat="59.298869" lon="18.082504">
        <ele>50</ele>
        <time>2020-01-20T06:26:24Z</time>
      </trkpt>
      <trkpt lat="59.298843" lon="18.082527">
        <ele>50</ele>
        <time>2020-01-20T06:26:25Z</time>
      </trkpt>
      <trkpt lat="59.29882" lon="18.082526">
        <ele>49</ele>
        <time>2020-01-20T06:26:26Z</time>
      </trkpt>
      <trkpt lat="59.298826" lon="18.082482">
        <ele>49</ele>
        <time>2020-01-20T06:26:28Z</time>
      </trkpt>
      <trkpt lat="59.298858" lon="18.08243">
        <ele>49</ele>
        <time>2020-01-20T06:26:31Z</time>
      </trkpt>
      <trkpt lat="59.298882" lon="18.082406">
        <ele>49</ele>
        <time>2020-01-20T06:26:31Z</time>
      </trkpt>
      <trkpt lat="59.298906" lon="18.082383">
        <ele>49</ele>
        <time>2020-01-20T06:26:32Z</time>
      </trkpt>
      <trkpt lat="59.29893" lon="18.082361">
        <ele>49</ele>
        <time>2020-01-20T06:26:33Z</time>
      </trkpt>
      <trkpt lat="59.298952" lon="18.082338">
        <ele>48</ele>
        <time>2020-01-20T06:26:34Z</time>
      </trkpt>
      <trkpt lat="59.298976" lon="18.082313">
        <ele>48</ele>
        <time>2020-01-20T06:26:35Z</time>
      </trkpt>
      <trkpt lat="59.299001" lon="18.082289">
        <ele>48</ele>
        <time>2020-01-20T06:26:36Z</time>
      </trkpt>
      <trkpt lat="59.299024" lon="18.082263">
        <ele>48</ele>
        <time>2020-01-20T06:26:37Z</time>
      </trkpt>
      <trkpt lat="59.299046" lon="18.08224">
        <ele>48</ele>
        <time>2020-01-20T06:26:39Z</time>
      </trkpt>
      <trkpt lat="59.299068" lon="18.082218">
        <ele>48</ele>
        <time>2020-01-20T06:26:40Z</time>
      </trkpt>
      <trkpt lat="59.29909" lon="18.082206">
        <ele>48</ele>
        <time>2020-01-20T06:26:40Z</time>
      </trkpt>
      <trkpt lat="59.299114" lon="18.082194">
        <ele>48</ele>
        <time>2020-01-20T06:26:42Z</time>
      </trkpt>
      <trkpt lat="59.299136" lon="18.082194">
        <ele>48</ele>
        <time>2020-01-20T06:26:42Z</time>
      </trkpt>
      <trkpt lat="59.299158" lon="18.082184">
        <ele>48</ele>
        <time>2020-01-20T06:26:44Z</time>
      </trkpt>
      <trkpt lat="59.299179" lon="18.082179">
        <ele>47</ele>
        <time>2020-01-20T06:26:44Z</time>
      </trkpt>
      <trkpt lat="59.299209" lon="18.082179">
        <ele>47</ele>
        <time>2020-01-20T06:26:45Z</time>
      </trkpt>
      <trkpt lat="59.299239" lon="18.082185">
        <ele>47</ele>
        <time>2020-01-20T06:26:46Z</time>
      </trkpt>
      <trkpt lat="59.299269" lon="18.082198">
        <ele>47</ele>
        <time>2020-01-20T06:26:47Z</time>
      </trkpt>
      <trkpt lat="59.2993" lon="18.082213">
        <ele>47</ele>
        <time>2020-01-20T06:26:48Z</time>
      </trkpt>
      <trkpt lat="59.29933" lon="18.08223">
        <ele>46</ele>
        <time>2020-01-20T06:26:49Z</time>
      </trkpt>
      <trkpt lat="59.299358" lon="18.08227">
        <ele>46</ele>
        <time>2020-01-20T06:26:50Z</time>
      </trkpt>
      <trkpt lat="59.299388" lon="18.082289">
        <ele>46</ele>
        <time>2020-01-20T06:26:52Z</time>
      </trkpt>
      <trkpt lat="59.299415" lon="18.082282">
        <ele>46</ele>
        <time>2020-01-20T06:26:52Z</time>
      </trkpt>
      <trkpt lat="59.299446" lon="18.082274">
        <ele>46</ele>
        <time>2020-01-20T06:26:53Z</time>
      </trkpt>
      <trkpt lat="59.299474" lon="18.082252">
        <ele>46</ele>
        <time>2020-01-20T06:26:54Z</time>
      </trkpt>
      <trkpt lat="59.299498" lon="18.082226">
        <ele>46</ele>
        <time>2020-01-20T06:26:55Z</time>
      </trkpt>
      <trkpt lat="59.299526" lon="18.082198">
        <ele>46</ele>
        <time>2020-01-20T06:26:56Z</time>
      </trkpt>
      <trkpt lat="59.299552" lon="18.08217">
        <ele>46</ele>
        <time>2020-01-20T06:26:57Z</time>
      </trkpt>
      <trkpt lat="59.299578" lon="18.082142">
        <ele>46</ele>
        <time>2020-01-20T06:26:59Z</time>
      </trkpt>
      <trkpt lat="59.299604" lon="18.082115">
        <ele>46</ele>
        <time>2020-01-20T06:27:00Z</time>
      </trkpt>
      <trkpt lat="59.299628" lon="18.082093">
        <ele>46</ele>
        <time>2020-01-20T06:27:00Z</time>
      </trkpt>
      <trkpt lat="59.299655" lon="18.08207">
        <ele>46</ele>
        <time>2020-01-20T06:27:01Z</time>
      </trkpt>
      <trkpt lat="59.299677" lon="18.082048">
        <ele>46</ele>
        <time>2020-01-20T06:27:02Z</time>
      </trkpt>
      <trkpt lat="59.299705" lon="18.082026">
        <ele>46</ele>
        <time>2020-01-20T06:27:03Z</time>
      </trkpt>
      <trkpt lat="59.299734" lon="18.081999">
        <ele>46</ele>
        <time>2020-01-20T06:27:04Z</time>
      </trkpt>
      <trkpt lat="59.299762" lon="18.081975">
        <ele>46</ele>
        <time>2020-01-20T06:27:05Z</time>
      </trkpt>
      <trkpt lat="59.299792" lon="18.081959">
        <ele>46</ele>
        <time>2020-01-20T06:27:06Z</time>
      </trkpt>
      <trkpt lat="59.299821" lon="18.08194">
        <ele>46</ele>
        <time>2020-01-20T06:27:07Z</time>
      </trkpt>
      <trkpt lat="59.299849" lon="18.081924">
        <ele>46</ele>
        <time>2020-01-20T06:27:08Z</time>
      </trkpt>
      <trkpt lat="59.299878" lon="18.081899">
        <ele>46</ele>
        <time>2020-01-20T06:27:09Z</time>
      </trkpt>
      <trkpt lat="59.299907" lon="18.081881">
        <ele>46</ele>
        <time>2020-01-20T06:27:11Z</time>
      </trkpt>
      <trkpt lat="59.299934" lon="18.081862">
        <ele>46</ele>
        <time>2020-01-20T06:27:11Z</time>
      </trkpt>
      <trkpt lat="59.299962" lon="18.081844">
        <ele>46</ele>
        <time>2020-01-20T06:27:12Z</time>
      </trkpt>
      <trkpt lat="59.29999" lon="18.081825">
        <ele>46</ele>
        <time>2020-01-20T06:27:13Z</time>
      </trkpt>
      <trkpt lat="59.300019" lon="18.081803">
        <ele>46</ele>
        <time>2020-01-20T06:27:14Z</time>
      </trkpt>
      <trkpt lat="59.300047" lon="18.081778">
        <ele>46</ele>
        <time>2020-01-20T06:27:15Z</time>
      </trkpt>
      <trkpt lat="59.300074" lon="18.081754">
        <ele>46</ele>
        <time>2020-01-20T06:27:17Z</time>
      </trkpt>
      <trkpt lat="59.300101" lon="18.08173">
        <ele>46</ele>
        <time>2020-01-20T06:27:18Z</time>
      </trkpt>
      <trkpt lat="59.300127" lon="18.08171">
        <ele>46</ele>
        <time>2020-01-20T06:27:19Z</time>
      </trkpt>
      <trkpt lat="59.300152" lon="18.081695">
        <ele>46</ele>
        <time>2020-01-20T06:27:19Z</time>
      </trkpt>
      <trkpt lat="59.30018" lon="18.08168">
        <ele>46</ele>
        <time>2020-01-20T06:27:20Z</time>
      </trkpt>
      <trkpt lat="59.300206" lon="18.081662">
        <ele>46</ele>
        <time>2020-01-20T06:27:21Z</time>
      </trkpt>
      <trkpt lat="59.300233" lon="18.081646">
        <ele>46</ele>
        <time>2020-01-20T06:27:22Z</time>
      </trkpt>
      <trkpt lat="59.30026" lon="18.081632">
        <ele>46</ele>
        <time>2020-01-20T06:27:23Z</time>
      </trkpt>
      <trkpt lat="59.300288" lon="18.081608">
        <ele>46</ele>
        <time>2020-01-20T06:27:24Z</time>
      </trkpt>
      <trkpt lat="59.300313" lon="18.081596">
        <ele>46</ele>
        <time>2020-01-20T06:27:25Z</time>
      </trkpt>
      <trkpt lat="59.30034" lon="18.081583">
        <ele>46</ele>
        <time>2020-01-20T06:27:26Z</time>
      </trkpt>
      <trkpt lat="59.300368" lon="18.081567">
        <ele>46</ele>
        <time>2020-01-20T06:27:27Z</time>
      </trkpt>
      <trkpt lat="59.300395" lon="18.081551">
        <ele>46</ele>
        <time>2020-01-20T06:27:28Z</time>
      </trkpt>
      <trkpt lat="59.300425" lon="18.081536">
        <ele>46</ele>
        <time>2020-01-20T06:27:30Z</time>
      </trkpt>
      <trkpt lat="59.300454" lon="18.08152">
        <ele>46</ele>
        <time>2020-01-20T06:27:30Z</time>
      </trkpt>
      <trkpt lat="59.300483" lon="18.081503">
        <ele>46</ele>
        <time>2020-01-20T06:27:31Z</time>
      </trkpt>
      <trkpt lat="59.30051" lon="18.081487">
        <ele>45</ele>
        <time>2020-01-20T06:27:32Z</time>
      </trkpt>
      <trkpt lat="59.300536" lon="18.081468">
        <ele>45</ele>
        <time>2020-01-20T06:27:34Z</time>
      </trkpt>
      <trkpt lat="59.300564" lon="18.081453">
        <ele>45</ele>
        <time>2020-01-20T06:27:34Z</time>
      </trkpt>
      <trkpt lat="59.300589" lon="18.081433">
        <ele>45</ele>
        <time>2020-01-20T06:27:35Z</time>
      </trkpt>
      <trkpt lat="59.300612" lon="18.081419">
        <ele>45</ele>
        <time>2020-01-20T06:27:37Z</time>
      </trkpt>
      <trkpt lat="59.300636" lon="18.081394">
        <ele>45</ele>
        <time>2020-01-20T06:27:38Z</time>
      </trkpt>
      <trkpt lat="59.300661" lon="18.081379">
        <ele>45</ele>
        <time>2020-01-20T06:27:38Z</time>
      </trkpt>
      <trkpt lat="59.300686" lon="18.081359">
        <ele>45</ele>
        <time>2020-01-20T06:27:39Z</time>
      </trkpt>
      <trkpt lat="59.300712" lon="18.08134">
        <ele>45</ele>
        <time>2020-01-20T06:27:40Z</time>
      </trkpt>
      <trkpt lat="59.300737" lon="18.081321">
        <ele>45</ele>
        <time>2020-01-20T06:27:41Z</time>
      </trkpt>
      <trkpt lat="59.300766" lon="18.081293">
        <ele>45</ele>
        <time>2020-01-20T06:27:43Z</time>
      </trkpt>
      <trkpt lat="59.300793" lon="18.081266">
        <ele>45</ele>
        <time>2020-01-20T06:27:43Z</time>
      </trkpt>
      <trkpt lat="59.30082" lon="18.08124">
        <ele>45</ele>
        <time>2020-01-20T06:27:44Z</time>
      </trkpt>
      <trkpt lat="59.300843" lon="18.081217">
        <ele>45</ele>
        <time>2020-01-20T06:27:46Z</time>
      </trkpt>
      <trkpt lat="59.300868" lon="18.081186">
        <ele>45</ele>
        <time>2020-01-20T06:27:46Z</time>
      </trkpt>
      <trkpt lat="59.300893" lon="18.081159">
        <ele>45</ele>
        <time>2020-01-20T06:27:47Z</time>
      </trkpt>
      <trkpt lat="59.300921" lon="18.081137">
        <ele>45</ele>
        <time>2020-01-20T06:27:48Z</time>
      </trkpt>
      <trkpt lat="59.300947" lon="18.081113">
        <ele>44</ele>
        <time>2020-01-20T06:27:49Z</time>
      </trkpt>
      <trkpt lat="59.300975" lon="18.08109">
        <ele>44</ele>
        <time>2020-01-20T06:27:50Z</time>
      </trkpt>
      <trkpt lat="59.301004" lon="18.08107">
        <ele>44</ele>
        <time>2020-01-20T06:27:52Z</time>
      </trkpt>
      <trkpt lat="59.301029" lon="18.081046">
        <ele>44</ele>
        <time>2020-01-20T06:27:52Z</time>
      </trkpt>
      <trkpt lat="59.301057" lon="18.081016">
        <ele>44</ele>
        <time>2020-01-20T06:27:53Z</time>
      </trkpt>
      <trkpt lat="59.301082" lon="18.080987">
        <ele>44</ele>
        <time>2020-01-20T06:27:54Z</time>
      </trkpt>
      <trkpt lat="59.301109" lon="18.080958">
        <ele>44</ele>
        <time>2020-01-20T06:27:56Z</time>
      </trkpt>
      <trkpt lat="59.301137" lon="18.080931">
        <ele>44</ele>
        <time>2020-01-20T06:27:56Z</time>
      </trkpt>
      <trkpt lat="59.301165" lon="18.080909">
        <ele>44</ele>
        <time>2020-01-20T06:27:58Z</time>
      </trkpt>
      <trkpt lat="59.301191" lon="18.080882">
        <ele>44</ele>
        <time>2020-01-20T06:27:58Z</time>
      </trkpt>
      <trkpt lat="59.301219" lon="18.080855">
        <ele>44</ele>
        <time>2020-01-20T06:27:59Z</time>
      </trkpt>
      <trkpt lat="59.301242" lon="18.080834">
        <ele>44</ele>
        <time>2020-01-20T06:28:00Z</time>
      </trkpt>
      <trkpt lat="59.30127" lon="18.080811">
        <ele>43</ele>
        <time>2020-01-20T06:28:01Z</time>
      </trkpt>
      <trkpt lat="59.301296" lon="18.080781">
        <ele>43</ele>
        <time>2020-01-20T06:28:02Z</time>
      </trkpt>
      <trkpt lat="59.301321" lon="18.08076">
        <ele>43</ele>
        <time>2020-01-20T06:28:03Z</time>
      </trkpt>
      <trkpt lat="59.301349" lon="18.080741">
        <ele>43</ele>
        <time>2020-01-20T06:28:04Z</time>
      </trkpt>
      <trkpt lat="59.301377" lon="18.080724">
        <ele>43</ele>
        <time>2020-01-20T06:28:06Z</time>
      </trkpt>
      <trkpt lat="59.301404" lon="18.080711">
        <ele>43</ele>
        <time>2020-01-20T06:28:06Z</time>
      </trkpt>
      <trkpt lat="59.301431" lon="18.080698">
        <ele>42</ele>
        <time>2020-01-20T06:28:07Z</time>
      </trkpt>
      <trkpt lat="59.301455" lon="18.08068">
        <ele>42</ele>
        <time>2020-01-20T06:28:09Z</time>
      </trkpt>
      <trkpt lat="59.301482" lon="18.080662">
        <ele>42</ele>
        <time>2020-01-20T06:28:09Z</time>
      </trkpt>
      <trkpt lat="59.301505" lon="18.080641">
        <ele>42</ele>
        <time>2020-01-20T06:28:10Z</time>
      </trkpt>
      <trkpt lat="59.301532" lon="18.080618">
        <ele>42</ele>
        <time>2020-01-20T06:28:12Z</time>
      </trkpt>
      <trkpt lat="59.301556" lon="18.0806">
        <ele>42</ele>
        <time>2020-01-20T06:28:12Z</time>
      </trkpt>
      <trkpt lat="59.301581" lon="18.080577">
        <ele>41</ele>
        <time>2020-01-20T06:28:13Z</time>
      </trkpt>
      <trkpt lat="59.301606" lon="18.080555">
        <ele>41</ele>
        <time>2020-01-20T06:28:15Z</time>
      </trkpt>
      <trkpt lat="59.301632" lon="18.080539">
        <ele>41</ele>
        <time>2020-01-20T06:28:15Z</time>
      </trkpt>
      <trkpt lat="59.301659" lon="18.080514">
        <ele>41</ele>
        <time>2020-01-20T06:28:16Z</time>
      </trkpt>
      <trkpt lat="59.301684" lon="18.080494">
        <ele>41</ele>
        <time>2020-01-20T06:28:17Z</time>
      </trkpt>
      <trkpt lat="59.301711" lon="18.080475">
        <ele>41</ele>
        <time>2020-01-20T06:28:18Z</time>
      </trkpt>
      <trkpt lat="59.301739" lon="18.080456">
        <ele>41</ele>
        <time>2020-01-20T06:28:20Z</time>
      </trkpt>
      <trkpt lat="59.301764" lon="18.080438">
        <ele>41</ele>
        <time>2020-01-20T06:28:20Z</time>
      </trkpt>
      <trkpt lat="59.301789" lon="18.080418">
        <ele>41</ele>
        <time>2020-01-20T06:28:21Z</time>
      </trkpt>
      <trkpt lat="59.301818" lon="18.080395">
        <ele>40</ele>
        <time>2020-01-20T06:28:22Z</time>
      </trkpt>
      <trkpt lat="59.301844" lon="18.080373">
        <ele>40</ele>
        <time>2020-01-20T06:28:23Z</time>
      </trkpt>
      <trkpt lat="59.301871" lon="18.080357">
        <ele>40</ele>
        <time>2020-01-20T06:28:24Z</time>
      </trkpt>
      <trkpt lat="59.301898" lon="18.080338">
        <ele>40</ele>
        <time>2020-01-20T06:28:25Z</time>
      </trkpt>
      <trkpt lat="59.301924" lon="18.080321">
        <ele>40</ele>
        <time>2020-01-20T06:28:27Z</time>
      </trkpt>
      <trkpt lat="59.301951" lon="18.080305">
        <ele>40</ele>
        <time>2020-01-20T06:28:28Z</time>
      </trkpt>
      <trkpt lat="59.301978" lon="18.080286">
        <ele>40</ele>
        <time>2020-01-20T06:28:28Z</time>
      </trkpt>
      <trkpt lat="59.302006" lon="18.080269">
        <ele>40</ele>
        <time>2020-01-20T06:28:30Z</time>
      </trkpt>
      <trkpt lat="59.302033" lon="18.080249">
        <ele>40</ele>
        <time>2020-01-20T06:28:30Z</time>
      </trkpt>
      <trkpt lat="59.302062" lon="18.080232">
        <ele>40</ele>
        <time>2020-01-20T06:28:31Z</time>
      </trkpt>
      <trkpt lat="59.302091" lon="18.080215">
        <ele>40</ele>
        <time>2020-01-20T06:28:32Z</time>
      </trkpt>
      <trkpt lat="59.302119" lon="18.080196">
        <ele>40</ele>
        <time>2020-01-20T06:28:34Z</time>
      </trkpt>
      <trkpt lat="59.302147" lon="18.080176">
        <ele>40</ele>
        <time>2020-01-20T06:28:34Z</time>
      </trkpt>
      <trkpt lat="59.302175" lon="18.080156">
        <ele>40</ele>
        <time>2020-01-20T06:28:35Z</time>
      </trkpt>
      <trkpt lat="59.302202" lon="18.080139">
        <ele>39</ele>
        <time>2020-01-20T06:28:36Z</time>
      </trkpt>
      <trkpt lat="59.302232" lon="18.080123">
        <ele>39</ele>
        <time>2020-01-20T06:28:37Z</time>
      </trkpt>
      <trkpt lat="59.302261" lon="18.080107">
        <ele>39</ele>
        <time>2020-01-20T06:28:38Z</time>
      </trkpt>
      <trkpt lat="59.30229" lon="18.080089">
        <ele>39</ele>
        <time>2020-01-20T06:28:39Z</time>
      </trkpt>
      <trkpt lat="59.302319" lon="18.080071">
        <ele>39</ele>
        <time>2020-01-20T06:28:40Z</time>
      </trkpt>
      <trkpt lat="59.302348" lon="18.080052">
        <ele>39</ele>
        <time>2020-01-20T06:28:41Z</time>
      </trkpt>
      <trkpt lat="59.302376" lon="18.080038">
        <ele>39</ele>
        <time>2020-01-20T06:28:42Z</time>
      </trkpt>
      <trkpt lat="59.302405" lon="18.08002">
        <ele>39</ele>
        <time>2020-01-20T06:28:44Z</time>
      </trkpt>
      <trkpt lat="59.302433" lon="18.080004">
        <ele>39</ele>
        <time>2020-01-20T06:28:44Z</time>
      </trkpt>
      <trkpt lat="59.30246" lon="18.079989">
        <ele>39</ele>
        <time>2020-01-20T06:28:45Z</time>
      </trkpt>
      <trkpt lat="59.302488" lon="18.079975">
        <ele>39</ele>
        <time>2020-01-20T06:28:46Z</time>
      </trkpt>
      <trkpt lat="59.302515" lon="18.079961">
        <ele>39</ele>
        <time>2020-01-20T06:28:47Z</time>
      </trkpt>
      <trkpt lat="59.302543" lon="18.079944">
        <ele>38</ele>
        <time>2020-01-20T06:28:48Z</time>
      </trkpt>
      <trkpt lat="59.302571" lon="18.079928">
        <ele>38</ele>
        <time>2020-01-20T06:28:50Z</time>
      </trkpt>
      <trkpt lat="59.302598" lon="18.079909">
        <ele>38</ele>
        <time>2020-01-20T06:28:50Z</time>
      </trkpt>
      <trkpt lat="59.302624" lon="18.079894">
        <ele>38</ele>
        <time>2020-01-20T06:28:51Z</time>
      </trkpt>
      <trkpt lat="59.302653" lon="18.079877">
        <ele>38</ele>
        <time>2020-01-20T06:28:53Z</time>
      </trkpt>
      <trkpt lat="59.302681" lon="18.079861">
        <ele>38</ele>
        <time>2020-01-20T06:28:53Z</time>
      </trkpt>
      <trkpt lat="59.302711" lon="18.079842">
        <ele>38</ele>
        <time>2020-01-20T06:28:54Z</time>
      </trkpt>
      <trkpt lat="59.302738" lon="18.079828">
        <ele>38</ele>
        <time>2020-01-20T06:28:56Z</time>
      </trkpt>
      <trkpt lat="59.302768" lon="18.079808">
        <ele>38</ele>
        <time>2020-01-20T06:28:56Z</time>
      </trkpt>
      <trkpt lat="59.302795" lon="18.079792">
        <ele>38</ele>
        <time>2020-01-20T06:28:57Z</time>
      </trkpt>
      <trkpt lat="59.302823" lon="18.079776">
        <ele>38</ele>
        <time>2020-01-20T06:28:58Z</time>
      </trkpt>
      <trkpt lat="59.30285" lon="18.079758">
        <ele>38</ele>
        <time>2020-01-20T06:28:59Z</time>
      </trkpt>
      <trkpt lat="59.302877" lon="18.07974">
        <ele>38</ele>
        <time>2020-01-20T06:29:01Z</time>
      </trkpt>
      <trkpt lat="59.302905" lon="18.079724">
        <ele>38</ele>
        <time>2020-01-20T06:29:01Z</time>
      </trkpt>
      <trkpt lat="59.302933" lon="18.079705">
        <ele>38</ele>
        <time>2020-01-20T06:29:02Z</time>
      </trkpt>
      <trkpt lat="59.302961" lon="18.079686">
        <ele>38</ele>
        <time>2020-01-20T06:29:03Z</time>
      </trkpt>
      <trkpt lat="59.30299" lon="18.079666">
        <ele>38</ele>
        <time>2020-01-20T06:29:04Z</time>
      </trkpt>
      <trkpt lat="59.30302" lon="18.079646">
        <ele>38</ele>
        <time>2020-01-20T06:29:05Z</time>
      </trkpt>
      <trkpt lat="59.303044" lon="18.07963">
        <ele>38</ele>
        <time>2020-01-20T06:29:07Z</time>
      </trkpt>
      <trkpt lat="59.303074" lon="18.079611">
        <ele>38</ele>
        <time>2020-01-20T06:29:07Z</time>
      </trkpt>
      <trkpt lat="59.303102" lon="18.079597">
        <ele>38</ele>
        <time>2020-01-20T06:29:08Z</time>
      </trkpt>
      <trkpt lat="59.30313" lon="18.079579">
        <ele>38</ele>
        <time>2020-01-20T06:29:09Z</time>
      </trkpt>
      <trkpt lat="59.303158" lon="18.079564">
        <ele>38</ele>
        <time>2020-01-20T06:29:10Z</time>
      </trkpt>
      <trkpt lat="59.303187" lon="18.079548">
        <ele>37</ele>
        <time>2020-01-20T06:29:12Z</time>
      </trkpt>
      <trkpt lat="59.303216" lon="18.079532">
        <ele>37</ele>
        <time>2020-01-20T06:29:12Z</time>
      </trkpt>
      <trkpt lat="59.303245" lon="18.079512">
        <ele>37</ele>
        <time>2020-01-20T06:29:14Z</time>
      </trkpt>
      <trkpt lat="59.303274" lon="18.079494">
        <ele>37</ele>
        <time>2020-01-20T06:29:14Z</time>
      </trkpt>
      <trkpt lat="59.303304" lon="18.079473">
        <ele>37</ele>
        <time>2020-01-20T06:29:15Z</time>
      </trkpt>
      <trkpt lat="59.303332" lon="18.079456">
        <ele>37</ele>
        <time>2020-01-20T06:29:16Z</time>
      </trkpt>
      <trkpt lat="59.303359" lon="18.079438">
        <ele>37</ele>
        <time>2020-01-20T06:29:18Z</time>
      </trkpt>
      <trkpt lat="59.303386" lon="18.079422">
        <ele>37</ele>
        <time>2020-01-20T06:29:18Z</time>
      </trkpt>
      <trkpt lat="59.303414" lon="18.079404">
        <ele>37</ele>
        <time>2020-01-20T06:29:19Z</time>
      </trkpt>
      <trkpt lat="59.303442" lon="18.079388">
        <ele>37</ele>
        <time>2020-01-20T06:29:20Z</time>
      </trkpt>
      <trkpt lat="59.30347" lon="18.079367">
        <ele>37</ele>
        <time>2020-01-20T06:29:21Z</time>
      </trkpt>
      <trkpt lat="59.3035" lon="18.079343">
        <ele>37</ele>
        <time>2020-01-20T06:29:22Z</time>
      </trkpt>
      <trkpt lat="59.303527" lon="18.079325">
        <ele>37</ele>
        <time>2020-01-20T06:29:23Z</time>
      </trkpt>
      <trkpt lat="59.303556" lon="18.079309">
        <ele>37</ele>
        <time>2020-01-20T06:29:24Z</time>
      </trkpt>
      <trkpt lat="59.303583" lon="18.07929">
        <ele>37</ele>
        <time>2020-01-20T06:29:26Z</time>
      </trkpt>
      <trkpt lat="59.303612" lon="18.079273">
        <ele>37</ele>
        <time>2020-01-20T06:29:26Z</time>
      </trkpt>
      <trkpt lat="59.303642" lon="18.079255">
        <ele>37</ele>
        <time>2020-01-20T06:29:27Z</time>
      </trkpt>
      <trkpt lat="59.303672" lon="18.079239">
        <ele>37</ele>
        <time>2020-01-20T06:29:28Z</time>
      </trkpt>
      <trkpt lat="59.303698" lon="18.079223">
        <ele>37</ele>
        <time>2020-01-20T06:29:29Z</time>
      </trkpt>
      <trkpt lat="59.303728" lon="18.079205">
        <ele>37</ele>
        <time>2020-01-20T06:29:31Z</time>
      </trkpt>
      <trkpt lat="59.303759" lon="18.079189">
        <ele>37</ele>
        <time>2020-01-20T06:29:31Z</time>
      </trkpt>
      <trkpt lat="59.303788" lon="18.079173">
        <ele>37</ele>
        <time>2020-01-20T06:29:32Z</time>
      </trkpt>
      <trkpt lat="59.303816" lon="18.079156">
        <ele>37</ele>
        <time>2020-01-20T06:29:33Z</time>
      </trkpt>
      <trkpt lat="59.303845" lon="18.079136">
        <ele>37</ele>
        <time>2020-01-20T06:29:35Z</time>
      </trkpt>
      <trkpt lat="59.303876" lon="18.079117">
        <ele>36</ele>
        <time>2020-01-20T06:29:35Z</time>
      </trkpt>
      <trkpt lat="59.303906" lon="18.079099">
        <ele>36</ele>
        <time>2020-01-20T06:29:36Z</time>
      </trkpt>
      <trkpt lat="59.303935" lon="18.079081">
        <ele>36</ele>
        <time>2020-01-20T06:29:37Z</time>
      </trkpt>
      <trkpt lat="59.303966" lon="18.079061">
        <ele>36</ele>
        <time>2020-01-20T06:29:38Z</time>
      </trkpt>
      <trkpt lat="59.303997" lon="18.079043">
        <ele>36</ele>
        <time>2020-01-20T06:29:39Z</time>
      </trkpt>
      <trkpt lat="59.304028" lon="18.079024">
        <ele>36</ele>
        <time>2020-01-20T06:29:40Z</time>
      </trkpt>
      <trkpt lat="59.304058" lon="18.079005">
        <ele>36</ele>
        <time>2020-01-20T06:29:41Z</time>
      </trkpt>
      <trkpt lat="59.304087" lon="18.078989">
        <ele>36</ele>
        <time>2020-01-20T06:29:43Z</time>
      </trkpt>
      <trkpt lat="59.304115" lon="18.078974">
        <ele>36</ele>
        <time>2020-01-20T06:29:43Z</time>
      </trkpt>
      <trkpt lat="59.304143" lon="18.078954">
        <ele>36</ele>
        <time>2020-01-20T06:29:44Z</time>
      </trkpt>
      <trkpt lat="59.304172" lon="18.078935">
        <ele>35</ele>
        <time>2020-01-20T06:29:45Z</time>
      </trkpt>
      <trkpt lat="59.3042" lon="18.078919">
        <ele>35</ele>
        <time>2020-01-20T06:29:46Z</time>
      </trkpt>
      <trkpt lat="59.30423" lon="18.0789">
        <ele>35</ele>
        <time>2020-01-20T06:29:47Z</time>
      </trkpt>
      <trkpt lat="59.304258" lon="18.078887">
        <ele>35</ele>
        <time>2020-01-20T06:29:48Z</time>
      </trkpt>
      <trkpt lat="59.304287" lon="18.078867">
        <ele>35</ele>
        <time>2020-01-20T06:29:50Z</time>
      </trkpt>
      <trkpt lat="59.304316" lon="18.078851">
        <ele>35</ele>
        <time>2020-01-20T06:29:51Z</time>
      </trkpt>
      <trkpt lat="59.304346" lon="18.078832">
        <ele>35</ele>
        <time>2020-01-20T06:29:51Z</time>
      </trkpt>
      <trkpt lat="59.304376" lon="18.078813">
        <ele>35</ele>
        <time>2020-01-20T06:29:52Z</time>
      </trkpt>
      <trkpt lat="59.304402" lon="18.078797">
        <ele>35</ele>
        <time>2020-01-20T06:29:53Z</time>
      </trkpt>
      <trkpt lat="59.304432" lon="18.078783">
        <ele>34</ele>
        <time>2020-01-20T06:29:54Z</time>
      </trkpt>
      <trkpt lat="59.30446" lon="18.078769">
        <ele>34</ele>
        <time>2020-01-20T06:29:56Z</time>
      </trkpt>
      <trkpt lat="59.304489" lon="18.078754">
        <ele>34</ele>
        <time>2020-01-20T06:29:56Z</time>
      </trkpt>
      <trkpt lat="59.304518" lon="18.078734">
        <ele>34</ele>
        <time>2020-01-20T06:29:57Z</time>
      </trkpt>
      <trkpt lat="59.304548" lon="18.078716">
        <ele>34</ele>
        <time>2020-01-20T06:29:59Z</time>
      </trkpt>
      <trkpt lat="59.304576" lon="18.078695">
        <ele>34</ele>
        <time>2020-01-20T06:29:59Z</time>
      </trkpt>
      <trkpt lat="59.304606" lon="18.078676">
        <ele>34</ele>
        <time>2020-01-20T06:30:00Z</time>
      </trkpt>
      <trkpt lat="59.304634" lon="18.078654">
        <ele>34</ele>
        <time>2020-01-20T06:30:01Z</time>
      </trkpt>
      <trkpt lat="59.304663" lon="18.078635">
        <ele>34</ele>
        <time>2020-01-20T06:30:02Z</time>
      </trkpt>
      <trkpt lat="59.304692" lon="18.078618">
        <ele>33</ele>
        <time>2020-01-20T06:30:03Z</time>
      </trkpt>
      <trkpt lat="59.304722" lon="18.078599">
        <ele>33</ele>
        <time>2020-01-20T06:30:05Z</time>
      </trkpt>
      <trkpt lat="59.304751" lon="18.078582">
        <ele>33</ele>
        <time>2020-01-20T06:30:05Z</time>
      </trkpt>
      <trkpt lat="59.304781" lon="18.078562">
        <ele>33</ele>
        <time>2020-01-20T06:30:07Z</time>
      </trkpt>
      <trkpt lat="59.304811" lon="18.078545">
        <ele>33</ele>
        <time>2020-01-20T06:30:07Z</time>
      </trkpt>
      <trkpt lat="59.304839" lon="18.078528">
        <ele>33</ele>
        <time>2020-01-20T06:30:09Z</time>
      </trkpt>
      <trkpt lat="59.304868" lon="18.078508">
        <ele>33</ele>
        <time>2020-01-20T06:30:09Z</time>
      </trkpt>
      <trkpt lat="59.304897" lon="18.07849">
        <ele>33</ele>
        <time>2020-01-20T06:30:10Z</time>
      </trkpt>
      <trkpt lat="59.304926" lon="18.078472">
        <ele>32</ele>
        <time>2020-01-20T06:30:11Z</time>
      </trkpt>
      <trkpt lat="59.304954" lon="18.078454">
        <ele>32</ele>
        <time>2020-01-20T06:30:12Z</time>
      </trkpt>
      <trkpt lat="59.304984" lon="18.078433">
        <ele>32</ele>
        <time>2020-01-20T06:30:13Z</time>
      </trkpt>
      <trkpt lat="59.305014" lon="18.078414">
        <ele>32</ele>
        <time>2020-01-20T06:30:14Z</time>
      </trkpt>
      <trkpt lat="59.305043" lon="18.078394">
        <ele>32</ele>
        <time>2020-01-20T06:30:15Z</time>
      </trkpt>
      <trkpt lat="59.305071" lon="18.078373">
        <ele>32</ele>
        <time>2020-01-20T06:30:16Z</time>
      </trkpt>
      <trkpt lat="59.3051" lon="18.078355">
        <ele>32</ele>
        <time>2020-01-20T06:30:17Z</time>
      </trkpt>
      <trkpt lat="59.305128" lon="18.078338">
        <ele>32</ele>
        <time>2020-01-20T06:30:19Z</time>
      </trkpt>
      <trkpt lat="59.305158" lon="18.078319">
        <ele>32</ele>
        <time>2020-01-20T06:30:19Z</time>
      </trkpt>
      <trkpt lat="59.305187" lon="18.078303">
        <ele>32</ele>
        <time>2020-01-20T06:30:20Z</time>
      </trkpt>
      <trkpt lat="59.305216" lon="18.078285">
        <ele>31</ele>
        <time>2020-01-20T06:30:21Z</time>
      </trkpt>
      <trkpt lat="59.305242" lon="18.078264">
        <ele>31</ele>
        <time>2020-01-20T06:30:22Z</time>
      </trkpt>
      <trkpt lat="59.30527" lon="18.078246">
        <ele>31</ele>
        <time>2020-01-20T06:30:24Z</time>
      </trkpt>
      <trkpt lat="59.305298" lon="18.078228">
        <ele>31</ele>
        <time>2020-01-20T06:30:24Z</time>
      </trkpt>
      <trkpt lat="59.305326" lon="18.078211">
        <ele>31</ele>
        <time>2020-01-20T06:30:25Z</time>
      </trkpt>
      <trkpt lat="59.305355" lon="18.078196">
        <ele>31</ele>
        <time>2020-01-20T06:30:26Z</time>
      </trkpt>
      <trkpt lat="59.305383" lon="18.078177">
        <ele>31</ele>
        <time>2020-01-20T06:30:28Z</time>
      </trkpt>
      <trkpt lat="59.305412" lon="18.07816">
        <ele>31</ele>
        <time>2020-01-20T06:30:28Z</time>
      </trkpt>
      <trkpt lat="59.305442" lon="18.078145">
        <ele>31</ele>
        <time>2020-01-20T06:30:29Z</time>
      </trkpt>
      <trkpt lat="59.305472" lon="18.078127">
        <ele>31</ele>
        <time>2020-01-20T06:30:30Z</time>
      </trkpt>
      <trkpt lat="59.305501" lon="18.078109">
        <ele>31</ele>
        <time>2020-01-20T06:30:31Z</time>
      </trkpt>
      <trkpt lat="59.305529" lon="18.078088">
        <ele>30</ele>
        <time>2020-01-20T06:30:32Z</time>
      </trkpt>
      <trkpt lat="59.305558" lon="18.078073">
        <ele>30</ele>
        <time>2020-01-20T06:30:33Z</time>
      </trkpt>
      <trkpt lat="59.305586" lon="18.078053">
        <ele>30</ele>
        <time>2020-01-20T06:30:34Z</time>
      </trkpt>
      <trkpt lat="59.305614" lon="18.078033">
        <ele>30</ele>
        <time>2020-01-20T06:30:35Z</time>
      </trkpt>
      <trkpt lat="59.305643" lon="18.078014">
        <ele>30</ele>
        <time>2020-01-20T06:30:36Z</time>
      </trkpt>
      <trkpt lat="59.305672" lon="18.077996">
        <ele>30</ele>
        <time>2020-01-20T06:30:38Z</time>
      </trkpt>
      <trkpt lat="59.3057" lon="18.077978">
        <ele>30</ele>
        <time>2020-01-20T06:30:38Z</time>
      </trkpt>
      <trkpt lat="59.305728" lon="18.077961">
        <ele>30</ele>
        <time>2020-01-20T06:30:40Z</time>
      </trkpt>
      <trkpt lat="59.305758" lon="18.077946">
        <ele>29</ele>
        <time>2020-01-20T06:30:40Z</time>
      </trkpt>
      <trkpt lat="59.305788" lon="18.077928">
        <ele>29</ele>
        <time>2020-01-20T06:30:41Z</time>
      </trkpt>
      <trkpt lat="59.305817" lon="18.077911">
        <ele>29</ele>
        <time>2020-01-20T06:30:42Z</time>
      </trkpt>
      <trkpt lat="59.305844" lon="18.077895">
        <ele>29</ele>
        <time>2020-01-20T06:30:43Z</time>
      </trkpt>
      <trkpt lat="59.305872" lon="18.077875">
        <ele>29</ele>
        <time>2020-01-20T06:30:44Z</time>
      </trkpt>
      <trkpt lat="59.305901" lon="18.077855">
        <ele>29</ele>
        <time>2020-01-20T06:30:45Z</time>
      </trkpt>
      <trkpt lat="59.305931" lon="18.077836">
        <ele>29</ele>
        <time>2020-01-20T06:30:47Z</time>
      </trkpt>
      <trkpt lat="59.30596" lon="18.07782">
        <ele>29</ele>
        <time>2020-01-20T06:30:47Z</time>
      </trkpt>
      <trkpt lat="59.305989" lon="18.077803">
        <ele>29</ele>
        <time>2020-01-20T06:30:48Z</time>
      </trkpt>
      <trkpt lat="59.306018" lon="18.077781">
        <ele>29</ele>
        <time>2020-01-20T06:30:49Z</time>
      </trkpt>
      <trkpt lat="59.306047" lon="18.077762">
        <ele>28</ele>
        <time>2020-01-20T06:30:50Z</time>
      </trkpt>
      <trkpt lat="59.306076" lon="18.077743">
        <ele>28</ele>
        <time>2020-01-20T06:30:51Z</time>
      </trkpt>
      <trkpt lat="59.306107" lon="18.077721">
        <ele>28</ele>
        <time>2020-01-20T06:30:52Z</time>
      </trkpt>
      <trkpt lat="59.306136" lon="18.0777">
        <ele>28</ele>
        <time>2020-01-20T06:30:53Z</time>
      </trkpt>
      <trkpt lat="59.306165" lon="18.077683">
        <ele>28</ele>
        <time>2020-01-20T06:30:54Z</time>
      </trkpt>
      <trkpt lat="59.306194" lon="18.077667">
        <ele>28</ele>
        <time>2020-01-20T06:30:55Z</time>
      </trkpt>
      <trkpt lat="59.306223" lon="18.077649">
        <ele>28</ele>
        <time>2020-01-20T06:30:57Z</time>
      </trkpt>
      <trkpt lat="59.306251" lon="18.077631">
        <ele>28</ele>
        <time>2020-01-20T06:30:57Z</time>
      </trkpt>
      <trkpt lat="59.306278" lon="18.077612">
        <ele>28</ele>
        <time>2020-01-20T06:30:58Z</time>
      </trkpt>
      <trkpt lat="59.306304" lon="18.077594">
        <ele>28</ele>
        <time>2020-01-20T06:30:59Z</time>
      </trkpt>
      <trkpt lat="59.30633" lon="18.077575">
        <ele>28</ele>
        <time>2020-01-20T06:31:00Z</time>
      </trkpt>
      <trkpt lat="59.306356" lon="18.077554">
        <ele>28</ele>
        <time>2020-01-20T06:31:01Z</time>
      </trkpt>
      <trkpt lat="59.306382" lon="18.077534">
        <ele>28</ele>
        <time>2020-01-20T06:31:02Z</time>
      </trkpt>
      <trkpt lat="59.306409" lon="18.077512">
        <ele>27</ele>
        <time>2020-01-20T06:31:03Z</time>
      </trkpt>
      <trkpt lat="59.306436" lon="18.077491">
        <ele>27</ele>
        <time>2020-01-20T06:31:04Z</time>
      </trkpt>
      <trkpt lat="59.306463" lon="18.077476">
        <ele>27</ele>
        <time>2020-01-20T06:31:06Z</time>
      </trkpt>
      <trkpt lat="59.306491" lon="18.077461">
        <ele>27</ele>
        <time>2020-01-20T06:31:06Z</time>
      </trkpt>
      <trkpt lat="59.30652" lon="18.077445">
        <ele>27</ele>
        <time>2020-01-20T06:31:07Z</time>
      </trkpt>
      <trkpt lat="59.306549" lon="18.077426">
        <ele>27</ele>
        <time>2020-01-20T06:31:08Z</time>
      </trkpt>
      <trkpt lat="59.30658" lon="18.077408">
        <ele>27</ele>
        <time>2020-01-20T06:31:09Z</time>
      </trkpt>
      <trkpt lat="59.306609" lon="18.077391">
        <ele>27</ele>
        <time>2020-01-20T06:31:10Z</time>
      </trkpt>
      <trkpt lat="59.306638" lon="18.077375">
        <ele>27</ele>
        <time>2020-01-20T06:31:11Z</time>
      </trkpt>
      <trkpt lat="59.306666" lon="18.077357">
        <ele>27</ele>
        <time>2020-01-20T06:31:12Z</time>
      </trkpt>
      <trkpt lat="59.306694" lon="18.077343">
        <ele>27</ele>
        <time>2020-01-20T06:31:14Z</time>
      </trkpt>
      <trkpt lat="59.306722" lon="18.077327">
        <ele>27</ele>
        <time>2020-01-20T06:31:14Z</time>
      </trkpt>
      <trkpt lat="59.306751" lon="18.077311">
        <ele>27</ele>
        <time>2020-01-20T06:31:15Z</time>
      </trkpt>
      <trkpt lat="59.30678" lon="18.077298">
        <ele>27</ele>
        <time>2020-01-20T06:31:16Z</time>
      </trkpt>
      <trkpt lat="59.306809" lon="18.077283">
        <ele>27</ele>
        <time>2020-01-20T06:31:17Z</time>
      </trkpt>
      <trkpt lat="59.306839" lon="18.077263">
        <ele>27</ele>
        <time>2020-01-20T06:31:18Z</time>
      </trkpt>
      <trkpt lat="59.306868" lon="18.077246">
        <ele>27</ele>
        <time>2020-01-20T06:31:19Z</time>
      </trkpt>
      <trkpt lat="59.306898" lon="18.077228">
        <ele>27</ele>
        <time>2020-01-20T06:31:20Z</time>
      </trkpt>
      <trkpt lat="59.306927" lon="18.07721">
        <ele>28</ele>
        <time>2020-01-20T06:31:22Z</time>
      </trkpt>
      <trkpt lat="59.306956" lon="18.077194">
        <ele>28</ele>
        <time>2020-01-20T06:31:22Z</time>
      </trkpt>
      <trkpt lat="59.306986" lon="18.07718">
        <ele>28</ele>
        <time>2020-01-20T06:31:23Z</time>
      </trkpt>
      <trkpt lat="59.307017" lon="18.077164">
        <ele>29</ele>
        <time>2020-01-20T06:31:25Z</time>
      </trkpt>
      <trkpt lat="59.307044" lon="18.077133">
        <ele>29</ele>
        <time>2020-01-20T06:31:25Z</time>
      </trkpt>
      <trkpt lat="59.307073" lon="18.077116">
        <ele>29</ele>
        <time>2020-01-20T06:31:26Z</time>
      </trkpt>
      <trkpt lat="59.307102" lon="18.077097">
        <ele>29</ele>
        <time>2020-01-20T06:31:27Z</time>
      </trkpt>
      <trkpt lat="59.307132" lon="18.077079">
        <ele>29</ele>
        <time>2020-01-20T06:31:28Z</time>
      </trkpt>
      <trkpt lat="59.307163" lon="18.077068">
        <ele>30</ele>
        <time>2020-01-20T06:31:30Z</time>
      </trkpt>
      <trkpt lat="59.307196" lon="18.077056">
        <ele>30</ele>
        <time>2020-01-20T06:31:30Z</time>
      </trkpt>
      <trkpt lat="59.307228" lon="18.077042">
        <ele>30</ele>
        <time>2020-01-20T06:31:31Z</time>
      </trkpt>
      <trkpt lat="59.307261" lon="18.077029">
        <ele>30</ele>
        <time>2020-01-20T06:31:32Z</time>
      </trkpt>
      <trkpt lat="59.307291" lon="18.077013">
        <ele>30</ele>
        <time>2020-01-20T06:31:33Z</time>
      </trkpt>
      <trkpt lat="59.307319" lon="18.077">
        <ele>30</ele>
        <time>2020-01-20T06:31:34Z</time>
      </trkpt>
      <trkpt lat="59.307345" lon="18.076987">
        <ele>30</ele>
        <time>2020-01-20T06:31:36Z</time>
      </trkpt>
      <trkpt lat="59.307372" lon="18.076976">
        <ele>30</ele>
        <time>2020-01-20T06:31:36Z</time>
      </trkpt>
      <trkpt lat="59.3074" lon="18.076962">
        <ele>30</ele>
        <time>2020-01-20T06:31:37Z</time>
      </trkpt>
      <trkpt lat="59.307429" lon="18.076947">
        <ele>30</ele>
        <time>2020-01-20T06:31:38Z</time>
      </trkpt>
      <trkpt lat="59.307456" lon="18.076932">
        <ele>30</ele>
        <time>2020-01-20T06:31:39Z</time>
      </trkpt>
      <trkpt lat="59.307484" lon="18.076918">
        <ele>30</ele>
        <time>2020-01-20T06:31:40Z</time>
      </trkpt>
      <trkpt lat="59.307513" lon="18.076903">
        <ele>30</ele>
        <time>2020-01-20T06:31:41Z</time>
      </trkpt>
      <trkpt lat="59.307541" lon="18.076889">
        <ele>30</ele>
        <time>2020-01-20T06:31:42Z</time>
      </trkpt>
      <trkpt lat="59.307571" lon="18.076876">
        <ele>30</ele>
        <time>2020-01-20T06:31:44Z</time>
      </trkpt>
      <trkpt lat="59.307597" lon="18.076861">
        <ele>30</ele>
        <time>2020-01-20T06:31:44Z</time>
      </trkpt>
      <trkpt lat="59.307624" lon="18.076851">
        <ele>30</ele>
        <time>2020-01-20T06:31:45Z</time>
      </trkpt>
      <trkpt lat="59.307652" lon="18.076853">
        <ele>30</ele>
        <time>2020-01-20T06:31:47Z</time>
      </trkpt>
      <trkpt lat="59.307684" lon="18.076857">
        <ele>30</ele>
        <time>2020-01-20T06:31:47Z</time>
      </trkpt>
      <trkpt lat="59.307714" lon="18.076865">
        <ele>30</ele>
        <time>2020-01-20T06:31:48Z</time>
      </trkpt>
      <trkpt lat="59.307743" lon="18.076861">
        <ele>30</ele>
        <time>2020-01-20T06:31:49Z</time>
      </trkpt>
      <trkpt lat="59.30777" lon="18.076856">
        <ele>30</ele>
        <time>2020-01-20T06:31:50Z</time>
      </trkpt>
      <trkpt lat="59.30779" lon="18.076845">
        <ele>30</ele>
        <time>2020-01-20T06:31:52Z</time>
      </trkpt>
      <trkpt lat="59.307809" lon="18.076833">
        <ele>30</ele>
        <time>2020-01-20T06:31:52Z</time>
      </trkpt>
      <trkpt lat="59.307833" lon="18.076814">
        <ele>30</ele>
        <time>2020-01-20T06:31:53Z</time>
      </trkpt>
      <trkpt lat="59.307865" lon="18.076798">
        <ele>30</ele>
        <time>2020-01-20T06:31:55Z</time>
      </trkpt>
      <trkpt lat="59.307897" lon="18.076778">
        <ele>31</ele>
        <time>2020-01-20T06:31:55Z</time>
      </trkpt>
      <trkpt lat="59.307926" lon="18.076764">
        <ele>31</ele>
        <time>2020-01-20T06:31:56Z</time>
      </trkpt>
      <trkpt lat="59.307953" lon="18.076766">
        <ele>31</ele>
        <time>2020-01-20T06:31:57Z</time>
      </trkpt>
      <trkpt lat="59.307974" lon="18.076769">
        <ele>31</ele>
        <time>2020-01-20T06:31:58Z</time>
      </trkpt>
      <trkpt lat="59.308002" lon="18.076719">
        <ele>31</ele>
        <time>2020-01-20T06:32:00Z</time>
      </trkpt>
      <trkpt lat="59.308005" lon="18.076662">
        <ele>31</ele>
        <time>2020-01-20T06:32:01Z</time>
      </trkpt>
      <trkpt lat="59.308013" lon="18.076611">
        <ele>31</ele>
        <time>2020-01-20T06:32:03Z</time>
      </trkpt>
      <trkpt lat="59.308034" lon="18.07657">
        <ele>31</ele>
        <time>2020-01-20T06:32:03Z</time>
      </trkpt>
      <trkpt lat="59.308067" lon="18.076549">
        <ele>30</ele>
        <time>2020-01-20T06:32:05Z</time>
      </trkpt>
      <trkpt lat="59.308098" lon="18.076536">
        <ele>30</ele>
        <time>2020-01-20T06:32:05Z</time>
      </trkpt>
      <trkpt lat="59.308131" lon="18.076525">
        <ele>30</ele>
        <time>2020-01-20T06:32:06Z</time>
      </trkpt>
      <trkpt lat="59.308164" lon="18.076512">
        <ele>30</ele>
        <time>2020-01-20T06:32:08Z</time>
      </trkpt>
      <trkpt lat="59.308196" lon="18.0765">
        <ele>30</ele>
        <time>2020-01-20T06:32:08Z</time>
      </trkpt>
      <trkpt lat="59.308228" lon="18.076486">
        <ele>30</ele>
        <time>2020-01-20T06:32:09Z</time>
      </trkpt>
      <trkpt lat="59.30826" lon="18.076477">
        <ele>30</ele>
        <time>2020-01-20T06:32:10Z</time>
      </trkpt>
      <trkpt lat="59.30829" lon="18.076465">
        <ele>30</ele>
        <time>2020-01-20T06:32:11Z</time>
      </trkpt>
      <trkpt lat="59.308319" lon="18.076456">
        <ele>30</ele>
        <time>2020-01-20T06:32:12Z</time>
      </trkpt>
      <trkpt lat="59.308349" lon="18.076442">
        <ele>30</ele>
        <time>2020-01-20T06:32:13Z</time>
      </trkpt>
      <trkpt lat="59.308378" lon="18.076427">
        <ele>30</ele>
        <time>2020-01-20T06:32:14Z</time>
      </trkpt>
      <trkpt lat="59.308406" lon="18.076393">
        <ele>30</ele>
        <time>2020-01-20T06:32:15Z</time>
      </trkpt>
      <trkpt lat="59.308433" lon="18.076373">
        <ele>30</ele>
        <time>2020-01-20T06:32:16Z</time>
      </trkpt>
      <trkpt lat="59.308463" lon="18.076359">
        <ele>30</ele>
        <time>2020-01-20T06:32:17Z</time>
      </trkpt>
      <trkpt lat="59.308489" lon="18.076343">
        <ele>30</ele>
        <time>2020-01-20T06:32:19Z</time>
      </trkpt>
      <trkpt lat="59.308518" lon="18.076331">
        <ele>30</ele>
        <time>2020-01-20T06:32:19Z</time>
      </trkpt>
      <trkpt lat="59.308546" lon="18.076318">
        <ele>31</ele>
        <time>2020-01-20T06:32:20Z</time>
      </trkpt>
      <trkpt lat="59.308575" lon="18.076295">
        <ele>0</ele>
        <time>2020-01-20T06:32:21Z</time>
      </trkpt>
      <trkpt lat="59.308608" lon="18.076283">
        <ele>31</ele>
        <time>2020-01-20T06:32:22Z</time>
      </trkpt>
      <trkpt lat="59.308637" lon="18.076255">
        <ele>31</ele>
        <time>2020-01-20T06:32:23Z</time>
      </trkpt>
      <trkpt lat="59.308668" lon="18.07624">
        <ele>31</ele>
        <time>2020-01-20T06:32:24Z</time>
      </trkpt>
      <trkpt lat="59.308697" lon="18.076225">
        <ele>31</ele>
        <time>2020-01-20T06:32:25Z</time>
      </trkpt>
      <trkpt lat="59.308726" lon="18.076214">
        <ele>32</ele>
        <time>2020-01-20T06:32:26Z</time>
      </trkpt>
      <trkpt lat="59.308751" lon="18.076191">
        <ele>32</ele>
        <time>2020-01-20T06:32:27Z</time>
      </trkpt>
      <trkpt lat="59.308778" lon="18.076185">
        <ele>32</ele>
        <time>2020-01-20T06:32:28Z</time>
      </trkpt>
      <trkpt lat="59.308805" lon="18.076177">
        <ele>32</ele>
        <time>2020-01-20T06:32:30Z</time>
      </trkpt>
      <trkpt lat="59.308831" lon="18.076156">
        <ele>32</ele>
        <time>2020-01-20T06:32:30Z</time>
      </trkpt>
      <trkpt lat="59.308856" lon="18.076139">
        <ele>32</ele>
        <time>2020-01-20T06:32:31Z</time>
      </trkpt>
      <trkpt lat="59.308882" lon="18.076121">
        <ele>32</ele>
        <time>2020-01-20T06:32:32Z</time>
      </trkpt>
      <trkpt lat="59.308909" lon="18.076107">
        <ele>32</ele>
        <time>2020-01-20T06:32:33Z</time>
      </trkpt>
      <trkpt lat="59.308938" lon="18.076097">
        <ele>32</ele>
        <time>2020-01-20T06:32:34Z</time>
      </trkpt>
      <trkpt lat="59.308964" lon="18.07607">
        <ele>33</ele>
        <time>2020-01-20T06:32:35Z</time>
      </trkpt>
      <trkpt lat="59.308993" lon="18.076042">
        <ele>33</ele>
        <time>2020-01-20T06:32:36Z</time>
      </trkpt>
      <trkpt lat="59.30902" lon="18.076018">
        <ele>33</ele>
        <time>2020-01-20T06:32:38Z</time>
      </trkpt>
      <trkpt lat="59.309044" lon="18.075994">
        <ele>33</ele>
        <time>2020-01-20T06:32:38Z</time>
      </trkpt>
      <trkpt lat="59.309071" lon="18.075979">
        <ele>34</ele>
        <time>2020-01-20T06:32:39Z</time>
      </trkpt>
      <trkpt lat="59.309099" lon="18.075968">
        <ele>34</ele>
        <time>2020-01-20T06:32:41Z</time>
      </trkpt>
      <trkpt lat="59.309128" lon="18.075961">
        <ele>35</ele>
        <time>2020-01-20T06:32:41Z</time>
      </trkpt>
      <trkpt lat="59.309155" lon="18.075946">
        <ele>35</ele>
        <time>2020-01-20T06:32:42Z</time>
      </trkpt>
      <trkpt lat="59.30918" lon="18.075935">
        <ele>36</ele>
        <time>2020-01-20T06:32:43Z</time>
      </trkpt>
      <trkpt lat="59.309207" lon="18.075923">
        <ele>36</ele>
        <time>2020-01-20T06:32:44Z</time>
      </trkpt>
      <trkpt lat="59.309234" lon="18.075909">
        <ele>36</ele>
        <time>2020-01-20T06:32:45Z</time>
      </trkpt>
      <trkpt lat="59.309262" lon="18.0759">
        <ele>36</ele>
        <time>2020-01-20T06:32:46Z</time>
      </trkpt>
      <trkpt lat="59.309291" lon="18.075887">
        <ele>36</ele>
        <time>2020-01-20T06:32:47Z</time>
      </trkpt>
      <trkpt lat="59.309318" lon="18.07587">
        <ele>36</ele>
        <time>2020-01-20T06:32:49Z</time>
      </trkpt>
      <trkpt lat="59.309343" lon="18.075847">
        <ele>37</ele>
        <time>2020-01-20T06:32:49Z</time>
      </trkpt>
      <trkpt lat="59.309369" lon="18.075827">
        <ele>37</ele>
        <time>2020-01-20T06:32:50Z</time>
      </trkpt>
      <trkpt lat="59.309393" lon="18.075801">
        <ele>38</ele>
        <time>2020-01-20T06:32:51Z</time>
      </trkpt>
      <trkpt lat="59.309419" lon="18.075786">
        <ele>38</ele>
        <time>2020-01-20T06:32:52Z</time>
      </trkpt>
      <trkpt lat="59.309446" lon="18.075773">
        <ele>38</ele>
        <time>2020-01-20T06:32:53Z</time>
      </trkpt>
      <trkpt lat="59.309472" lon="18.07576">
        <ele>38</ele>
        <time>2020-01-20T06:32:54Z</time>
      </trkpt>
      <trkpt lat="59.309496" lon="18.075747">
        <ele>38</ele>
        <time>2020-01-20T06:32:55Z</time>
      </trkpt>
      <trkpt lat="59.30952" lon="18.075732">
        <ele>38</ele>
        <time>2020-01-20T06:32:57Z</time>
      </trkpt>
      <trkpt lat="59.309543" lon="18.075708">
        <ele>39</ele>
        <time>2020-01-20T06:32:57Z</time>
      </trkpt>
      <trkpt lat="59.309565" lon="18.07568">
        <ele>39</ele>
        <time>2020-01-20T06:32:58Z</time>
      </trkpt>
      <trkpt lat="59.309586" lon="18.075653">
        <ele>40</ele>
        <time>2020-01-20T06:33:00Z</time>
      </trkpt>
      <trkpt lat="59.309607" lon="18.075627">
        <ele>41</ele>
        <time>2020-01-20T06:33:00Z</time>
      </trkpt>
      <trkpt lat="59.309628" lon="18.075598">
        <ele>42</ele>
        <time>2020-01-20T06:33:02Z</time>
      </trkpt>
      <trkpt lat="59.309647" lon="18.07557">
        <ele>42</ele>
        <time>2020-01-20T06:33:02Z</time>
      </trkpt>
      <trkpt lat="59.309668" lon="18.075548">
        <ele>42</ele>
        <time>2020-01-20T06:33:03Z</time>
      </trkpt>
      <trkpt lat="59.309689" lon="18.075524">
        <ele>43</ele>
        <time>2020-01-20T06:33:04Z</time>
      </trkpt>
      <trkpt lat="59.309711" lon="18.075498">
        <ele>43</ele>
        <time>2020-01-20T06:33:05Z</time>
      </trkpt>
      <trkpt lat="59.309736" lon="18.07548">
        <ele>44</ele>
        <time>2020-01-20T06:33:06Z</time>
      </trkpt>
      <trkpt lat="59.309763" lon="18.075457">
        <ele>44</ele>
        <time>2020-01-20T06:33:07Z</time>
      </trkpt>
      <trkpt lat="59.309792" lon="18.075438">
        <ele>44</ele>
        <time>2020-01-20T06:33:08Z</time>
      </trkpt>
      <trkpt lat="59.309821" lon="18.075422">
        <ele>44</ele>
        <time>2020-01-20T06:33:09Z</time>
      </trkpt>
      <trkpt lat="59.309851" lon="18.075399">
        <ele>44</ele>
        <time>2020-01-20T06:33:10Z</time>
      </trkpt>
      <trkpt lat="59.309884" lon="18.075387">
        <ele>44</ele>
        <time>2020-01-20T06:33:11Z</time>
      </trkpt>
      <trkpt lat="59.309914" lon="18.075369">
        <ele>44</ele>
        <time>2020-01-20T06:33:13Z</time>
      </trkpt>
      <trkpt lat="59.309944" lon="18.075352">
        <ele>44</ele>
        <time>2020-01-20T06:33:14Z</time>
      </trkpt>
      <trkpt lat="59.309972" lon="18.075331">
        <ele>44</ele>
        <time>2020-01-20T06:33:14Z</time>
      </trkpt>
      <trkpt lat="59.31" lon="18.075315">
        <ele>44</ele>
        <time>2020-01-20T06:33:15Z</time>
      </trkpt>
      <trkpt lat="59.310025" lon="18.075302">
        <ele>44</ele>
        <time>2020-01-20T06:33:16Z</time>
      </trkpt>
      <trkpt lat="59.310053" lon="18.075292">
        <ele>44</ele>
        <time>2020-01-20T06:33:17Z</time>
      </trkpt>
      <trkpt lat="59.310079" lon="18.075272">
        <ele>44</ele>
        <time>2020-01-20T06:33:19Z</time>
      </trkpt>
      <trkpt lat="59.310107" lon="18.075254">
        <ele>44</ele>
        <time>2020-01-20T06:33:19Z</time>
      </trkpt>
      <trkpt lat="59.310133" lon="18.075229">
        <ele>44</ele>
        <time>2020-01-20T06:33:20Z</time>
      </trkpt>
      <trkpt lat="59.310159" lon="18.075211">
        <ele>44</ele>
        <time>2020-01-20T06:33:21Z</time>
      </trkpt>
      <trkpt lat="59.310188" lon="18.075194">
        <ele>44</ele>
        <time>2020-01-20T06:33:22Z</time>
      </trkpt>
      <trkpt lat="59.31022" lon="18.075178">
        <ele>44</ele>
        <time>2020-01-20T06:33:23Z</time>
      </trkpt>
      <trkpt lat="59.310251" lon="18.075165">
        <ele>45</ele>
        <time>2020-01-20T06:33:24Z</time>
      </trkpt>
      <trkpt lat="59.31028" lon="18.075148">
        <ele>45</ele>
        <time>2020-01-20T06:33:25Z</time>
      </trkpt>
      <trkpt lat="59.310309" lon="18.075135">
        <ele>45</ele>
        <time>2020-01-20T06:33:26Z</time>
      </trkpt>
      <trkpt lat="59.310338" lon="18.075121">
        <ele>45</ele>
        <time>2020-01-20T06:33:27Z</time>
      </trkpt>
      <trkpt lat="59.310367" lon="18.07511">
        <ele>45</ele>
        <time>2020-01-20T06:33:29Z</time>
      </trkpt>
      <trkpt lat="59.310398" lon="18.075098">
        <ele>46</ele>
        <time>2020-01-20T06:33:29Z</time>
      </trkpt>
      <trkpt lat="59.310432" lon="18.075084">
        <ele>46</ele>
        <time>2020-01-20T06:33:31Z</time>
      </trkpt>
      <trkpt lat="59.310468" lon="18.075074">
        <ele>46</ele>
        <time>2020-01-20T06:33:31Z</time>
      </trkpt>
      <trkpt lat="59.310497" lon="18.075062">
        <ele>46</ele>
        <time>2020-01-20T06:33:32Z</time>
      </trkpt>
      <trkpt lat="59.310528" lon="18.075063">
        <ele>46</ele>
        <time>2020-01-20T06:33:33Z</time>
      </trkpt>
      <trkpt lat="59.31056" lon="18.075065">
        <ele>46</ele>
        <time>2020-01-20T06:33:34Z</time>
      </trkpt>
      <trkpt lat="59.310593" lon="18.075063">
        <ele>46</ele>
        <time>2020-01-20T06:33:35Z</time>
      </trkpt>
      <trkpt lat="59.310624" lon="18.075048">
        <ele>46</ele>
        <time>2020-01-20T06:33:36Z</time>
      </trkpt>
      <trkpt lat="59.310654" lon="18.075033">
        <ele>47</ele>
        <time>2020-01-20T06:33:38Z</time>
      </trkpt>
      <trkpt lat="59.310683" lon="18.07502">
        <ele>47</ele>
        <time>2020-01-20T06:33:38Z</time>
      </trkpt>
      <trkpt lat="59.310711" lon="18.075002">
        <ele>47</ele>
        <time>2020-01-20T06:33:40Z</time>
      </trkpt>
      <trkpt lat="59.310739" lon="18.074984">
        <ele>47</ele>
        <time>2020-01-20T06:33:40Z</time>
      </trkpt>
      <trkpt lat="59.310765" lon="18.074968">
        <ele>47</ele>
        <time>2020-01-20T06:33:41Z</time>
      </trkpt>
      <trkpt lat="59.310792" lon="18.074952">
        <ele>46</ele>
        <time>2020-01-20T06:33:42Z</time>
      </trkpt>
      <trkpt lat="59.310817" lon="18.074934">
        <ele>46</ele>
        <time>2020-01-20T06:33:43Z</time>
      </trkpt>
      <trkpt lat="59.310844" lon="18.074916">
        <ele>45</ele>
        <time>2020-01-20T06:33:44Z</time>
      </trkpt>
      <trkpt lat="59.310875" lon="18.074898">
        <ele>45</ele>
        <time>2020-01-20T06:33:45Z</time>
      </trkpt>
      <trkpt lat="59.310907" lon="18.074884">
        <ele>45</ele>
        <time>2020-01-20T06:33:47Z</time>
      </trkpt>
      <trkpt lat="59.310935" lon="18.074863">
        <ele>44</ele>
        <time>2020-01-20T06:33:47Z</time>
      </trkpt>
      <trkpt lat="59.310963" lon="18.074843">
        <ele>44</ele>
        <time>2020-01-20T06:33:48Z</time>
      </trkpt>
      <trkpt lat="59.310993" lon="18.074824">
        <ele>44</ele>
        <time>2020-01-20T06:33:49Z</time>
      </trkpt>
      <trkpt lat="59.311023" lon="18.074802">
        <ele>43</ele>
        <time>2020-01-20T06:33:50Z</time>
      </trkpt>
      <trkpt lat="59.311055" lon="18.074785">
        <ele>43</ele>
        <time>2020-01-20T06:33:51Z</time>
      </trkpt>
      <trkpt lat="59.311083" lon="18.074767">
        <ele>43</ele>
        <time>2020-01-20T06:33:52Z</time>
      </trkpt>
      <trkpt lat="59.311112" lon="18.074747">
        <ele>43</ele>
        <time>2020-01-20T06:33:53Z</time>
      </trkpt>
      <trkpt lat="59.311142" lon="18.074727">
        <ele>43</ele>
        <time>2020-01-20T06:33:55Z</time>
      </trkpt>
      <trkpt lat="59.31117" lon="18.074708">
        <ele>43</ele>
        <time>2020-01-20T06:33:55Z</time>
      </trkpt>
      <trkpt lat="59.311196" lon="18.07469">
        <ele>43</ele>
        <time>2020-01-20T06:33:57Z</time>
      </trkpt>
      <trkpt lat="59.311221" lon="18.074674">
        <ele>42</ele>
        <time>2020-01-20T06:33:57Z</time>
      </trkpt>
      <trkpt lat="59.311246" lon="18.07466">
        <ele>42</ele>
        <time>2020-01-20T06:33:58Z</time>
      </trkpt>
      <trkpt lat="59.311273" lon="18.074647">
        <ele>42</ele>
        <time>2020-01-20T06:33:59Z</time>
      </trkpt>
      <trkpt lat="59.311296" lon="18.074631">
        <ele>42</ele>
        <time>2020-01-20T06:34:00Z</time>
      </trkpt>
      <trkpt lat="59.31132" lon="18.074615">
        <ele>42</ele>
        <time>2020-01-20T06:34:01Z</time>
      </trkpt>
      <trkpt lat="59.311345" lon="18.074597">
        <ele>42</ele>
        <time>2020-01-20T06:34:02Z</time>
      </trkpt>
      <trkpt lat="59.31137" lon="18.074581">
        <ele>42</ele>
        <time>2020-01-20T06:34:03Z</time>
      </trkpt>
      <trkpt lat="59.311397" lon="18.074566">
        <ele>43</ele>
        <time>2020-01-20T06:34:05Z</time>
      </trkpt>
      <trkpt lat="59.311427" lon="18.074547">
        <ele>43</ele>
        <time>2020-01-20T06:34:05Z</time>
      </trkpt>
      <trkpt lat="59.311458" lon="18.074529">
        <ele>43</ele>
        <time>2020-01-20T06:34:06Z</time>
      </trkpt>
      <trkpt lat="59.311494" lon="18.074518">
        <ele>43</ele>
        <time>2020-01-20T06:34:07Z</time>
      </trkpt>
      <trkpt lat="59.311532" lon="18.0745">
        <ele>43</ele>
        <time>2020-01-20T06:34:08Z</time>
      </trkpt>
      <trkpt lat="59.311565" lon="18.0745">
        <ele>43</ele>
        <time>2020-01-20T06:34:09Z</time>
      </trkpt>
      <trkpt lat="59.311609" lon="18.074506">
        <ele>44</ele>
        <time>2020-01-20T06:34:10Z</time>
      </trkpt>
      <trkpt lat="59.311633" lon="18.074501">
        <ele>44</ele>
        <time>2020-01-20T06:34:11Z</time>
      </trkpt>
      <trkpt lat="59.31166" lon="18.074497">
        <ele>44</ele>
        <time>2020-01-20T06:34:13Z</time>
      </trkpt>
      <trkpt lat="59.311687" lon="18.074493">
        <ele>44</ele>
        <time>2020-01-20T06:34:13Z</time>
      </trkpt>
      <trkpt lat="59.311714" lon="18.074474">
        <ele>44</ele>
        <time>2020-01-20T06:34:14Z</time>
      </trkpt>
      <trkpt lat="59.311742" lon="18.074464">
        <ele>44</ele>
        <time>2020-01-20T06:34:16Z</time>
      </trkpt>
      <trkpt lat="59.311768" lon="18.074449">
        <ele>44</ele>
        <time>2020-01-20T06:34:16Z</time>
      </trkpt>
      <trkpt lat="59.311799" lon="18.074442">
        <ele>44</ele>
        <time>2020-01-20T06:34:17Z</time>
      </trkpt>
      <trkpt lat="59.311832" lon="18.074425">
        <ele>44</ele>
        <time>2020-01-20T06:34:18Z</time>
      </trkpt>
      <trkpt lat="59.31186" lon="18.074414">
        <ele>44</ele>
        <time>2020-01-20T06:34:19Z</time>
      </trkpt>
      <trkpt lat="59.311893" lon="18.074403">
        <ele>43</ele>
        <time>2020-01-20T06:34:21Z</time>
      </trkpt>
      <trkpt lat="59.311925" lon="18.074393">
        <ele>43</ele>
        <time>2020-01-20T06:34:21Z</time>
      </trkpt>
      <trkpt lat="59.311955" lon="18.074386">
        <ele>42</ele>
        <time>2020-01-20T06:34:22Z</time>
      </trkpt>
      <trkpt lat="59.311986" lon="18.074374">
        <ele>42</ele>
        <time>2020-01-20T06:34:23Z</time>
      </trkpt>
      <trkpt lat="59.312017" lon="18.074365">
        <ele>42</ele>
        <time>2020-01-20T06:34:24Z</time>
      </trkpt>
      <trkpt lat="59.312048" lon="18.074357">
        <ele>42</ele>
        <time>2020-01-20T06:34:25Z</time>
      </trkpt>
      <trkpt lat="59.312077" lon="18.074345">
        <ele>42</ele>
        <time>2020-01-20T06:34:26Z</time>
      </trkpt>
      <trkpt lat="59.312106" lon="18.074329">
        <ele>43</ele>
        <time>2020-01-20T06:34:27Z</time>
      </trkpt>
      <trkpt lat="59.312136" lon="18.074315">
        <ele>44</ele>
        <time>2020-01-20T06:34:28Z</time>
      </trkpt>
      <trkpt lat="59.312165" lon="18.074296">
        <ele>44</ele>
        <time>2020-01-20T06:34:29Z</time>
      </trkpt>
      <trkpt lat="59.312192" lon="18.074277">
        <ele>45</ele>
        <time>2020-01-20T06:34:30Z</time>
      </trkpt>
      <trkpt lat="59.312218" lon="18.07426">
        <ele>45</ele>
        <time>2020-01-20T06:34:32Z</time>
      </trkpt>
      <trkpt lat="59.312243" lon="18.074239">
        <ele>45</ele>
        <time>2020-01-20T06:34:32Z</time>
      </trkpt>
      <trkpt lat="59.312271" lon="18.074215">
        <ele>45</ele>
        <time>2020-01-20T06:34:33Z</time>
      </trkpt>
      <trkpt lat="59.312297" lon="18.074189">
        <ele>46</ele>
        <time>2020-01-20T06:34:35Z</time>
      </trkpt>
      <trkpt lat="59.312324" lon="18.074172">
        <ele>46</ele>
        <time>2020-01-20T06:34:35Z</time>
      </trkpt>
      <trkpt lat="59.312348" lon="18.074154">
        <ele>46</ele>
        <time>2020-01-20T06:34:36Z</time>
      </trkpt>
      <trkpt lat="59.31237" lon="18.074135">
        <ele>46</ele>
        <time>2020-01-20T06:34:38Z</time>
      </trkpt>
      <trkpt lat="59.312393" lon="18.074122">
        <ele>45</ele>
        <time>2020-01-20T06:34:38Z</time>
      </trkpt>
      <trkpt lat="59.312412" lon="18.074117">
        <ele>45</ele>
        <time>2020-01-20T06:34:39Z</time>
      </trkpt>
      <trkpt lat="59.312434" lon="18.074099">
        <ele>45</ele>
        <time>2020-01-20T06:34:40Z</time>
      </trkpt>
      <trkpt lat="59.312457" lon="18.074084">
        <ele>44</ele>
        <time>2020-01-20T06:34:41Z</time>
      </trkpt>
      <trkpt lat="59.31248" lon="18.074058">
        <ele>44</ele>
        <time>2020-01-20T06:34:42Z</time>
      </trkpt>
      <trkpt lat="59.312504" lon="18.074037">
        <ele>43</ele>
        <time>2020-01-20T06:34:43Z</time>
      </trkpt>
      <trkpt lat="59.312529" lon="18.074022">
        <ele>43</ele>
        <time>2020-01-20T06:34:44Z</time>
      </trkpt>
      <trkpt lat="59.312555" lon="18.074">
        <ele>43</ele>
        <time>2020-01-20T06:34:45Z</time>
      </trkpt>
      <trkpt lat="59.312581" lon="18.073991">
        <ele>42</ele>
        <time>2020-01-20T06:34:46Z</time>
      </trkpt>
      <trkpt lat="59.312608" lon="18.07398">
        <ele>42</ele>
        <time>2020-01-20T06:34:47Z</time>
      </trkpt>
      <trkpt lat="59.312636" lon="18.073971">
        <ele>42</ele>
        <time>2020-01-20T06:34:48Z</time>
      </trkpt>
      <trkpt lat="59.312663" lon="18.073953">
        <ele>42</ele>
        <time>2020-01-20T06:34:49Z</time>
      </trkpt>
      <trkpt lat="59.312693" lon="18.073935">
        <ele>42</ele>
        <time>2020-01-20T06:34:50Z</time>
      </trkpt>
      <trkpt lat="59.312722" lon="18.073918">
        <ele>41</ele>
        <time>2020-01-20T06:34:51Z</time>
      </trkpt>
      <trkpt lat="59.312757" lon="18.073899">
        <ele>41</ele>
        <time>2020-01-20T06:34:52Z</time>
      </trkpt>
      <trkpt lat="59.312791" lon="18.073881">
        <ele>40</ele>
        <time>2020-01-20T06:34:54Z</time>
      </trkpt>
      <trkpt lat="59.312824" lon="18.07386">
        <ele>40</ele>
        <time>2020-01-20T06:34:54Z</time>
      </trkpt>
      <trkpt lat="59.312857" lon="18.073837">
        <ele>39</ele>
        <time>2020-01-20T06:34:56Z</time>
      </trkpt>
      <trkpt lat="59.31289" lon="18.073824">
        <ele>39</ele>
        <time>2020-01-20T06:34:56Z</time>
      </trkpt>
      <trkpt lat="59.312922" lon="18.073814">
        <ele>39</ele>
        <time>2020-01-20T06:34:57Z</time>
      </trkpt>
      <trkpt lat="59.312956" lon="18.073808">
        <ele>40</ele>
        <time>2020-01-20T06:34:59Z</time>
      </trkpt>
      <trkpt lat="59.31299" lon="18.073804">
        <ele>40</ele>
        <time>2020-01-20T06:34:59Z</time>
      </trkpt>
      <trkpt lat="59.313021" lon="18.073791">
        <ele>40</ele>
        <time>2020-01-20T06:35:00Z</time>
      </trkpt>
      <trkpt lat="59.31305" lon="18.07378">
        <ele>40</ele>
        <time>2020-01-20T06:35:02Z</time>
      </trkpt>
      <trkpt lat="59.313079" lon="18.07377">
        <ele>40</ele>
        <time>2020-01-20T06:35:02Z</time>
      </trkpt>
      <trkpt lat="59.313106" lon="18.073759">
        <ele>40</ele>
        <time>2020-01-20T06:35:03Z</time>
      </trkpt>
      <trkpt lat="59.313134" lon="18.073754">
        <ele>40</ele>
        <time>2020-01-20T06:35:04Z</time>
      </trkpt>
      <trkpt lat="59.313162" lon="18.073747">
        <ele>40</ele>
        <time>2020-01-20T06:35:05Z</time>
      </trkpt>
      <trkpt lat="59.313191" lon="18.07374">
        <ele>39</ele>
        <time>2020-01-20T06:35:06Z</time>
      </trkpt>
      <trkpt lat="59.313221" lon="18.073732">
        <ele>39</ele>
        <time>2020-01-20T06:35:07Z</time>
      </trkpt>
      <trkpt lat="59.313248" lon="18.073729">
        <ele>38</ele>
        <time>2020-01-20T06:35:08Z</time>
      </trkpt>
      <trkpt lat="59.313277" lon="18.073727">
        <ele>38</ele>
        <time>2020-01-20T06:35:09Z</time>
      </trkpt>
      <trkpt lat="59.313305" lon="18.073726">
        <ele>38</ele>
        <time>2020-01-20T06:35:10Z</time>
      </trkpt>
      <trkpt lat="59.313332" lon="18.07372">
        <ele>38</ele>
        <time>2020-01-20T06:35:12Z</time>
      </trkpt>
      <trkpt lat="59.31336" lon="18.073719">
        <ele>38</ele>
        <time>2020-01-20T06:35:13Z</time>
      </trkpt>
      <trkpt lat="59.313389" lon="18.073714">
        <ele>38</ele>
        <time>2020-01-20T06:35:13Z</time>
      </trkpt>
      <trkpt lat="59.31342" lon="18.073705">
        <ele>38</ele>
        <time>2020-01-20T06:35:15Z</time>
      </trkpt>
      <trkpt lat="59.313449" lon="18.073698">
        <ele>38</ele>
        <time>2020-01-20T06:35:15Z</time>
      </trkpt>
      <trkpt lat="59.313477" lon="18.07369">
        <ele>38</ele>
        <time>2020-01-20T06:35:16Z</time>
      </trkpt>
      <trkpt lat="59.313503" lon="18.073678">
        <ele>38</ele>
        <time>2020-01-20T06:35:17Z</time>
      </trkpt>
      <trkpt lat="59.31353" lon="18.073667">
        <ele>38</ele>
        <time>2020-01-20T06:35:18Z</time>
      </trkpt>
      <trkpt lat="59.313557" lon="18.073656">
        <ele>38</ele>
        <time>2020-01-20T06:35:19Z</time>
      </trkpt>
      <trkpt lat="59.313587" lon="18.073637">
        <ele>38</ele>
        <time>2020-01-20T06:35:20Z</time>
      </trkpt>
      <trkpt lat="59.313615" lon="18.073615">
        <ele>38</ele>
        <time>2020-01-20T06:35:21Z</time>
      </trkpt>
      <trkpt lat="59.313643" lon="18.073591">
        <ele>38</ele>
        <time>2020-01-20T06:35:22Z</time>
      </trkpt>
      <trkpt lat="59.313669" lon="18.073564">
        <ele>38</ele>
        <time>2020-01-20T06:35:23Z</time>
      </trkpt>
      <trkpt lat="59.313698" lon="18.073542">
        <ele>38</ele>
        <time>2020-01-20T06:35:24Z</time>
      </trkpt>
      <trkpt lat="59.313725" lon="18.073524">
        <ele>38</ele>
        <time>2020-01-20T06:35:26Z</time>
      </trkpt>
      <trkpt lat="59.313751" lon="18.073502">
        <ele>38</ele>
        <time>2020-01-20T06:35:26Z</time>
      </trkpt>
      <trkpt lat="59.313777" lon="18.073488">
        <ele>38</ele>
        <time>2020-01-20T06:35:27Z</time>
      </trkpt>
      <trkpt lat="59.313806" lon="18.073468">
        <ele>38</ele>
        <time>2020-01-20T06:35:29Z</time>
      </trkpt>
      <trkpt lat="59.313834" lon="18.073449">
        <ele>37</ele>
        <time>2020-01-20T06:35:29Z</time>
      </trkpt>
      <trkpt lat="59.313861" lon="18.073431">
        <ele>37</ele>
        <time>2020-01-20T06:35:30Z</time>
      </trkpt>
      <trkpt lat="59.31389" lon="18.073408">
        <ele>37</ele>
        <time>2020-01-20T06:35:32Z</time>
      </trkpt>
      <trkpt lat="59.313919" lon="18.073383">
        <ele>37</ele>
        <time>2020-01-20T06:35:32Z</time>
      </trkpt>
      <trkpt lat="59.31395" lon="18.073357">
        <ele>37</ele>
        <time>2020-01-20T06:35:33Z</time>
      </trkpt>
      <trkpt lat="59.313978" lon="18.073338">
        <ele>37</ele>
        <time>2020-01-20T06:35:35Z</time>
      </trkpt>
      <trkpt lat="59.314006" lon="18.073321">
        <ele>38</ele>
        <time>2020-01-20T06:35:35Z</time>
      </trkpt>
      <trkpt lat="59.314036" lon="18.073303">
        <ele>38</ele>
        <time>2020-01-20T06:35:36Z</time>
      </trkpt>
      <trkpt lat="59.314068" lon="18.073287">
        <ele>39</ele>
        <time>2020-01-20T06:35:38Z</time>
      </trkpt>
      <trkpt lat="59.3141" lon="18.07327">
        <ele>39</ele>
        <time>2020-01-20T06:35:38Z</time>
      </trkpt>
      <trkpt lat="59.314134" lon="18.073247">
        <ele>39</ele>
        <time>2020-01-20T06:35:39Z</time>
      </trkpt>
      <trkpt lat="59.314169" lon="18.073251">
        <ele>40</ele>
        <time>2020-01-20T06:35:40Z</time>
      </trkpt>
      <trkpt lat="59.314205" lon="18.073263">
        <ele>40</ele>
        <time>2020-01-20T06:35:41Z</time>
      </trkpt>
      <trkpt lat="59.31424" lon="18.073272">
        <ele>41</ele>
        <time>2020-01-20T06:35:42Z</time>
      </trkpt>
      <trkpt lat="59.314271" lon="18.073276">
        <ele>42</ele>
        <time>2020-01-20T06:35:43Z</time>
      </trkpt>
      <trkpt lat="59.3143" lon="18.073283">
        <ele>42</ele>
        <time>2020-01-20T06:35:45Z</time>
      </trkpt>
      <trkpt lat="59.314328" lon="18.073279">
        <ele>42</ele>
        <time>2020-01-20T06:35:45Z</time>
      </trkpt>
      <trkpt lat="59.314359" lon="18.073269">
        <ele>43</ele>
        <time>2020-01-20T06:35:46Z</time>
      </trkpt>
      <trkpt lat="59.314388" lon="18.073254">
        <ele>43</ele>
        <time>2020-01-20T06:35:47Z</time>
      </trkpt>
      <trkpt lat="59.314418" lon="18.073236">
        <ele>43</ele>
        <time>2020-01-20T06:35:48Z</time>
      </trkpt>
      <trkpt lat="59.314445" lon="18.073214">
        <ele>44</ele>
        <time>2020-01-20T06:35:49Z</time>
      </trkpt>
      <trkpt lat="59.31447" lon="18.073193">
        <ele>44</ele>
        <time>2020-01-20T06:35:51Z</time>
      </trkpt>
      <trkpt lat="59.314492" lon="18.073174">
        <ele>44</ele>
        <time>2020-01-20T06:35:51Z</time>
      </trkpt>
      <trkpt lat="59.314518" lon="18.073153">
        <ele>44</ele>
        <time>2020-01-20T06:35:52Z</time>
      </trkpt>
      <trkpt lat="59.314541" lon="18.073133">
        <ele>44</ele>
        <time>2020-01-20T06:35:53Z</time>
      </trkpt>
      <trkpt lat="59.314564" lon="18.073115">
        <ele>43</ele>
        <time>2020-01-20T06:35:54Z</time>
      </trkpt>
      <trkpt lat="59.314589" lon="18.073096">
        <ele>43</ele>
        <time>2020-01-20T06:35:55Z</time>
      </trkpt>
      <trkpt lat="59.314615" lon="18.073073">
        <ele>43</ele>
        <time>2020-01-20T06:35:56Z</time>
      </trkpt>
      <trkpt lat="59.314642" lon="18.073053">
        <ele>43</ele>
        <time>2020-01-20T06:35:58Z</time>
      </trkpt>
      <trkpt lat="59.314666" lon="18.073032">
        <ele>42</ele>
        <time>2020-01-20T06:35:58Z</time>
      </trkpt>
      <trkpt lat="59.314688" lon="18.073013">
        <ele>42</ele>
        <time>2020-01-20T06:35:59Z</time>
      </trkpt>
      <trkpt lat="59.314706" lon="18.073002">
        <ele>42</ele>
        <time>2020-01-20T06:36:00Z</time>
      </trkpt>
      <trkpt lat="59.314726" lon="18.07299">
        <ele>41</ele>
        <time>2020-01-20T06:36:01Z</time>
      </trkpt>
      <trkpt lat="59.314755" lon="18.072986">
        <ele>41</ele>
        <time>2020-01-20T06:36:03Z</time>
      </trkpt>
      <trkpt lat="59.314783" lon="18.072978">
        <ele>41</ele>
        <time>2020-01-20T06:36:03Z</time>
      </trkpt>
      <trkpt lat="59.314807" lon="18.072963">
        <ele>42</ele>
        <time>2020-01-20T06:36:04Z</time>
      </trkpt>
      <trkpt lat="59.314834" lon="18.072955">
        <ele>42</ele>
        <time>2020-01-20T06:36:05Z</time>
      </trkpt>
      <trkpt lat="59.314863" lon="18.072943">
        <ele>42</ele>
        <time>2020-01-20T06:36:06Z</time>
      </trkpt>
      <trkpt lat="59.314888" lon="18.072928">
        <ele>42</ele>
        <time>2020-01-20T06:36:07Z</time>
      </trkpt>
      <trkpt lat="59.314915" lon="18.072921">
        <ele>42</ele>
        <time>2020-01-20T06:36:08Z</time>
      </trkpt>
      <trkpt lat="59.314942" lon="18.072916">
        <ele>42</ele>
        <time>2020-01-20T06:36:10Z</time>
      </trkpt>
      <trkpt lat="59.314971" lon="18.072911">
        <ele>42</ele>
        <time>2020-01-20T06:36:10Z</time>
      </trkpt>
      <trkpt lat="59.314999" lon="18.072909">
        <ele>42</ele>
        <time>2020-01-20T06:36:11Z</time>
      </trkpt>
      <trkpt lat="59.315026" lon="18.07291">
        <ele>43</ele>
        <time>2020-01-20T06:36:12Z</time>
      </trkpt>
      <trkpt lat="59.315054" lon="18.072908">
        <ele>43</ele>
        <time>2020-01-20T06:36:13Z</time>
      </trkpt>
      <trkpt lat="59.315084" lon="18.072904">
        <ele>43</ele>
        <time>2020-01-20T06:36:14Z</time>
      </trkpt>
      <trkpt lat="59.315113" lon="18.072896">
        <ele>43</ele>
        <time>2020-01-20T06:36:15Z</time>
      </trkpt>
      <trkpt lat="59.315142" lon="18.072891">
        <ele>43</ele>
        <time>2020-01-20T06:36:16Z</time>
      </trkpt>
      <trkpt lat="59.315171" lon="18.072888">
        <ele>43</ele>
        <time>2020-01-20T06:36:17Z</time>
      </trkpt>
      <trkpt lat="59.315201" lon="18.072884">
        <ele>43</ele>
        <time>2020-01-20T06:36:18Z</time>
      </trkpt>
      <trkpt lat="59.315231" lon="18.072879">
        <ele>43</ele>
        <time>2020-01-20T06:36:20Z</time>
      </trkpt>
      <trkpt lat="59.315258" lon="18.072872">
        <ele>43</ele>
        <time>2020-01-20T06:36:21Z</time>
      </trkpt>
      <trkpt lat="59.315285" lon="18.072865">
        <ele>43</ele>
        <time>2020-01-20T06:36:21Z</time>
      </trkpt>
      <trkpt lat="59.315312" lon="18.072856">
        <ele>43</ele>
        <time>2020-01-20T06:36:22Z</time>
      </trkpt>
      <trkpt lat="59.31534" lon="18.072846">
        <ele>43</ele>
        <time>2020-01-20T06:36:23Z</time>
      </trkpt>
      <trkpt lat="59.315366" lon="18.072833">
        <ele>42</ele>
        <time>2020-01-20T06:36:24Z</time>
      </trkpt>
      <trkpt lat="59.315394" lon="18.072815">
        <ele>42</ele>
        <time>2020-01-20T06:36:25Z</time>
      </trkpt>
      <trkpt lat="59.315424" lon="18.072798">
        <ele>42</ele>
        <time>2020-01-20T06:36:26Z</time>
      </trkpt>
      <trkpt lat="59.315455" lon="18.072783">
        <ele>42</ele>
        <time>2020-01-20T06:36:27Z</time>
      </trkpt>
      <trkpt lat="59.315483" lon="18.072763">
        <ele>42</ele>
        <time>2020-01-20T06:36:29Z</time>
      </trkpt>
      <trkpt lat="59.31551" lon="18.072744">
        <ele>42</ele>
        <time>2020-01-20T06:36:29Z</time>
      </trkpt>
      <trkpt lat="59.315536" lon="18.072719">
        <ele>42</ele>
        <time>2020-01-20T06:36:30Z</time>
      </trkpt>
      <trkpt lat="59.315563" lon="18.072698">
        <ele>42</ele>
        <time>2020-01-20T06:36:31Z</time>
      </trkpt>
      <trkpt lat="59.315591" lon="18.072678">
        <ele>42</ele>
        <time>2020-01-20T06:36:32Z</time>
      </trkpt>
      <trkpt lat="59.315618" lon="18.072656">
        <ele>42</ele>
        <time>2020-01-20T06:36:33Z</time>
      </trkpt>
      <trkpt lat="59.315639" lon="18.072617">
        <ele>42</ele>
        <time>2020-01-20T06:36:35Z</time>
      </trkpt>
      <trkpt lat="59.315663" lon="18.072595">
        <ele>42</ele>
        <time>2020-01-20T06:36:35Z</time>
      </trkpt>
      <trkpt lat="59.315684" lon="18.072568">
        <ele>42</ele>
        <time>2020-01-20T06:36:36Z</time>
      </trkpt>
      <trkpt lat="59.315704" lon="18.072541">
        <ele>42</ele>
        <time>2020-01-20T06:36:37Z</time>
      </trkpt>
      <trkpt lat="59.315727" lon="18.072518">
        <ele>41</ele>
        <time>2020-01-20T06:36:39Z</time>
      </trkpt>
      <trkpt lat="59.315752" lon="18.072503">
        <ele>41</ele>
        <time>2020-01-20T06:36:39Z</time>
      </trkpt>
      <trkpt lat="59.315777" lon="18.072484">
        <ele>41</ele>
        <time>2020-01-20T06:36:40Z</time>
      </trkpt>
      <trkpt lat="59.315803" lon="18.072467">
        <ele>41</ele>
        <time>2020-01-20T06:36:41Z</time>
      </trkpt>
      <trkpt lat="59.315823" lon="18.072445">
        <ele>41</ele>
        <time>2020-01-20T06:36:42Z</time>
      </trkpt>
      <trkpt lat="59.315851" lon="18.072432">
        <ele>41</ele>
        <time>2020-01-20T06:36:43Z</time>
      </trkpt>
      <trkpt lat="59.315875" lon="18.072418">
        <ele>41</ele>
        <time>2020-01-20T06:36:44Z</time>
      </trkpt>
      <trkpt lat="59.3159" lon="18.072406">
        <ele>41</ele>
        <time>2020-01-20T06:36:45Z</time>
      </trkpt>
      <trkpt lat="59.315927" lon="18.072401">
        <ele>40</ele>
        <time>2020-01-20T06:36:46Z</time>
      </trkpt>
      <trkpt lat="59.315955" lon="18.072396">
        <ele>40</ele>
        <time>2020-01-20T06:36:48Z</time>
      </trkpt>
      <trkpt lat="59.315983" lon="18.072396">
        <ele>40</ele>
        <time>2020-01-20T06:36:48Z</time>
      </trkpt>
      <trkpt lat="59.316011" lon="18.072394">
        <ele>40</ele>
        <time>2020-01-20T06:36:49Z</time>
      </trkpt>
      <trkpt lat="59.316037" lon="18.072389">
        <ele>39</ele>
        <time>2020-01-20T06:36:50Z</time>
      </trkpt>
      <trkpt lat="59.316064" lon="18.07238">
        <ele>39</ele>
        <time>2020-01-20T06:36:51Z</time>
      </trkpt>
      <trkpt lat="59.316091" lon="18.072372">
        <ele>39</ele>
        <time>2020-01-20T06:36:52Z</time>
      </trkpt>
      <trkpt lat="59.316116" lon="18.072362">
        <ele>39</ele>
        <time>2020-01-20T06:36:53Z</time>
      </trkpt>
      <trkpt lat="59.316146" lon="18.072343">
        <ele>39</ele>
        <time>2020-01-20T06:36:54Z</time>
      </trkpt>
      <trkpt lat="59.316172" lon="18.072325">
        <ele>39</ele>
        <time>2020-01-20T06:36:55Z</time>
      </trkpt>
      <trkpt lat="59.316196" lon="18.072312">
        <ele>39</ele>
        <time>2020-01-20T06:36:56Z</time>
      </trkpt>
      <trkpt lat="59.31622" lon="18.072294">
        <ele>39</ele>
        <time>2020-01-20T06:36:58Z</time>
      </trkpt>
      <trkpt lat="59.316246" lon="18.072275">
        <ele>38</ele>
        <time>2020-01-20T06:36:58Z</time>
      </trkpt>
      <trkpt lat="59.31627" lon="18.072258">
        <ele>38</ele>
        <time>2020-01-20T06:36:59Z</time>
      </trkpt>
      <trkpt lat="59.316293" lon="18.072237">
        <ele>38</ele>
        <time>2020-01-20T06:37:00Z</time>
      </trkpt>
      <trkpt lat="59.316317" lon="18.07222">
        <ele>38</ele>
        <time>2020-01-20T06:37:01Z</time>
      </trkpt>
      <trkpt lat="59.31634" lon="18.072205">
        <ele>38</ele>
        <time>2020-01-20T06:37:02Z</time>
      </trkpt>
      <trkpt lat="59.316367" lon="18.072185">
        <ele>38</ele>
        <time>2020-01-20T06:37:03Z</time>
      </trkpt>
      <trkpt lat="59.316391" lon="18.072172">
        <ele>38</ele>
        <time>2020-01-20T06:37:04Z</time>
      </trkpt>
      <trkpt lat="59.316417" lon="18.072159">
        <ele>37</ele>
        <time>2020-01-20T06:37:05Z</time>
      </trkpt>
      <trkpt lat="59.316444" lon="18.072157">
        <ele>38</ele>
        <time>2020-01-20T06:37:07Z</time>
      </trkpt>
      <trkpt lat="59.316468" lon="18.072154">
        <ele>38</ele>
        <time>2020-01-20T06:37:07Z</time>
      </trkpt>
      <trkpt lat="59.316497" lon="18.07214">
        <ele>38</ele>
        <time>2020-01-20T06:37:08Z</time>
      </trkpt>
      <trkpt lat="59.316525" lon="18.072115">
        <ele>38</ele>
        <time>2020-01-20T06:37:09Z</time>
      </trkpt>
      <trkpt lat="59.316551" lon="18.072095">
        <ele>38</ele>
        <time>2020-01-20T06:37:10Z</time>
      </trkpt>
      <trkpt lat="59.316576" lon="18.072082">
        <ele>38</ele>
        <time>2020-01-20T06:37:11Z</time>
      </trkpt>
      <trkpt lat="59.316597" lon="18.072064">
        <ele>38</ele>
        <time>2020-01-20T06:37:12Z</time>
      </trkpt>
      <trkpt lat="59.31662" lon="18.072054">
        <ele>38</ele>
        <time>2020-01-20T06:37:13Z</time>
      </trkpt>
      <trkpt lat="59.316644" lon="18.072042">
        <ele>38</ele>
        <time>2020-01-20T06:37:14Z</time>
      </trkpt>
      <trkpt lat="59.316668" lon="18.072029">
        <ele>38</ele>
        <time>2020-01-20T06:37:15Z</time>
      </trkpt>
      <trkpt lat="59.316692" lon="18.072022">
        <ele>38</ele>
        <time>2020-01-20T06:37:17Z</time>
      </trkpt>
      <trkpt lat="59.316716" lon="18.072016">
        <ele>38</ele>
        <time>2020-01-20T06:37:17Z</time>
      </trkpt>
      <trkpt lat="59.316742" lon="18.072008">
        <ele>38</ele>
        <time>2020-01-20T06:37:18Z</time>
      </trkpt>
      <trkpt lat="59.316768" lon="18.072002">
        <ele>38</ele>
        <time>2020-01-20T06:37:19Z</time>
      </trkpt>
      <trkpt lat="59.316793" lon="18.071999">
        <ele>37</ele>
        <time>2020-01-20T06:37:20Z</time>
      </trkpt>
      <trkpt lat="59.316819" lon="18.071992">
        <ele>37</ele>
        <time>2020-01-20T06:37:21Z</time>
      </trkpt>
      <trkpt lat="59.316845" lon="18.071982">
        <ele>37</ele>
        <time>2020-01-20T06:37:22Z</time>
      </trkpt>
      <trkpt lat="59.316871" lon="18.071967">
        <ele>37</ele>
        <time>2020-01-20T06:37:23Z</time>
      </trkpt>
      <trkpt lat="59.316897" lon="18.071948">
        <ele>37</ele>
        <time>2020-01-20T06:37:24Z</time>
      </trkpt>
      <trkpt lat="59.316924" lon="18.071941">
        <ele>37</ele>
        <time>2020-01-20T06:37:26Z</time>
      </trkpt>
      <trkpt lat="59.316953" lon="18.07193">
        <ele>37</ele>
        <time>2020-01-20T06:37:26Z</time>
      </trkpt>
      <trkpt lat="59.31698" lon="18.071922">
        <ele>37</ele>
        <time>2020-01-20T06:37:27Z</time>
      </trkpt>
      <trkpt lat="59.317009" lon="18.071922">
        <ele>37</ele>
        <time>2020-01-20T06:37:28Z</time>
      </trkpt>
      <trkpt lat="59.317036" lon="18.071919">
        <ele>37</ele>
        <time>2020-01-20T06:37:29Z</time>
      </trkpt>
      <trkpt lat="59.317064" lon="18.071916">
        <ele>37</ele>
        <time>2020-01-20T06:37:30Z</time>
      </trkpt>
      <trkpt lat="59.317096" lon="18.071915">
        <ele>36</ele>
        <time>2020-01-20T06:37:31Z</time>
      </trkpt>
      <trkpt lat="59.317126" lon="18.071912">
        <ele>36</ele>
        <time>2020-01-20T06:37:32Z</time>
      </trkpt>
      <trkpt lat="59.317156" lon="18.071908">
        <ele>36</ele>
        <time>2020-01-20T06:37:34Z</time>
      </trkpt>
      <trkpt lat="59.317182" lon="18.071898">
        <ele>37</ele>
        <time>2020-01-20T06:37:35Z</time>
      </trkpt>
      <trkpt lat="59.31721" lon="18.071884">
        <ele>37</ele>
        <time>2020-01-20T06:37:35Z</time>
      </trkpt>
      <trkpt lat="59.317236" lon="18.071867">
        <ele>37</ele>
        <time>2020-01-20T06:37:36Z</time>
      </trkpt>
      <trkpt lat="59.317262" lon="18.07185">
        <ele>37</ele>
        <time>2020-01-20T06:37:37Z</time>
      </trkpt>
      <trkpt lat="59.31729" lon="18.071843">
        <ele>37</ele>
        <time>2020-01-20T06:37:38Z</time>
      </trkpt>
      <trkpt lat="59.317317" lon="18.071832">
        <ele>37</ele>
        <time>2020-01-20T06:37:39Z</time>
      </trkpt>
      <trkpt lat="59.317341" lon="18.071821">
        <ele>37</ele>
        <time>2020-01-20T06:37:40Z</time>
      </trkpt>
      <trkpt lat="59.317367" lon="18.07181">
        <ele>37</ele>
        <time>2020-01-20T06:37:41Z</time>
      </trkpt>
      <trkpt lat="59.317392" lon="18.071794">
        <ele>37</ele>
        <time>2020-01-20T06:37:43Z</time>
      </trkpt>
      <trkpt lat="59.317417" lon="18.071775">
        <ele>37</ele>
        <time>2020-01-20T06:37:43Z</time>
      </trkpt>
      <trkpt lat="59.317443" lon="18.071764">
        <ele>36</ele>
        <time>2020-01-20T06:37:45Z</time>
      </trkpt>
      <trkpt lat="59.317473" lon="18.071748">
        <ele>36</ele>
        <time>2020-01-20T06:37:45Z</time>
      </trkpt>
      <trkpt lat="59.317499" lon="18.071731">
        <ele>36</ele>
        <time>2020-01-20T06:37:47Z</time>
      </trkpt>
      <trkpt lat="59.317523" lon="18.07171">
        <ele>36</ele>
        <time>2020-01-20T06:37:47Z</time>
      </trkpt>
      <trkpt lat="59.317549" lon="18.071687">
        <ele>36</ele>
        <time>2020-01-20T06:37:48Z</time>
      </trkpt>
      <trkpt lat="59.317573" lon="18.07166">
        <ele>36</ele>
        <time>2020-01-20T06:37:49Z</time>
      </trkpt>
      <trkpt lat="59.3176" lon="18.071644">
        <ele>36</ele>
        <time>2020-01-20T06:37:50Z</time>
      </trkpt>
      <trkpt lat="59.317627" lon="18.071631">
        <ele>36</ele>
        <time>2020-01-20T06:37:51Z</time>
      </trkpt>
      <trkpt lat="59.317658" lon="18.071616">
        <ele>35</ele>
        <time>2020-01-20T06:37:53Z</time>
      </trkpt>
      <trkpt lat="59.317691" lon="18.071605">
        <ele>35</ele>
        <time>2020-01-20T06:37:53Z</time>
      </trkpt>
      <trkpt lat="59.317722" lon="18.071598">
        <ele>35</ele>
        <time>2020-01-20T06:37:54Z</time>
      </trkpt>
      <trkpt lat="59.317753" lon="18.071591">
        <ele>35</ele>
        <time>2020-01-20T06:37:55Z</time>
      </trkpt>
      <trkpt lat="59.317784" lon="18.071581">
        <ele>35</ele>
        <time>2020-01-20T06:37:56Z</time>
      </trkpt>
      <trkpt lat="59.317822" lon="18.07159">
        <ele>35</ele>
        <time>2020-01-20T06:37:57Z</time>
      </trkpt>
      <trkpt lat="59.317853" lon="18.071591">
        <ele>35</ele>
        <time>2020-01-20T06:37:58Z</time>
      </trkpt>
      <trkpt lat="59.317884" lon="18.071589">
        <ele>35</ele>
        <time>2020-01-20T06:37:59Z</time>
      </trkpt>
      <trkpt lat="59.31791" lon="18.071574">
        <ele>35</ele>
        <time>2020-01-20T06:38:01Z</time>
      </trkpt>
      <trkpt lat="59.317937" lon="18.071552">
        <ele>35</ele>
        <time>2020-01-20T06:38:01Z</time>
      </trkpt>
      <trkpt lat="59.317966" lon="18.071542">
        <ele>35</ele>
        <time>2020-01-20T06:38:02Z</time>
      </trkpt>
      <trkpt lat="59.317997" lon="18.071533">
        <ele>35</ele>
        <time>2020-01-20T06:38:04Z</time>
      </trkpt>
      <trkpt lat="59.318025" lon="18.071518">
        <ele>35</ele>
        <time>2020-01-20T06:38:04Z</time>
      </trkpt>
      <trkpt lat="59.318051" lon="18.07151">
        <ele>35</ele>
        <time>2020-01-20T06:38:05Z</time>
      </trkpt>
      <trkpt lat="59.318079" lon="18.071505">
        <ele>35</ele>
        <time>2020-01-20T06:38:06Z</time>
      </trkpt>
      <trkpt lat="59.318111" lon="18.071507">
        <ele>35</ele>
        <time>2020-01-20T06:38:07Z</time>
      </trkpt>
      <trkpt lat="59.318141" lon="18.071492">
        <ele>36</ele>
        <time>2020-01-20T06:38:09Z</time>
      </trkpt>
      <trkpt lat="59.31817" lon="18.071479">
        <ele>36</ele>
        <time>2020-01-20T06:38:09Z</time>
      </trkpt>
      <trkpt lat="59.318199" lon="18.071474">
        <ele>36</ele>
        <time>2020-01-20T06:38:10Z</time>
      </trkpt>
      <trkpt lat="59.318227" lon="18.071475">
        <ele>36</ele>
        <time>2020-01-20T06:38:11Z</time>
      </trkpt>
      <trkpt lat="59.318252" lon="18.071469">
        <ele>35</ele>
        <time>2020-01-20T06:38:12Z</time>
      </trkpt>
      <trkpt lat="59.31828" lon="18.071467">
        <ele>35</ele>
        <time>2020-01-20T06:38:13Z</time>
      </trkpt>
      <trkpt lat="59.318308" lon="18.071456">
        <ele>35</ele>
        <time>2020-01-20T06:38:14Z</time>
      </trkpt>
      <trkpt lat="59.318338" lon="18.071447">
        <ele>35</ele>
        <time>2020-01-20T06:38:15Z</time>
      </trkpt>
      <trkpt lat="59.318366" lon="18.071422">
        <ele>35</ele>
        <time>2020-01-20T06:38:17Z</time>
      </trkpt>
      <trkpt lat="59.318394" lon="18.071406">
        <ele>35</ele>
        <time>2020-01-20T06:38:17Z</time>
      </trkpt>
      <trkpt lat="59.318421" lon="18.071388">
        <ele>35</ele>
        <time>2020-01-20T06:38:18Z</time>
      </trkpt>
      <trkpt lat="59.31845" lon="18.07136">
        <ele>34</ele>
        <time>2020-01-20T06:38:19Z</time>
      </trkpt>
      <trkpt lat="59.318478" lon="18.071335">
        <ele>34</ele>
        <time>2020-01-20T06:38:20Z</time>
      </trkpt>
      <trkpt lat="59.318508" lon="18.071311">
        <ele>34</ele>
        <time>2020-01-20T06:38:21Z</time>
      </trkpt>
      <trkpt lat="59.318537" lon="18.071282">
        <ele>34</ele>
        <time>2020-01-20T06:38:23Z</time>
      </trkpt>
      <trkpt lat="59.318569" lon="18.071258">
        <ele>34</ele>
        <time>2020-01-20T06:38:23Z</time>
      </trkpt>
      <trkpt lat="59.3186" lon="18.071225">
        <ele>34</ele>
        <time>2020-01-20T06:38:25Z</time>
      </trkpt>
      <trkpt lat="59.318629" lon="18.071194">
        <ele>34</ele>
        <time>2020-01-20T06:38:25Z</time>
      </trkpt>
      <trkpt lat="59.318658" lon="18.071165">
        <ele>34</ele>
        <time>2020-01-20T06:38:26Z</time>
      </trkpt>
      <trkpt lat="59.318684" lon="18.071128">
        <ele>34</ele>
        <time>2020-01-20T06:38:27Z</time>
      </trkpt>
      <trkpt lat="59.318711" lon="18.071098">
        <ele>34</ele>
        <time>2020-01-20T06:38:28Z</time>
      </trkpt>
      <trkpt lat="59.318739" lon="18.071087">
        <ele>34</ele>
        <time>2020-01-20T06:38:29Z</time>
      </trkpt>
      <trkpt lat="59.31876" lon="18.071069">
        <ele>34</ele>
        <time>2020-01-20T06:38:31Z</time>
      </trkpt>
      <trkpt lat="59.318779" lon="18.071055">
        <ele>34</ele>
        <time>2020-01-20T06:38:31Z</time>
      </trkpt>
      <trkpt lat="59.318801" lon="18.071055">
        <ele>34</ele>
        <time>2020-01-20T06:38:32Z</time>
      </trkpt>
      <trkpt lat="59.318825" lon="18.071042">
        <ele>35</ele>
        <time>2020-01-20T06:38:34Z</time>
      </trkpt>
      <trkpt lat="59.318851" lon="18.071029">
        <ele>35</ele>
        <time>2020-01-20T06:38:34Z</time>
      </trkpt>
      <trkpt lat="59.318883" lon="18.071013">
        <ele>35</ele>
        <time>2020-01-20T06:38:35Z</time>
      </trkpt>
      <trkpt lat="59.318912" lon="18.070998">
        <ele>35</ele>
        <time>2020-01-20T06:38:36Z</time>
      </trkpt>
      <trkpt lat="59.31894" lon="18.070977">
        <ele>35</ele>
        <time>2020-01-20T06:38:37Z</time>
      </trkpt>
      <trkpt lat="59.318971" lon="18.070952">
        <ele>34</ele>
        <time>2020-01-20T06:38:38Z</time>
      </trkpt>
      <trkpt lat="59.319002" lon="18.07093">
        <ele>34</ele>
        <time>2020-01-20T06:38:39Z</time>
      </trkpt>
      <trkpt lat="59.319033" lon="18.070914">
        <ele>34</ele>
        <time>2020-01-20T06:38:40Z</time>
      </trkpt>
      <trkpt lat="59.319061" lon="18.070906">
        <ele>34</ele>
        <time>2020-01-20T06:38:42Z</time>
      </trkpt>
      <trkpt lat="59.319092" lon="18.070896">
        <ele>34</ele>
        <time>2020-01-20T06:38:43Z</time>
      </trkpt>
      <trkpt lat="59.319127" lon="18.070882">
        <ele>34</ele>
        <time>2020-01-20T06:38:43Z</time>
      </trkpt>
      <trkpt lat="59.319158" lon="18.070877">
        <ele>34</ele>
        <time>2020-01-20T06:38:44Z</time>
      </trkpt>
      <trkpt lat="59.31919" lon="18.070873">
        <ele>34</ele>
        <time>2020-01-20T06:38:45Z</time>
      </trkpt>
      <trkpt lat="59.319219" lon="18.070869">
        <ele>33</ele>
        <time>2020-01-20T06:38:46Z</time>
      </trkpt>
      <trkpt lat="59.319248" lon="18.070858">
        <ele>33</ele>
        <time>2020-01-20T06:38:47Z</time>
      </trkpt>
      <trkpt lat="59.319277" lon="18.070847">
        <ele>33</ele>
        <time>2020-01-20T06:38:48Z</time>
      </trkpt>
      <trkpt lat="59.319306" lon="18.070831">
        <ele>33</ele>
        <time>2020-01-20T06:38:49Z</time>
      </trkpt>
      <trkpt lat="59.319336" lon="18.070804">
        <ele>32</ele>
        <time>2020-01-20T06:38:51Z</time>
      </trkpt>
      <trkpt lat="59.319365" lon="18.070784">
        <ele>32</ele>
        <time>2020-01-20T06:38:51Z</time>
      </trkpt>
      <trkpt lat="59.319398" lon="18.070762">
        <ele>32</ele>
        <time>2020-01-20T06:38:52Z</time>
      </trkpt>
      <trkpt lat="59.319429" lon="18.070728">
        <ele>32</ele>
        <time>2020-01-20T06:38:53Z</time>
      </trkpt>
      <trkpt lat="59.319458" lon="18.070705">
        <ele>32</ele>
        <time>2020-01-20T06:38:54Z</time>
      </trkpt>
      <trkpt lat="59.319486" lon="18.070683">
        <ele>32</ele>
        <time>2020-01-20T06:38:55Z</time>
      </trkpt>
      <trkpt lat="59.319516" lon="18.070664">
        <ele>32</ele>
        <time>2020-01-20T06:38:56Z</time>
      </trkpt>
      <trkpt lat="59.319544" lon="18.070647">
        <ele>31</ele>
        <time>2020-01-20T06:38:58Z</time>
      </trkpt>
      <trkpt lat="59.319571" lon="18.070629">
        <ele>31</ele>
        <time>2020-01-20T06:38:58Z</time>
      </trkpt>
      <trkpt lat="59.3196" lon="18.070615">
        <ele>31</ele>
        <time>2020-01-20T06:38:59Z</time>
      </trkpt>
      <trkpt lat="59.319629" lon="18.070599">
        <ele>31</ele>
        <time>2020-01-20T06:39:01Z</time>
      </trkpt>
      <trkpt lat="59.31966" lon="18.07058">
        <ele>31</ele>
        <time>2020-01-20T06:39:01Z</time>
      </trkpt>
      <trkpt lat="59.319693" lon="18.070555">
        <ele>31</ele>
        <time>2020-01-20T06:39:02Z</time>
      </trkpt>
      <trkpt lat="59.319725" lon="18.070537">
        <ele>31</ele>
        <time>2020-01-20T06:39:03Z</time>
      </trkpt>
      <trkpt lat="59.319753" lon="18.070515">
        <ele>31</ele>
        <time>2020-01-20T06:39:04Z</time>
      </trkpt>
      <trkpt lat="59.319778" lon="18.070483">
        <ele>31</ele>
        <time>2020-01-20T06:39:06Z</time>
      </trkpt>
      <trkpt lat="59.319808" lon="18.070466">
        <ele>31</ele>
        <time>2020-01-20T06:39:06Z</time>
      </trkpt>
      <trkpt lat="59.31984" lon="18.070449">
        <ele>31</ele>
        <time>2020-01-20T06:39:07Z</time>
      </trkpt>
      <trkpt lat="59.319877" lon="18.070438">
        <ele>30</ele>
        <time>2020-01-20T06:39:08Z</time>
      </trkpt>
      <trkpt lat="59.319915" lon="18.07045">
        <ele>30</ele>
        <time>2020-01-20T06:39:09Z</time>
      </trkpt>
      <trkpt lat="59.319948" lon="18.070499">
        <ele>30</ele>
        <time>2020-01-20T06:39:10Z</time>
      </trkpt>
      <trkpt lat="59.319974" lon="18.070558">
        <ele>29</ele>
        <time>2020-01-20T06:39:11Z</time>
      </trkpt>
      <trkpt lat="59.319999" lon="18.070618">
        <ele>29</ele>
        <time>2020-01-20T06:39:13Z</time>
      </trkpt>
      <trkpt lat="59.320026" lon="18.070666">
        <ele>29</ele>
        <time>2020-01-20T06:39:13Z</time>
      </trkpt>
      <trkpt lat="59.320053" lon="18.070707">
        <ele>28</ele>
        <time>2020-01-20T06:39:14Z</time>
      </trkpt>
      <trkpt lat="59.320081" lon="18.070741">
        <ele>28</ele>
        <time>2020-01-20T06:39:15Z</time>
      </trkpt>
      <trkpt lat="59.320108" lon="18.070781">
        <ele>28</ele>
        <time>2020-01-20T06:39:16Z</time>
      </trkpt>
      <trkpt lat="59.320133" lon="18.070822">
        <ele>27</ele>
        <time>2020-01-20T06:39:17Z</time>
      </trkpt>
      <trkpt lat="59.320156" lon="18.070863">
        <ele>27</ele>
        <time>2020-01-20T06:39:18Z</time>
      </trkpt>
      <trkpt lat="59.32018" lon="18.070891">
        <ele>27</ele>
        <time>2020-01-20T06:39:20Z</time>
      </trkpt>
      <trkpt lat="59.320207" lon="18.070918">
        <ele>27</ele>
        <time>2020-01-20T06:39:20Z</time>
      </trkpt>
      <trkpt lat="59.320233" lon="18.070948">
        <ele>26</ele>
        <time>2020-01-20T06:39:21Z</time>
      </trkpt>
      <trkpt lat="59.320259" lon="18.070976">
        <ele>26</ele>
        <time>2020-01-20T06:39:22Z</time>
      </trkpt>
      <trkpt lat="59.320283" lon="18.071011">
        <ele>26</ele>
        <time>2020-01-20T06:39:23Z</time>
      </trkpt>
      <trkpt lat="59.320298" lon="18.071062">
        <ele>26</ele>
        <time>2020-01-20T06:39:24Z</time>
      </trkpt>
      <trkpt lat="59.320304" lon="18.071124">
        <ele>25</ele>
        <time>2020-01-20T06:39:25Z</time>
      </trkpt>
      <trkpt lat="59.320309" lon="18.071182">
        <ele>25</ele>
        <time>2020-01-20T06:39:26Z</time>
      </trkpt>
      <trkpt lat="59.320321" lon="18.071236">
        <ele>25</ele>
        <time>2020-01-20T06:39:27Z</time>
      </trkpt>
      <trkpt lat="59.320338" lon="18.07129">
        <ele>25</ele>
        <time>2020-01-20T06:39:29Z</time>
      </trkpt>
      <trkpt lat="59.320359" lon="18.071333">
        <ele>24</ele>
        <time>2020-01-20T06:39:29Z</time>
      </trkpt>
      <trkpt lat="59.320384" lon="18.071367">
        <ele>24</ele>
        <time>2020-01-20T06:39:30Z</time>
      </trkpt>
      <trkpt lat="59.320411" lon="18.071392">
        <ele>24</ele>
        <time>2020-01-20T06:39:31Z</time>
      </trkpt>
      <trkpt lat="59.320438" lon="18.071414">
        <ele>24</ele>
        <time>2020-01-20T06:39:32Z</time>
      </trkpt>
      <trkpt lat="59.320466" lon="18.071431">
        <ele>24</ele>
        <time>2020-01-20T06:39:33Z</time>
      </trkpt>
      <trkpt lat="59.320495" lon="18.071447">
        <ele>23</ele>
        <time>2020-01-20T06:39:34Z</time>
      </trkpt>
      <trkpt lat="59.320523" lon="18.071455">
        <ele>23</ele>
        <time>2020-01-20T06:39:35Z</time>
      </trkpt>
      <trkpt lat="59.320549" lon="18.071458">
        <ele>23</ele>
        <time>2020-01-20T06:39:37Z</time>
      </trkpt>
      <trkpt lat="59.320576" lon="18.071459">
        <ele>22</ele>
        <time>2020-01-20T06:39:37Z</time>
      </trkpt>
      <trkpt lat="59.320605" lon="18.071459">
        <ele>22</ele>
        <time>2020-01-20T06:39:39Z</time>
      </trkpt>
      <trkpt lat="59.320634" lon="18.071461">
        <ele>22</ele>
        <time>2020-01-20T06:39:39Z</time>
      </trkpt>
      <trkpt lat="59.320663" lon="18.071474">
        <ele>21</ele>
        <time>2020-01-20T06:39:40Z</time>
      </trkpt>
      <trkpt lat="59.320692" lon="18.071491">
        <ele>21</ele>
        <time>2020-01-20T06:39:41Z</time>
      </trkpt>
      <trkpt lat="59.320723" lon="18.071507">
        <ele>21</ele>
        <time>2020-01-20T06:39:42Z</time>
      </trkpt>
      <trkpt lat="59.320751" lon="18.071531">
        <ele>21</ele>
        <time>2020-01-20T06:39:43Z</time>
      </trkpt>
      <trkpt lat="59.320778" lon="18.071568">
        <ele>21</ele>
        <time>2020-01-20T06:39:44Z</time>
      </trkpt>
      <trkpt lat="59.320801" lon="18.071616">
        <ele>21</ele>
        <time>2020-01-20T06:39:46Z</time>
      </trkpt>
      <trkpt lat="59.32082" lon="18.071672">
        <ele>20</ele>
        <time>2020-01-20T06:39:46Z</time>
      </trkpt>
      <trkpt lat="59.320835" lon="18.071732">
        <ele>20</ele>
        <time>2020-01-20T06:39:47Z</time>
      </trkpt>
      <trkpt lat="59.320849" lon="18.071793">
        <ele>20</ele>
        <time>2020-01-20T06:39:48Z</time>
      </trkpt>
      <trkpt lat="59.320863" lon="18.071852">
        <ele>20</ele>
        <time>2020-01-20T06:39:49Z</time>
      </trkpt>
      <trkpt lat="59.320875" lon="18.071911">
        <ele>20</ele>
        <time>2020-01-20T06:39:50Z</time>
      </trkpt>
      <trkpt lat="59.320889" lon="18.071968">
        <ele>19</ele>
        <time>2020-01-20T06:39:51Z</time>
      </trkpt>
      <trkpt lat="59.320903" lon="18.072021">
        <ele>19</ele>
        <time>2020-01-20T06:39:52Z</time>
      </trkpt>
      <trkpt lat="59.32092" lon="18.072072">
        <ele>19</ele>
        <time>2020-01-20T06:39:54Z</time>
      </trkpt>
      <trkpt lat="59.320941" lon="18.072121">
        <ele>19</ele>
        <time>2020-01-20T06:39:54Z</time>
      </trkpt>
      <trkpt lat="59.320966" lon="18.072157">
        <ele>19</ele>
        <time>2020-01-20T06:39:55Z</time>
      </trkpt>
      <trkpt lat="59.320996" lon="18.072185">
        <ele>18</ele>
        <time>2020-01-20T06:39:56Z</time>
      </trkpt>
      <trkpt lat="59.321027" lon="18.07221">
        <ele>18</ele>
        <time>2020-01-20T06:39:58Z</time>
      </trkpt>
      <trkpt lat="59.321059" lon="18.072232">
        <ele>18</ele>
        <time>2020-01-20T06:39:58Z</time>
      </trkpt>
      <trkpt lat="59.321091" lon="18.072253">
        <ele>18</ele>
        <time>2020-01-20T06:39:59Z</time>
      </trkpt>
      <trkpt lat="59.321121" lon="18.072276">
        <ele>18</ele>
        <time>2020-01-20T06:40:01Z</time>
      </trkpt>
      <trkpt lat="59.321151" lon="18.072298">
        <ele>18</ele>
        <time>2020-01-20T06:40:01Z</time>
      </trkpt>
      <trkpt lat="59.32118" lon="18.072319">
        <ele>17</ele>
        <time>2020-01-20T06:40:02Z</time>
      </trkpt>
      <trkpt lat="59.321209" lon="18.07234">
        <ele>17</ele>
        <time>2020-01-20T06:40:04Z</time>
      </trkpt>
      <trkpt lat="59.321239" lon="18.072361">
        <ele>17</ele>
        <time>2020-01-20T06:40:04Z</time>
      </trkpt>
      <trkpt lat="59.321268" lon="18.072383">
        <ele>16</ele>
        <time>2020-01-20T06:40:05Z</time>
      </trkpt>
      <trkpt lat="59.321298" lon="18.072405">
        <ele>16</ele>
        <time>2020-01-20T06:40:06Z</time>
      </trkpt>
      <trkpt lat="59.321327" lon="18.072427">
        <ele>16</ele>
        <time>2020-01-20T06:40:07Z</time>
      </trkpt>
      <trkpt lat="59.321357" lon="18.072449">
        <ele>16</ele>
        <time>2020-01-20T06:40:08Z</time>
      </trkpt>
      <trkpt lat="59.321386" lon="18.072469">
        <ele>16</ele>
        <time>2020-01-20T06:40:09Z</time>
      </trkpt>
      <trkpt lat="59.321415" lon="18.072488">
        <ele>16</ele>
        <time>2020-01-20T06:40:10Z</time>
      </trkpt>
      <trkpt lat="59.321444" lon="18.072508">
        <ele>15</ele>
        <time>2020-01-20T06:40:11Z</time>
      </trkpt>
      <trkpt lat="59.321473" lon="18.072529">
        <ele>15</ele>
        <time>2020-01-20T06:40:12Z</time>
      </trkpt>
      <trkpt lat="59.321501" lon="18.072551">
        <ele>15</ele>
        <time>2020-01-20T06:40:13Z</time>
      </trkpt>
      <trkpt lat="59.321529" lon="18.072573">
        <ele>15</ele>
        <time>2020-01-20T06:40:15Z</time>
      </trkpt>
      <trkpt lat="59.321556" lon="18.072592">
        <ele>14</ele>
        <time>2020-01-20T06:40:15Z</time>
      </trkpt>
      <trkpt lat="59.321583" lon="18.072609">
        <ele>0</ele>
        <time>2020-01-20T06:40:16Z</time>
      </trkpt>
      <trkpt lat="59.321611" lon="18.072628">
        <ele>14</ele>
        <time>2020-01-20T06:40:17Z</time>
      </trkpt>
      <trkpt lat="59.321638" lon="18.072649">
        <ele>14</ele>
        <time>2020-01-20T06:40:19Z</time>
      </trkpt>
      <trkpt lat="59.321664" lon="18.072669">
        <ele>14</ele>
        <time>2020-01-20T06:40:19Z</time>
      </trkpt>
      <trkpt lat="59.321692" lon="18.072683">
        <ele>14</ele>
        <time>2020-01-20T06:40:20Z</time>
      </trkpt>
      <trkpt lat="59.321721" lon="18.072698">
        <ele>14</ele>
        <time>2020-01-20T06:40:21Z</time>
      </trkpt>
      <trkpt lat="59.32175" lon="18.072715">
        <ele>14</ele>
        <time>2020-01-20T06:40:22Z</time>
      </trkpt>
      <trkpt lat="59.321779" lon="18.072734">
        <ele>14</ele>
        <time>2020-01-20T06:40:23Z</time>
      </trkpt>
      <trkpt lat="59.321807" lon="18.072756">
        <ele>13</ele>
        <time>2020-01-20T06:40:24Z</time>
      </trkpt>
      <trkpt lat="59.321834" lon="18.072773">
        <ele>13</ele>
        <time>2020-01-20T06:40:25Z</time>
      </trkpt>
      <trkpt lat="59.321859" lon="18.072781">
        <ele>14</ele>
        <time>2020-01-20T06:40:26Z</time>
      </trkpt>
      <trkpt lat="59.321885" lon="18.072787">
        <ele>13</ele>
        <time>2020-01-20T06:40:27Z</time>
      </trkpt>
      <trkpt lat="59.321909" lon="18.072805">
        <ele>13</ele>
        <time>2020-01-20T06:40:28Z</time>
      </trkpt>
      <trkpt lat="59.321933" lon="18.072821">
        <ele>13</ele>
        <time>2020-01-20T06:40:29Z</time>
      </trkpt>
      <trkpt lat="59.321956" lon="18.07284">
        <ele>13</ele>
        <time>2020-01-20T06:40:31Z</time>
      </trkpt>
      <trkpt lat="59.321976" lon="18.072872">
        <ele>13</ele>
        <time>2020-01-20T06:40:31Z</time>
      </trkpt>
      <trkpt lat="59.321993" lon="18.072907">
        <ele>13</ele>
        <time>2020-01-20T06:40:32Z</time>
      </trkpt>
      <trkpt lat="59.32201" lon="18.072942">
        <ele>14</ele>
        <time>2020-01-20T06:40:33Z</time>
      </trkpt>
      <trkpt lat="59.322024" lon="18.072983">
        <ele>14</ele>
        <time>2020-01-20T06:40:34Z</time>
      </trkpt>
      <trkpt lat="59.322032" lon="18.073026">
        <ele>14</ele>
        <time>2020-01-20T06:40:36Z</time>
      </trkpt>
      <trkpt lat="59.322029" lon="18.073069">
        <ele>15</ele>
        <time>2020-01-20T06:40:36Z</time>
      </trkpt>
      <trkpt lat="59.322026" lon="18.07312">
        <ele>15</ele>
        <time>2020-01-20T06:40:37Z</time>
      </trkpt>
      <trkpt lat="59.322014" lon="18.07317">
        <ele>15</ele>
        <time>2020-01-20T06:40:39Z</time>
      </trkpt>
      <trkpt lat="59.322002" lon="18.07322">
        <ele>15</ele>
        <time>2020-01-20T06:40:39Z</time>
      </trkpt>
      <trkpt lat="59.321994" lon="18.073275">
        <ele>15</ele>
        <time>2020-01-20T06:40:40Z</time>
      </trkpt>
      <trkpt lat="59.321986" lon="18.07333">
        <ele>15</ele>
        <time>2020-01-20T06:40:42Z</time>
      </trkpt>
      <trkpt lat="59.321978" lon="18.073388">
        <ele>15</ele>
        <time>2020-01-20T06:40:42Z</time>
      </trkpt>
      <trkpt lat="59.321969" lon="18.073439">
        <ele>15</ele>
        <time>2020-01-20T06:40:43Z</time>
      </trkpt>
      <trkpt lat="59.321957" lon="18.073489">
        <ele>15</ele>
        <time>2020-01-20T06:40:44Z</time>
      </trkpt>
      <trkpt lat="59.321943" lon="18.073544">
        <ele>15</ele>
        <time>2020-01-20T06:40:45Z</time>
      </trkpt>
      <trkpt lat="59.321931" lon="18.073595">
        <ele>15</ele>
        <time>2020-01-20T06:40:46Z</time>
      </trkpt>
      <trkpt lat="59.321923" lon="18.073643">
        <ele>15</ele>
        <time>2020-01-20T06:40:47Z</time>
      </trkpt>
      <trkpt lat="59.321928" lon="18.073698">
        <ele>14</ele>
        <time>2020-01-20T06:40:48Z</time>
      </trkpt>
      <trkpt lat="59.321947" lon="18.073755">
        <ele>14</ele>
        <time>2020-01-20T06:40:49Z</time>
      </trkpt>
      <trkpt lat="59.32197" lon="18.073799">
        <ele>13</ele>
        <time>2020-01-20T06:40:50Z</time>
      </trkpt>
      <trkpt lat="59.321998" lon="18.073838">
        <ele>13</ele>
        <time>2020-01-20T06:40:51Z</time>
      </trkpt>
      <trkpt lat="59.322026" lon="18.073872">
        <ele>12</ele>
        <time>2020-01-20T06:40:53Z</time>
      </trkpt>
      <trkpt lat="59.322055" lon="18.073906">
        <ele>12</ele>
        <time>2020-01-20T06:40:53Z</time>
      </trkpt>
      <trkpt lat="59.322085" lon="18.073933">
        <ele>12</ele>
        <time>2020-01-20T06:40:55Z</time>
      </trkpt>
      <trkpt lat="59.322108" lon="18.073973">
        <ele>12</ele>
        <time>2020-01-20T06:40:55Z</time>
      </trkpt>
      <trkpt lat="59.322135" lon="18.074004">
        <ele>11</ele>
        <time>2020-01-20T06:40:56Z</time>
      </trkpt>
      <trkpt lat="59.322159" lon="18.074039">
        <ele>11</ele>
        <time>2020-01-20T06:40:57Z</time>
      </trkpt>
      <trkpt lat="59.322175" lon="18.074086">
        <ele>11</ele>
        <time>2020-01-20T06:40:58Z</time>
      </trkpt>
      <trkpt lat="59.322197" lon="18.074124">
        <ele>11</ele>
        <time>2020-01-20T06:40:59Z</time>
      </trkpt>
      <trkpt lat="59.322223" lon="18.074162">
        <ele>11</ele>
        <time>2020-01-20T06:41:00Z</time>
      </trkpt>
      <trkpt lat="59.322253" lon="18.074187">
        <ele>11</ele>
        <time>2020-01-20T06:41:01Z</time>
      </trkpt>
      <trkpt lat="59.32228" lon="18.074213">
        <ele>11</ele>
        <time>2020-01-20T06:41:03Z</time>
      </trkpt>
      <trkpt lat="59.322304" lon="18.074236">
        <ele>11</ele>
        <time>2020-01-20T06:41:03Z</time>
      </trkpt>
      <trkpt lat="59.322327" lon="18.074263">
        <ele>11</ele>
        <time>2020-01-20T06:41:04Z</time>
      </trkpt>
      <trkpt lat="59.32235" lon="18.074289">
        <ele>10</ele>
        <time>2020-01-20T06:41:06Z</time>
      </trkpt>
      <trkpt lat="59.322374" lon="18.074312">
        <ele>10</ele>
        <time>2020-01-20T06:41:06Z</time>
      </trkpt>
      <trkpt lat="59.322412" lon="18.074313">
        <ele>10</ele>
        <time>2020-01-20T06:41:07Z</time>
      </trkpt>
      <trkpt lat="59.322436" lon="18.074344">
        <ele>10</ele>
        <time>2020-01-20T06:41:09Z</time>
      </trkpt>
      <trkpt lat="59.322461" lon="18.074372">
        <ele>10</ele>
        <time>2020-01-20T06:41:09Z</time>
      </trkpt>
      <trkpt lat="59.322487" lon="18.074402">
        <ele>10</ele>
        <time>2020-01-20T06:41:10Z</time>
      </trkpt>
      <trkpt lat="59.322567" lon="18.074485">
        <ele>9</ele>
        <time>2020-01-20T06:41:14Z</time>
      </trkpt>
      <trkpt lat="59.322623" lon="18.074542">
        <ele>9</ele>
        <time>2020-01-20T06:41:15Z</time>
      </trkpt>
      <trkpt lat="59.32265" lon="18.074572">
        <ele>9</ele>
        <time>2020-01-20T06:41:16Z</time>
      </trkpt>
      <trkpt lat="59.322731" lon="18.074658">
        <ele>9</ele>
        <time>2020-01-20T06:41:19Z</time>
      </trkpt>
      <trkpt lat="59.32276" lon="18.074681">
        <ele>9</ele>
        <time>2020-01-20T06:41:21Z</time>
      </trkpt>
      <trkpt lat="59.322791" lon="18.074697">
        <ele>9</ele>
        <time>2020-01-20T06:41:21Z</time>
      </trkpt>
      <trkpt lat="59.322819" lon="18.074719">
        <ele>9</ele>
        <time>2020-01-20T06:41:22Z</time>
      </trkpt>
      <trkpt lat="59.322846" lon="18.074742">
        <ele>9</ele>
        <time>2020-01-20T06:41:24Z</time>
      </trkpt>
      <trkpt lat="59.322874" lon="18.074754">
        <ele>8</ele>
        <time>2020-01-20T06:41:24Z</time>
      </trkpt>
      <trkpt lat="59.322905" lon="18.074761">
        <ele>8</ele>
        <time>2020-01-20T06:41:26Z</time>
      </trkpt>
      <trkpt lat="59.322934" lon="18.074776">
        <ele>8</ele>
        <time>2020-01-20T06:41:26Z</time>
      </trkpt>
      <trkpt lat="59.322963" lon="18.074795">
        <ele>8</ele>
        <time>2020-01-20T06:41:27Z</time>
      </trkpt>
      <trkpt lat="59.322992" lon="18.074818">
        <ele>8</ele>
        <time>2020-01-20T06:41:28Z</time>
      </trkpt>
      <trkpt lat="59.323025" lon="18.074831">
        <ele>8</ele>
        <time>2020-01-20T06:41:29Z</time>
      </trkpt>
      <trkpt lat="59.323056" lon="18.074834">
        <ele>8</ele>
        <time>2020-01-20T06:41:30Z</time>
      </trkpt>
      <trkpt lat="59.323088" lon="18.074836">
        <ele>7</ele>
        <time>2020-01-20T06:41:31Z</time>
      </trkpt>
      <trkpt lat="59.323119" lon="18.074838">
        <ele>7</ele>
        <time>2020-01-20T06:41:33Z</time>
      </trkpt>
      <trkpt lat="59.32315" lon="18.074843">
        <ele>7</ele>
        <time>2020-01-20T06:41:33Z</time>
      </trkpt>
      <trkpt lat="59.323177" lon="18.074845">
        <ele>7</ele>
        <time>2020-01-20T06:41:35Z</time>
      </trkpt>
      <trkpt lat="59.323204" lon="18.07485">
        <ele>7</ele>
        <time>2020-01-20T06:41:35Z</time>
      </trkpt>
      <trkpt lat="59.323232" lon="18.074852">
        <ele>7</ele>
        <time>2020-01-20T06:41:36Z</time>
      </trkpt>
      <trkpt lat="59.323261" lon="18.074854">
        <ele>6</ele>
        <time>2020-01-20T06:41:37Z</time>
      </trkpt>
      <trkpt lat="59.323289" lon="18.074864">
        <ele>6</ele>
        <time>2020-01-20T06:41:38Z</time>
      </trkpt>
      <trkpt lat="59.323318" lon="18.074876">
        <ele>6</ele>
        <time>2020-01-20T06:41:39Z</time>
      </trkpt>
      <trkpt lat="59.323348" lon="18.074891">
        <ele>6</ele>
        <time>2020-01-20T06:41:40Z</time>
      </trkpt>
      <trkpt lat="59.323377" lon="18.074909">
        <ele>6</ele>
        <time>2020-01-20T06:41:42Z</time>
      </trkpt>
      <trkpt lat="59.323405" lon="18.074921">
        <ele>6</ele>
        <time>2020-01-20T06:41:42Z</time>
      </trkpt>
      <trkpt lat="59.323434" lon="18.074959">
        <ele>6</ele>
        <time>2020-01-20T06:41:43Z</time>
      </trkpt>
      <trkpt lat="59.323461" lon="18.074965">
        <ele>6</ele>
        <time>2020-01-20T06:41:44Z</time>
      </trkpt>
      <trkpt lat="59.323486" lon="18.074975">
        <ele>6</ele>
        <time>2020-01-20T06:41:45Z</time>
      </trkpt>
      <trkpt lat="59.323513" lon="18.074986">
        <ele>6</ele>
        <time>2020-01-20T06:41:46Z</time>
      </trkpt>
      <trkpt lat="59.323539" lon="18.07499">
        <ele>6</ele>
        <time>2020-01-20T06:41:47Z</time>
      </trkpt>
      <trkpt lat="59.323567" lon="18.07499">
        <ele>6</ele>
        <time>2020-01-20T06:41:48Z</time>
      </trkpt>
      <trkpt lat="59.323597" lon="18.074991">
        <ele>6</ele>
        <time>2020-01-20T06:41:50Z</time>
      </trkpt>
      <trkpt lat="59.323624" lon="18.074989">
        <ele>6</ele>
        <time>2020-01-20T06:41:50Z</time>
      </trkpt>
      <trkpt lat="59.323652" lon="18.075">
        <ele>6</ele>
        <time>2020-01-20T06:41:52Z</time>
      </trkpt>
      <trkpt lat="59.323678" lon="18.075059">
        <ele>6</ele>
        <time>2020-01-20T06:41:52Z</time>
      </trkpt>
      <trkpt lat="59.323705" lon="18.075082">
        <ele>6</ele>
        <time>2020-01-20T06:41:54Z</time>
      </trkpt>
      <trkpt lat="59.323734" lon="18.075091">
        <ele>5</ele>
        <time>2020-01-20T06:41:54Z</time>
      </trkpt>
      <trkpt lat="59.32376" lon="18.0751">
        <ele>6</ele>
        <time>2020-01-20T06:41:55Z</time>
      </trkpt>
      <trkpt lat="59.323789" lon="18.075108">
        <ele>5</ele>
        <time>2020-01-20T06:41:56Z</time>
      </trkpt>
      <trkpt lat="59.323816" lon="18.075115">
        <ele>5</ele>
        <time>2020-01-20T06:41:57Z</time>
      </trkpt>
      <trkpt lat="59.323846" lon="18.075121">
        <ele>5</ele>
        <time>2020-01-20T06:41:58Z</time>
      </trkpt>
      <trkpt lat="59.323877" lon="18.075129">
        <ele>5</ele>
        <time>2020-01-20T06:42:00Z</time>
      </trkpt>
      <trkpt lat="59.323906" lon="18.075133">
        <ele>5</ele>
        <time>2020-01-20T06:42:00Z</time>
      </trkpt>
      <trkpt lat="59.323935" lon="18.075152">
        <ele>5</ele>
        <time>2020-01-20T06:42:01Z</time>
      </trkpt>
      <trkpt lat="59.323959" lon="18.075175">
        <ele>5</ele>
        <time>2020-01-20T06:42:03Z</time>
      </trkpt>
      <trkpt lat="59.323986" lon="18.075193">
        <ele>5</ele>
        <time>2020-01-20T06:42:03Z</time>
      </trkpt>
      <trkpt lat="59.324013" lon="18.075201">
        <ele>5</ele>
        <time>2020-01-20T06:42:04Z</time>
      </trkpt>
      <trkpt lat="59.324039" lon="18.07521">
        <ele>5</ele>
        <time>2020-01-20T06:42:05Z</time>
      </trkpt>
      <trkpt lat="59.324068" lon="18.075219">
        <ele>4</ele>
        <time>2020-01-20T06:42:06Z</time>
      </trkpt>
      <trkpt lat="59.3241" lon="18.075233">
        <ele>4</ele>
        <time>2020-01-20T06:42:07Z</time>
      </trkpt>
      <trkpt lat="59.32413" lon="18.075235">
        <ele>4</ele>
        <time>2020-01-20T06:42:08Z</time>
      </trkpt>
      <trkpt lat="59.324157" lon="18.075244">
        <ele>4</ele>
        <time>2020-01-20T06:42:09Z</time>
      </trkpt>
      <trkpt lat="59.324183" lon="18.075258">
        <ele>4</ele>
        <time>2020-01-20T06:42:11Z</time>
      </trkpt>
      <trkpt lat="59.324209" lon="18.075273">
        <ele>4</ele>
        <time>2020-01-20T06:42:11Z</time>
      </trkpt>
      <trkpt lat="59.324237" lon="18.075284">
        <ele>4</ele>
        <time>2020-01-20T06:42:13Z</time>
      </trkpt>
      <trkpt lat="59.324267" lon="18.075294">
        <ele>4</ele>
        <time>2020-01-20T06:42:13Z</time>
      </trkpt>
      <trkpt lat="59.324293" lon="18.075304">
        <ele>3</ele>
        <time>2020-01-20T06:42:14Z</time>
      </trkpt>
      <trkpt lat="59.324324" lon="18.075317">
        <ele>3</ele>
        <time>2020-01-20T06:42:15Z</time>
      </trkpt>
      <trkpt lat="59.324355" lon="18.075332">
        <ele>4</ele>
        <time>2020-01-20T06:42:17Z</time>
      </trkpt>
      <trkpt lat="59.324384" lon="18.075351">
        <ele>4</ele>
        <time>2020-01-20T06:42:17Z</time>
      </trkpt>
      <trkpt lat="59.324413" lon="18.075359">
        <ele>4</ele>
        <time>2020-01-20T06:42:18Z</time>
      </trkpt>
      <trkpt lat="59.324444" lon="18.075372">
        <ele>4</ele>
        <time>2020-01-20T06:42:19Z</time>
      </trkpt>
      <trkpt lat="59.324476" lon="18.075384">
        <ele>4</ele>
        <time>2020-01-20T06:42:20Z</time>
      </trkpt>
      <trkpt lat="59.324506" lon="18.075386">
        <ele>4</ele>
        <time>2020-01-20T06:42:21Z</time>
      </trkpt>
      <trkpt lat="59.324533" lon="18.075388">
        <ele>4</ele>
        <time>2020-01-20T06:42:23Z</time>
      </trkpt>
      <trkpt lat="59.324559" lon="18.075395">
        <ele>4</ele>
        <time>2020-01-20T06:42:23Z</time>
      </trkpt>
      <trkpt lat="59.324586" lon="18.075415">
        <ele>4</ele>
        <time>2020-01-20T06:42:24Z</time>
      </trkpt>
      <trkpt lat="59.324615" lon="18.075426">
        <ele>4</ele>
        <time>2020-01-20T06:42:26Z</time>
      </trkpt>
      <trkpt lat="59.324648" lon="18.075432">
        <ele>4</ele>
        <time>2020-01-20T06:42:26Z</time>
      </trkpt>
      <trkpt lat="59.324679" lon="18.075446">
        <ele>4</ele>
        <time>2020-01-20T06:42:27Z</time>
      </trkpt>
      <trkpt lat="59.324709" lon="18.075448">
        <ele>4</ele>
        <time>2020-01-20T06:42:28Z</time>
      </trkpt>
      <trkpt lat="59.324738" lon="18.07545">
        <ele>4</ele>
        <time>2020-01-20T06:42:30Z</time>
      </trkpt>
      <trkpt lat="59.324768" lon="18.075453">
        <ele>4</ele>
        <time>2020-01-20T06:42:30Z</time>
      </trkpt>
      <trkpt lat="59.324796" lon="18.07546">
        <ele>3</ele>
        <time>2020-01-20T06:42:32Z</time>
      </trkpt>
      <trkpt lat="59.324823" lon="18.075469">
        <ele>3</ele>
        <time>2020-01-20T06:42:32Z</time>
      </trkpt>
      <trkpt lat="59.324851" lon="18.075482">
        <ele>4</ele>
        <time>2020-01-20T06:42:34Z</time>
      </trkpt>
      <trkpt lat="59.32488" lon="18.075484">
        <ele>4</ele>
        <time>2020-01-20T06:42:34Z</time>
      </trkpt>
      <trkpt lat="59.324907" lon="18.075485">
        <ele>4</ele>
        <time>2020-01-20T06:42:35Z</time>
      </trkpt>
      <trkpt lat="59.324936" lon="18.075492">
        <ele>4</ele>
        <time>2020-01-20T06:42:36Z</time>
      </trkpt>
      <trkpt lat="59.324968" lon="18.075503">
        <ele>4</ele>
        <time>2020-01-20T06:42:37Z</time>
      </trkpt>
      <trkpt lat="59.324999" lon="18.075507">
        <ele>4</ele>
        <time>2020-01-20T06:42:38Z</time>
      </trkpt>
      <trkpt lat="59.325027" lon="18.075511">
        <ele>4</ele>
        <time>2020-01-20T06:42:39Z</time>
      </trkpt>
      <trkpt lat="59.325055" lon="18.075508">
        <ele>4</ele>
        <time>2020-01-20T06:42:40Z</time>
      </trkpt>
      <trkpt lat="59.325085" lon="18.075508">
        <ele>4</ele>
        <time>2020-01-20T06:42:42Z</time>
      </trkpt>
      <trkpt lat="59.325112" lon="18.075505">
        <ele>4</ele>
        <time>2020-01-20T06:42:42Z</time>
      </trkpt>
      <trkpt lat="59.325141" lon="18.075504">
        <ele>4</ele>
        <time>2020-01-20T06:42:43Z</time>
      </trkpt>
      <trkpt lat="59.325171" lon="18.075495">
        <ele>4</ele>
        <time>2020-01-20T06:42:44Z</time>
      </trkpt>
      <trkpt lat="59.325202" lon="18.075492">
        <ele>4</ele>
        <time>2020-01-20T06:42:45Z</time>
      </trkpt>
      <trkpt lat="59.325229" lon="18.075492">
        <ele>4</ele>
        <time>2020-01-20T06:42:46Z</time>
      </trkpt>
      <trkpt lat="59.325254" lon="18.075489">
        <ele>4</ele>
        <time>2020-01-20T06:42:47Z</time>
      </trkpt>
      <trkpt lat="59.32528" lon="18.075477">
        <ele>4</ele>
        <time>2020-01-20T06:42:49Z</time>
      </trkpt>
      <trkpt lat="59.325305" lon="18.075475">
        <ele>4</ele>
        <time>2020-01-20T06:42:49Z</time>
      </trkpt>
      <trkpt lat="59.325334" lon="18.075471">
        <ele>4</ele>
        <time>2020-01-20T06:42:51Z</time>
      </trkpt>
      <trkpt lat="59.325365" lon="18.075468">
        <ele>4</ele>
        <time>2020-01-20T06:42:51Z</time>
      </trkpt>
      <trkpt lat="59.325397" lon="18.075471">
        <ele>4</ele>
        <time>2020-01-20T06:42:52Z</time>
      </trkpt>
      <trkpt lat="59.325428" lon="18.075463">
        <ele>4</ele>
        <time>2020-01-20T06:42:54Z</time>
      </trkpt>
      <trkpt lat="59.325463" lon="18.075449">
        <ele>4</ele>
        <time>2020-01-20T06:42:54Z</time>
      </trkpt>
      <trkpt lat="59.325495" lon="18.075451">
        <ele>4</ele>
        <time>2020-01-20T06:42:55Z</time>
      </trkpt>
      <trkpt lat="59.325524" lon="18.075466">
        <ele>4</ele>
        <time>2020-01-20T06:42:57Z</time>
      </trkpt>
      <trkpt lat="59.325553" lon="18.075497">
        <ele>4</ele>
        <time>2020-01-20T06:42:57Z</time>
      </trkpt>
      <trkpt lat="59.325579" lon="18.07553">
        <ele>3</ele>
        <time>2020-01-20T06:42:58Z</time>
      </trkpt>
      <trkpt lat="59.325603" lon="18.075562">
        <ele>3</ele>
        <time>2020-01-20T06:42:59Z</time>
      </trkpt>
      <trkpt lat="59.325629" lon="18.075602">
        <ele>3</ele>
        <time>2020-01-20T06:43:00Z</time>
      </trkpt>
      <trkpt lat="59.325655" lon="18.075636">
        <ele>3</ele>
        <time>2020-01-20T06:43:01Z</time>
      </trkpt>
      <trkpt lat="59.325684" lon="18.07566">
        <ele>3</ele>
        <time>2020-01-20T06:43:02Z</time>
      </trkpt>
      <trkpt lat="59.325711" lon="18.075676">
        <ele>3</ele>
        <time>2020-01-20T06:43:03Z</time>
      </trkpt>
      <trkpt lat="59.32574" lon="18.07568">
        <ele>4</ele>
        <time>2020-01-20T06:43:04Z</time>
      </trkpt>
      <trkpt lat="59.32577" lon="18.075677">
        <ele>4</ele>
        <time>2020-01-20T06:43:05Z</time>
      </trkpt>
      <trkpt lat="59.325801" lon="18.075662">
        <ele>4</ele>
        <time>2020-01-20T06:43:07Z</time>
      </trkpt>
      <trkpt lat="59.32583" lon="18.075643">
        <ele>4</ele>
        <time>2020-01-20T06:43:08Z</time>
      </trkpt>
      <trkpt lat="59.325856" lon="18.07562">
        <ele>4</ele>
        <time>2020-01-20T06:43:08Z</time>
      </trkpt>
      <trkpt lat="59.325881" lon="18.075593">
        <ele>4</ele>
        <time>2020-01-20T06:43:09Z</time>
      </trkpt>
      <trkpt lat="59.325905" lon="18.075566">
        <ele>5</ele>
        <time>2020-01-20T06:43:10Z</time>
      </trkpt>
      <trkpt lat="59.325932" lon="18.075541">
        <ele>5</ele>
        <time>2020-01-20T06:43:11Z</time>
      </trkpt>
      <trkpt lat="59.325957" lon="18.075512">
        <ele>5</ele>
        <time>2020-01-20T06:43:12Z</time>
      </trkpt>
      <trkpt lat="59.325982" lon="18.075482">
        <ele>5</ele>
        <time>2020-01-20T06:43:13Z</time>
      </trkpt>
      <trkpt lat="59.326008" lon="18.075452">
        <ele>5</ele>
        <time>2020-01-20T06:43:14Z</time>
      </trkpt>
      <trkpt lat="59.326035" lon="18.075429">
        <ele>5</ele>
        <time>2020-01-20T06:43:15Z</time>
      </trkpt>
      <trkpt lat="59.326062" lon="18.075408">
        <ele>5</ele>
        <time>2020-01-20T06:43:16Z</time>
      </trkpt>
      <trkpt lat="59.326089" lon="18.075384">
        <ele>5</ele>
        <time>2020-01-20T06:43:17Z</time>
      </trkpt>
      <trkpt lat="59.326113" lon="18.075361">
        <ele>5</ele>
        <time>2020-01-20T06:43:18Z</time>
      </trkpt>
      <trkpt lat="59.326138" lon="18.075339">
        <ele>5</ele>
        <time>2020-01-20T06:43:19Z</time>
      </trkpt>
      <trkpt lat="59.326162" lon="18.075319">
        <ele>5</ele>
        <time>2020-01-20T06:43:21Z</time>
      </trkpt>
      <trkpt lat="59.326183" lon="18.075284">
        <ele>6</ele>
        <time>2020-01-20T06:43:21Z</time>
      </trkpt>
      <trkpt lat="59.326203" lon="18.075243">
        <ele>6</ele>
        <time>2020-01-20T06:43:22Z</time>
      </trkpt>
      <trkpt lat="59.326224" lon="18.075202">
        <ele>6</ele>
        <time>2020-01-20T06:43:24Z</time>
      </trkpt>
      <trkpt lat="59.326245" lon="18.07516">
        <ele>6</ele>
        <time>2020-01-20T06:43:24Z</time>
      </trkpt>
      <trkpt lat="59.326266" lon="18.075121">
        <ele>6</ele>
        <time>2020-01-20T06:43:25Z</time>
      </trkpt>
      <trkpt lat="59.32629" lon="18.075083">
        <ele>6</ele>
        <time>2020-01-20T06:43:27Z</time>
      </trkpt>
      <trkpt lat="59.326312" lon="18.075047">
        <ele>6</ele>
        <time>2020-01-20T06:43:28Z</time>
      </trkpt>
      <trkpt lat="59.326356" lon="18.074974">
        <ele>7</ele>
        <time>2020-01-20T06:43:30Z</time>
      </trkpt>
      <trkpt lat="59.32638" lon="18.074941">
        <ele>7</ele>
        <time>2020-01-20T06:43:30Z</time>
      </trkpt>
      <trkpt lat="59.326404" lon="18.074915">
        <ele>7</ele>
        <time>2020-01-20T06:43:31Z</time>
      </trkpt>
      <trkpt lat="59.326429" lon="18.074887">
        <ele>7</ele>
        <time>2020-01-20T06:43:33Z</time>
      </trkpt>
      <trkpt lat="59.326454" lon="18.07486">
        <ele>7</ele>
        <time>2020-01-20T06:43:33Z</time>
      </trkpt>
      <trkpt lat="59.326479" lon="18.074834">
        <ele>7</ele>
        <time>2020-01-20T06:43:34Z</time>
      </trkpt>
      <trkpt lat="59.326504" lon="18.074811">
        <ele>7</ele>
        <time>2020-01-20T06:43:35Z</time>
      </trkpt>
      <trkpt lat="59.32653" lon="18.074791">
        <ele>7</ele>
        <time>2020-01-20T06:43:36Z</time>
      </trkpt>
      <trkpt lat="59.326557" lon="18.074775">
        <ele>7</ele>
        <time>2020-01-20T06:43:37Z</time>
      </trkpt>
      <trkpt lat="59.326583" lon="18.074757">
        <ele>7</ele>
        <time>2020-01-20T06:43:38Z</time>
      </trkpt>
      <trkpt lat="59.32661" lon="18.074738">
        <ele>7</ele>
        <time>2020-01-20T06:43:39Z</time>
      </trkpt>
      <trkpt lat="59.326636" lon="18.074716">
        <ele>7</ele>
        <time>2020-01-20T06:43:40Z</time>
      </trkpt>
      <trkpt lat="59.326662" lon="18.074697">
        <ele>7</ele>
        <time>2020-01-20T06:43:42Z</time>
      </trkpt>
      <trkpt lat="59.326687" lon="18.074678">
        <ele>7</ele>
        <time>2020-01-20T06:43:42Z</time>
      </trkpt>
      <trkpt lat="59.326712" lon="18.074656">
        <ele>7</ele>
        <time>2020-01-20T06:43:43Z</time>
      </trkpt>
      <trkpt lat="59.326738" lon="18.074635">
        <ele>8</ele>
        <time>2020-01-20T06:43:44Z</time>
      </trkpt>
      <trkpt lat="59.326762" lon="18.074612">
        <ele>8</ele>
        <time>2020-01-20T06:43:46Z</time>
      </trkpt>
      <trkpt lat="59.326788" lon="18.074592">
        <ele>8</ele>
        <time>2020-01-20T06:43:46Z</time>
      </trkpt>
      <trkpt lat="59.326814" lon="18.074572">
        <ele>8</ele>
        <time>2020-01-20T06:43:48Z</time>
      </trkpt>
      <trkpt lat="59.32684" lon="18.07455">
        <ele>8</ele>
        <time>2020-01-20T06:43:48Z</time>
      </trkpt>
      <trkpt lat="59.326866" lon="18.074527">
        <ele>8</ele>
        <time>2020-01-20T06:43:49Z</time>
      </trkpt>
      <trkpt lat="59.326891" lon="18.074498">
        <ele>8</ele>
        <time>2020-01-20T06:43:50Z</time>
      </trkpt>
      <trkpt lat="59.326914" lon="18.074468">
        <ele>8</ele>
        <time>2020-01-20T06:43:51Z</time>
      </trkpt>
      <trkpt lat="59.326936" lon="18.074436">
        <ele>8</ele>
        <time>2020-01-20T06:43:52Z</time>
      </trkpt>
      <trkpt lat="59.326958" lon="18.074406">
        <ele>8</ele>
        <time>2020-01-20T06:43:53Z</time>
      </trkpt>
      <trkpt lat="59.32698" lon="18.074376">
        <ele>8</ele>
        <time>2020-01-20T06:43:54Z</time>
      </trkpt>
      <trkpt lat="59.327003" lon="18.074345">
        <ele>8</ele>
        <time>2020-01-20T06:43:55Z</time>
      </trkpt>
      <trkpt lat="59.327026" lon="18.074316">
        <ele>8</ele>
        <time>2020-01-20T06:43:56Z</time>
      </trkpt>
      <trkpt lat="59.327051" lon="18.074288">
        <ele>8</ele>
        <time>2020-01-20T06:43:57Z</time>
      </trkpt>
      <trkpt lat="59.327076" lon="18.074261">
        <ele>8</ele>
        <time>2020-01-20T06:43:59Z</time>
      </trkpt>
      <trkpt lat="59.327101" lon="18.074231">
        <ele>8</ele>
        <time>2020-01-20T06:44:00Z</time>
      </trkpt>
      <trkpt lat="59.327125" lon="18.0742">
        <ele>9</ele>
        <time>2020-01-20T06:44:00Z</time>
      </trkpt>
      <trkpt lat="59.327149" lon="18.074168">
        <ele>8</ele>
        <time>2020-01-20T06:44:01Z</time>
      </trkpt>
      <trkpt lat="59.327174" lon="18.074138">
        <ele>8</ele>
        <time>2020-01-20T06:44:02Z</time>
      </trkpt>
      <trkpt lat="59.327198" lon="18.074108">
        <ele>9</ele>
        <time>2020-01-20T06:44:03Z</time>
      </trkpt>
      <trkpt lat="59.327223" lon="18.074078">
        <ele>9</ele>
        <time>2020-01-20T06:44:05Z</time>
      </trkpt>
      <trkpt lat="59.327249" lon="18.074052">
        <ele>9</ele>
        <time>2020-01-20T06:44:05Z</time>
      </trkpt>
      <trkpt lat="59.327275" lon="18.074028">
        <ele>9</ele>
        <time>2020-01-20T06:44:07Z</time>
      </trkpt>
      <trkpt lat="59.327299" lon="18.074">
        <ele>8</ele>
        <time>2020-01-20T06:44:07Z</time>
      </trkpt>
      <trkpt lat="59.327323" lon="18.073972">
        <ele>9</ele>
        <time>2020-01-20T06:44:08Z</time>
      </trkpt>
      <trkpt lat="59.327344" lon="18.07394">
        <ele>9</ele>
        <time>2020-01-20T06:44:09Z</time>
      </trkpt>
      <trkpt lat="59.327369" lon="18.073908">
        <ele>9</ele>
        <time>2020-01-20T06:44:10Z</time>
      </trkpt>
      <trkpt lat="59.327394" lon="18.073876">
        <ele>9</ele>
        <time>2020-01-20T06:44:11Z</time>
      </trkpt>
      <trkpt lat="59.327419" lon="18.073846">
        <ele>9</ele>
        <time>2020-01-20T06:44:12Z</time>
      </trkpt>
      <trkpt lat="59.327444" lon="18.073816">
        <ele>9</ele>
        <time>2020-01-20T06:44:13Z</time>
      </trkpt>
      <trkpt lat="59.327469" lon="18.073786">
        <ele>9</ele>
        <time>2020-01-20T06:44:14Z</time>
      </trkpt>
      <trkpt lat="59.327493" lon="18.073758">
        <ele>9</ele>
        <time>2020-01-20T06:44:15Z</time>
      </trkpt>
      <trkpt lat="59.327518" lon="18.073728">
        <ele>9</ele>
        <time>2020-01-20T06:44:17Z</time>
      </trkpt>
      <trkpt lat="59.327543" lon="18.073697">
        <ele>9</ele>
        <time>2020-01-20T06:44:17Z</time>
      </trkpt>
      <trkpt lat="59.327566" lon="18.073669">
        <ele>9</ele>
        <time>2020-01-20T06:44:18Z</time>
      </trkpt>
      <trkpt lat="59.32759" lon="18.073638">
        <ele>9</ele>
        <time>2020-01-20T06:44:19Z</time>
      </trkpt>
      <trkpt lat="59.327614" lon="18.073607">
        <ele>9</ele>
        <time>2020-01-20T06:44:20Z</time>
      </trkpt>
      <trkpt lat="59.327638" lon="18.073579">
        <ele>9</ele>
        <time>2020-01-20T06:44:21Z</time>
      </trkpt>
      <trkpt lat="59.327661" lon="18.07355">
        <ele>9</ele>
        <time>2020-01-20T06:44:22Z</time>
      </trkpt>
      <trkpt lat="59.327685" lon="18.073522">
        <ele>9</ele>
        <time>2020-01-20T06:44:24Z</time>
      </trkpt>
      <trkpt lat="59.32771" lon="18.07349">
        <ele>9</ele>
        <time>2020-01-20T06:44:24Z</time>
      </trkpt>
      <trkpt lat="59.327736" lon="18.073464">
        <ele>9</ele>
        <time>2020-01-20T06:44:25Z</time>
      </trkpt>
      <trkpt lat="59.327761" lon="18.073432">
        <ele>9</ele>
        <time>2020-01-20T06:44:26Z</time>
      </trkpt>
      <trkpt lat="59.327786" lon="18.073402">
        <ele>9</ele>
        <time>2020-01-20T06:44:27Z</time>
      </trkpt>
      <trkpt lat="59.32781" lon="18.073376">
        <ele>9</ele>
        <time>2020-01-20T06:44:28Z</time>
      </trkpt>
      <trkpt lat="59.327835" lon="18.073346">
        <ele>9</ele>
        <time>2020-01-20T06:44:29Z</time>
      </trkpt>
      <trkpt lat="59.327861" lon="18.073318">
        <ele>9</ele>
        <time>2020-01-20T06:44:30Z</time>
      </trkpt>
      <trkpt lat="59.327887" lon="18.073289">
        <ele>8</ele>
        <time>2020-01-20T06:44:31Z</time>
      </trkpt>
      <trkpt lat="59.327914" lon="18.073262">
        <ele>9</ele>
        <time>2020-01-20T06:44:32Z</time>
      </trkpt>
      <trkpt lat="59.327941" lon="18.073236">
        <ele>8</ele>
        <time>2020-01-20T06:44:34Z</time>
      </trkpt>
      <trkpt lat="59.327971" lon="18.073214">
        <ele>8</ele>
        <time>2020-01-20T06:44:34Z</time>
      </trkpt>
      <trkpt lat="59.328001" lon="18.073188">
        <ele>8</ele>
        <time>2020-01-20T06:44:35Z</time>
      </trkpt>
      <trkpt lat="59.328029" lon="18.073164">
        <ele>8</ele>
        <time>2020-01-20T06:44:36Z</time>
      </trkpt>
      <trkpt lat="59.328056" lon="18.073143">
        <ele>8</ele>
        <time>2020-01-20T06:44:37Z</time>
      </trkpt>
      <trkpt lat="59.328084" lon="18.073124">
        <ele>8</ele>
        <time>2020-01-20T06:44:38Z</time>
      </trkpt>
      <trkpt lat="59.328111" lon="18.073106">
        <ele>8</ele>
        <time>2020-01-20T06:44:39Z</time>
      </trkpt>
      <trkpt lat="59.32814" lon="18.07309">
        <ele>8</ele>
        <time>2020-01-20T06:44:40Z</time>
      </trkpt>
      <trkpt lat="59.328169" lon="18.073078">
        <ele>8</ele>
        <time>2020-01-20T06:44:42Z</time>
      </trkpt>
      <trkpt lat="59.328199" lon="18.073071">
        <ele>8</ele>
        <time>2020-01-20T06:44:43Z</time>
      </trkpt>
      <trkpt lat="59.328228" lon="18.073068">
        <ele>8</ele>
        <time>2020-01-20T06:44:43Z</time>
      </trkpt>
      <trkpt lat="59.328257" lon="18.073074">
        <ele>8</ele>
        <time>2020-01-20T06:44:44Z</time>
      </trkpt>
      <trkpt lat="59.328287" lon="18.073082">
        <ele>8</ele>
        <time>2020-01-20T06:44:45Z</time>
      </trkpt>
      <trkpt lat="59.328316" lon="18.073092">
        <ele>8</ele>
        <time>2020-01-20T06:44:46Z</time>
      </trkpt>
      <trkpt lat="59.328345" lon="18.073102">
        <ele>8</ele>
        <time>2020-01-20T06:44:47Z</time>
      </trkpt>
      <trkpt lat="59.328373" lon="18.073116">
        <ele>8</ele>
        <time>2020-01-20T06:44:48Z</time>
      </trkpt>
      <trkpt lat="59.328401" lon="18.073126">
        <ele>8</ele>
        <time>2020-01-20T06:44:49Z</time>
      </trkpt>
      <trkpt lat="59.32843" lon="18.073134">
        <ele>8</ele>
        <time>2020-01-20T06:44:51Z</time>
      </trkpt>
      <trkpt lat="59.328458" lon="18.073144">
        <ele>8</ele>
        <time>2020-01-20T06:44:51Z</time>
      </trkpt>
      <trkpt lat="59.328487" lon="18.073156">
        <ele>8</ele>
        <time>2020-01-20T06:44:52Z</time>
      </trkpt>
      <trkpt lat="59.328516" lon="18.073166">
        <ele>8</ele>
        <time>2020-01-20T06:44:53Z</time>
      </trkpt>
      <trkpt lat="59.328545" lon="18.073176">
        <ele>7</ele>
        <time>2020-01-20T06:44:54Z</time>
      </trkpt>
      <trkpt lat="59.328574" lon="18.073184">
        <ele>7</ele>
        <time>2020-01-20T06:44:55Z</time>
      </trkpt>
      <trkpt lat="59.328603" lon="18.073188">
        <ele>7</ele>
        <time>2020-01-20T06:44:56Z</time>
      </trkpt>
      <trkpt lat="59.328632" lon="18.073196">
        <ele>7</ele>
        <time>2020-01-20T06:44:57Z</time>
      </trkpt>
      <trkpt lat="59.32866" lon="18.073204">
        <ele>7</ele>
        <time>2020-01-20T06:44:58Z</time>
      </trkpt>
      <trkpt lat="59.328689" lon="18.07321">
        <ele>7</ele>
        <time>2020-01-20T06:44:59Z</time>
      </trkpt>
      <trkpt lat="59.328718" lon="18.073218">
        <ele>7</ele>
        <time>2020-01-20T06:45:00Z</time>
      </trkpt>
      <trkpt lat="59.328747" lon="18.073226">
        <ele>7</ele>
        <time>2020-01-20T06:45:02Z</time>
      </trkpt>
      <trkpt lat="59.328775" lon="18.073233">
        <ele>7</ele>
        <time>2020-01-20T06:45:02Z</time>
      </trkpt>
      <trkpt lat="59.328805" lon="18.073241">
        <ele>7</ele>
        <time>2020-01-20T06:45:03Z</time>
      </trkpt>
      <trkpt lat="59.328833" lon="18.073248">
        <ele>7</ele>
        <time>2020-01-20T06:45:04Z</time>
      </trkpt>
      <trkpt lat="59.328861" lon="18.073254">
        <ele>7</ele>
        <time>2020-01-20T06:45:05Z</time>
      </trkpt>
      <trkpt lat="59.328889" lon="18.073261">
        <ele>7</ele>
        <time>2020-01-20T06:45:06Z</time>
      </trkpt>
      <trkpt lat="59.328917" lon="18.073268">
        <ele>7</ele>
        <time>2020-01-20T06:45:07Z</time>
      </trkpt>
      <trkpt lat="59.328946" lon="18.073275">
        <ele>7</ele>
        <time>2020-01-20T06:45:09Z</time>
      </trkpt>
      <trkpt lat="59.328975" lon="18.07328">
        <ele>7</ele>
        <time>2020-01-20T06:45:09Z</time>
      </trkpt>
      <trkpt lat="59.329003" lon="18.073287">
        <ele>7</ele>
        <time>2020-01-20T06:45:10Z</time>
      </trkpt>
      <trkpt lat="59.329031" lon="18.073295">
        <ele>7</ele>
        <time>2020-01-20T06:45:11Z</time>
      </trkpt>
      <trkpt lat="59.329058" lon="18.073307">
        <ele>7</ele>
        <time>2020-01-20T06:45:12Z</time>
      </trkpt>
      <trkpt lat="59.329084" lon="18.073314">
        <ele>7</ele>
        <time>2020-01-20T06:45:13Z</time>
      </trkpt>
      <trkpt lat="59.329112" lon="18.073319">
        <ele>7</ele>
        <time>2020-01-20T06:45:14Z</time>
      </trkpt>
      <trkpt lat="59.329139" lon="18.073327">
        <ele>7</ele>
        <time>2020-01-20T06:45:15Z</time>
      </trkpt>
      <trkpt lat="59.329167" lon="18.073333">
        <ele>7</ele>
        <time>2020-01-20T06:45:17Z</time>
      </trkpt>
      <trkpt lat="59.329195" lon="18.07334">
        <ele>7</ele>
        <time>2020-01-20T06:45:17Z</time>
      </trkpt>
      <trkpt lat="59.329223" lon="18.073348">
        <ele>7</ele>
        <time>2020-01-20T06:45:18Z</time>
      </trkpt>
      <trkpt lat="59.329251" lon="18.073352">
        <ele>7</ele>
        <time>2020-01-20T06:45:20Z</time>
      </trkpt>
      <trkpt lat="59.329279" lon="18.073355">
        <ele>6</ele>
        <time>2020-01-20T06:45:21Z</time>
      </trkpt>
      <trkpt lat="59.329309" lon="18.073362">
        <ele>6</ele>
        <time>2020-01-20T06:45:21Z</time>
      </trkpt>
      <trkpt lat="59.329337" lon="18.073367">
        <ele>6</ele>
        <time>2020-01-20T06:45:22Z</time>
      </trkpt>
      <trkpt lat="59.329365" lon="18.073375">
        <ele>6</ele>
        <time>2020-01-20T06:45:23Z</time>
      </trkpt>
      <trkpt lat="59.329394" lon="18.073382">
        <ele>6</ele>
        <time>2020-01-20T06:45:24Z</time>
      </trkpt>
      <trkpt lat="59.329423" lon="18.07339">
        <ele>7</ele>
        <time>2020-01-20T06:45:26Z</time>
      </trkpt>
      <trkpt lat="59.329452" lon="18.073403">
        <ele>6</ele>
        <time>2020-01-20T06:45:26Z</time>
      </trkpt>
      <trkpt lat="59.329479" lon="18.073424">
        <ele>6</ele>
        <time>2020-01-20T06:45:27Z</time>
      </trkpt>
      <trkpt lat="59.329504" lon="18.073455">
        <ele>6</ele>
        <time>2020-01-20T06:45:29Z</time>
      </trkpt>
      <trkpt lat="59.329527" lon="18.073492">
        <ele>6</ele>
        <time>2020-01-20T06:45:29Z</time>
      </trkpt>
      <trkpt lat="59.329548" lon="18.073526">
        <ele>6</ele>
        <time>2020-01-20T06:45:30Z</time>
      </trkpt>
      <trkpt lat="59.329573" lon="18.073555">
        <ele>6</ele>
        <time>2020-01-20T06:45:31Z</time>
      </trkpt>
      <trkpt lat="59.329602" lon="18.073579">
        <ele>6</ele>
        <time>2020-01-20T06:45:32Z</time>
      </trkpt>
      <trkpt lat="59.329632" lon="18.073595">
        <ele>6</ele>
        <time>2020-01-20T06:45:33Z</time>
      </trkpt>
      <trkpt lat="59.329661" lon="18.0736">
        <ele>6</ele>
        <time>2020-01-20T06:45:34Z</time>
      </trkpt>
      <trkpt lat="59.329688" lon="18.073596">
        <ele>6</ele>
        <time>2020-01-20T06:45:35Z</time>
      </trkpt>
      <trkpt lat="59.329715" lon="18.073587">
        <ele>6</ele>
        <time>2020-01-20T06:45:36Z</time>
      </trkpt>
      <trkpt lat="59.329743" lon="18.073571">
        <ele>6</ele>
        <time>2020-01-20T06:45:37Z</time>
      </trkpt>
      <trkpt lat="59.329772" lon="18.073554">
        <ele>5</ele>
        <time>2020-01-20T06:45:38Z</time>
      </trkpt>
      <trkpt lat="59.329798" lon="18.073536">
        <ele>6</ele>
        <time>2020-01-20T06:45:40Z</time>
      </trkpt>
      <trkpt lat="59.329825" lon="18.073523">
        <ele>6</ele>
        <time>2020-01-20T06:45:40Z</time>
      </trkpt>
      <trkpt lat="59.329851" lon="18.073509">
        <ele>6</ele>
        <time>2020-01-20T06:45:41Z</time>
      </trkpt>
      <trkpt lat="59.329877" lon="18.073493">
        <ele>6</ele>
        <time>2020-01-20T06:45:42Z</time>
      </trkpt>
      <trkpt lat="59.329905" lon="18.073477">
        <ele>6</ele>
        <time>2020-01-20T06:45:44Z</time>
      </trkpt>
      <trkpt lat="59.329932" lon="18.073456">
        <ele>6</ele>
        <time>2020-01-20T06:45:44Z</time>
      </trkpt>
      <trkpt lat="59.32996" lon="18.07344">
        <ele>6</ele>
        <time>2020-01-20T06:45:45Z</time>
      </trkpt>
      <trkpt lat="59.329987" lon="18.073425">
        <ele>6</ele>
        <time>2020-01-20T06:45:46Z</time>
      </trkpt>
      <trkpt lat="59.330014" lon="18.073409">
        <ele>6</ele>
        <time>2020-01-20T06:45:47Z</time>
      </trkpt>
      <trkpt lat="59.330039" lon="18.073387">
        <ele>6</ele>
        <time>2020-01-20T06:45:48Z</time>
      </trkpt>
      <trkpt lat="59.330064" lon="18.073368">
        <ele>6</ele>
        <time>2020-01-20T06:45:49Z</time>
      </trkpt>
      <trkpt lat="59.33009" lon="18.073354">
        <ele>6</ele>
        <time>2020-01-20T06:45:50Z</time>
      </trkpt>
      <trkpt lat="59.330118" lon="18.073339">
        <ele>6</ele>
        <time>2020-01-20T06:45:52Z</time>
      </trkpt>
      <trkpt lat="59.330145" lon="18.073322">
        <ele>6</ele>
        <time>2020-01-20T06:45:52Z</time>
      </trkpt>
      <trkpt lat="59.330171" lon="18.073303">
        <ele>6</ele>
        <time>2020-01-20T06:45:53Z</time>
      </trkpt>
      <trkpt lat="59.3302" lon="18.073285">
        <ele>6</ele>
        <time>2020-01-20T06:45:55Z</time>
      </trkpt>
      <trkpt lat="59.330227" lon="18.073267">
        <ele>6</ele>
        <time>2020-01-20T06:45:55Z</time>
      </trkpt>
      <trkpt lat="59.330255" lon="18.073251">
        <ele>6</ele>
        <time>2020-01-20T06:45:56Z</time>
      </trkpt>
      <trkpt lat="59.330282" lon="18.073236">
        <ele>6</ele>
        <time>2020-01-20T06:45:57Z</time>
      </trkpt>
      <trkpt lat="59.33031" lon="18.073223">
        <ele>6</ele>
        <time>2020-01-20T06:45:59Z</time>
      </trkpt>
      <trkpt lat="59.330337" lon="18.073212">
        <ele>6</ele>
        <time>2020-01-20T06:45:59Z</time>
      </trkpt>
      <trkpt lat="59.330362" lon="18.073199">
        <ele>6</ele>
        <time>2020-01-20T06:46:01Z</time>
      </trkpt>
      <trkpt lat="59.330387" lon="18.073185">
        <ele>6</ele>
        <time>2020-01-20T06:46:01Z</time>
      </trkpt>
      <trkpt lat="59.330414" lon="18.073168">
        <ele>6</ele>
        <time>2020-01-20T06:46:02Z</time>
      </trkpt>
      <trkpt lat="59.33044" lon="18.073155">
        <ele>6</ele>
        <time>2020-01-20T06:46:03Z</time>
      </trkpt>
      <trkpt lat="59.330466" lon="18.073139">
        <ele>6</ele>
        <time>2020-01-20T06:46:04Z</time>
      </trkpt>
      <trkpt lat="59.330492" lon="18.073126">
        <ele>6</ele>
        <time>2020-01-20T06:46:05Z</time>
      </trkpt>
      <trkpt lat="59.330517" lon="18.073113">
        <ele>6</ele>
        <time>2020-01-20T06:46:06Z</time>
      </trkpt>
      <trkpt lat="59.330543" lon="18.073111">
        <ele>6</ele>
        <time>2020-01-20T06:46:08Z</time>
      </trkpt>
      <trkpt lat="59.330567" lon="18.073125">
        <ele>6</ele>
        <time>2020-01-20T06:46:08Z</time>
      </trkpt>
      <trkpt lat="59.330589" lon="18.073155">
        <ele>6</ele>
        <time>2020-01-20T06:46:09Z</time>
      </trkpt>
      <trkpt lat="59.330608" lon="18.073191">
        <ele>6</ele>
        <time>2020-01-20T06:46:10Z</time>
      </trkpt>
      <trkpt lat="59.330619" lon="18.073234">
        <ele>6</ele>
        <time>2020-01-20T06:46:11Z</time>
      </trkpt>
      <trkpt lat="59.330628" lon="18.073284">
        <ele>6</ele>
        <time>2020-01-20T06:46:12Z</time>
      </trkpt>
      <trkpt lat="59.330638" lon="18.073339">
        <ele>6</ele>
        <time>2020-01-20T06:46:13Z</time>
      </trkpt>
      <trkpt lat="59.330649" lon="18.073391">
        <ele>5</ele>
        <time>2020-01-20T06:46:14Z</time>
      </trkpt>
      <trkpt lat="59.33065" lon="18.073444">
        <ele>6</ele>
        <time>2020-01-20T06:46:15Z</time>
      </trkpt>
      <trkpt lat="59.330657" lon="18.073494">
        <ele>6</ele>
        <time>2020-01-20T06:46:16Z</time>
      </trkpt>
      <trkpt lat="59.330665" lon="18.073545">
        <ele>6</ele>
        <time>2020-01-20T06:46:18Z</time>
      </trkpt>
      <trkpt lat="59.330678" lon="18.073589">
        <ele>6</ele>
        <time>2020-01-20T06:46:18Z</time>
      </trkpt>
      <trkpt lat="59.330697" lon="18.073634">
        <ele>5</ele>
        <time>2020-01-20T06:46:20Z</time>
      </trkpt>
      <trkpt lat="59.330715" lon="18.073667">
        <ele>6</ele>
        <time>2020-01-20T06:46:20Z</time>
      </trkpt>
      <trkpt lat="59.330738" lon="18.0737">
        <ele>6</ele>
        <time>2020-01-20T06:46:21Z</time>
      </trkpt>
      <trkpt lat="59.330747" lon="18.073747">
        <ele>6</ele>
        <time>2020-01-20T06:46:23Z</time>
      </trkpt>
      <trkpt lat="59.330756" lon="18.073801">
        <ele>6</ele>
        <time>2020-01-20T06:46:23Z</time>
      </trkpt>
      <trkpt lat="59.330765" lon="18.073854">
        <ele>5</ele>
        <time>2020-01-20T06:46:24Z</time>
      </trkpt>
      <trkpt lat="59.330778" lon="18.073903">
        <ele>5</ele>
        <time>2020-01-20T06:46:25Z</time>
      </trkpt>
      <trkpt lat="59.33079" lon="18.073952">
        <ele>5</ele>
        <time>2020-01-20T06:46:26Z</time>
      </trkpt>
      <trkpt lat="59.330804" lon="18.073996">
        <ele>5</ele>
        <time>2020-01-20T06:46:27Z</time>
      </trkpt>
      <trkpt lat="59.330816" lon="18.074036">
        <ele>5</ele>
        <time>2020-01-20T06:46:28Z</time>
      </trkpt>
      <trkpt lat="59.330827" lon="18.074083">
        <ele>5</ele>
        <time>2020-01-20T06:46:29Z</time>
      </trkpt>
      <trkpt lat="59.330839" lon="18.074134">
        <ele>5</ele>
        <time>2020-01-20T06:46:30Z</time>
      </trkpt>
      <trkpt lat="59.33085" lon="18.074185">
        <ele>5</ele>
        <time>2020-01-20T06:46:31Z</time>
      </trkpt>
      <trkpt lat="59.33086" lon="18.074239">
        <ele>5</ele>
        <time>2020-01-20T06:46:32Z</time>
      </trkpt>
      <trkpt lat="59.330872" lon="18.074291">
        <ele>5</ele>
        <time>2020-01-20T06:46:34Z</time>
      </trkpt>
      <trkpt lat="59.330886" lon="18.074342">
        <ele>5</ele>
        <time>2020-01-20T06:46:34Z</time>
      </trkpt>
      <trkpt lat="59.330903" lon="18.074382">
        <ele>5</ele>
        <time>2020-01-20T06:46:35Z</time>
      </trkpt>
      <trkpt lat="59.330918" lon="18.07442">
        <ele>6</ele>
        <time>2020-01-20T06:46:37Z</time>
      </trkpt>
      <trkpt lat="59.330933" lon="18.074445">
        <ele>6</ele>
        <time>2020-01-20T06:46:38Z</time>
      </trkpt>
      <trkpt lat="59.330949" lon="18.074474">
        <ele>6</ele>
        <time>2020-01-20T06:46:38Z</time>
      </trkpt>
      <trkpt lat="59.330968" lon="18.074505">
        <ele>6</ele>
        <time>2020-01-20T06:46:39Z</time>
      </trkpt>
      <trkpt lat="59.331" lon="18.074524">
        <ele>6</ele>
        <time>2020-01-20T06:46:40Z</time>
      </trkpt>
      <trkpt lat="59.331033" lon="18.074543">
        <ele>6</ele>
        <time>2020-01-20T06:46:41Z</time>
      </trkpt>
      <trkpt lat="59.33106" lon="18.074563">
        <ele>6</ele>
        <time>2020-01-20T06:46:42Z</time>
      </trkpt>
      <trkpt lat="59.331087" lon="18.074586">
        <ele>6</ele>
        <time>2020-01-20T06:46:43Z</time>
      </trkpt>
      <trkpt lat="59.331187" lon="18.074625">
        <ele>7</ele>
        <time>2020-01-20T06:46:46Z</time>
      </trkpt>
      <trkpt lat="59.33122" lon="18.074638">
        <ele>7</ele>
        <time>2020-01-20T06:46:47Z</time>
      </trkpt>
      <trkpt lat="59.331252" lon="18.074647">
        <ele>7</ele>
        <time>2020-01-20T06:46:49Z</time>
      </trkpt>
      <trkpt lat="59.331281" lon="18.074668">
        <ele>7</ele>
        <time>2020-01-20T06:46:49Z</time>
      </trkpt>
      <trkpt lat="59.331309" lon="18.074686">
        <ele>8</ele>
        <time>2020-01-20T06:46:50Z</time>
      </trkpt>
      <trkpt lat="59.331348" lon="18.074684">
        <ele>7</ele>
        <time>2020-01-20T06:46:51Z</time>
      </trkpt>
      <trkpt lat="59.331375" lon="18.074698">
        <ele>8</ele>
        <time>2020-01-20T06:46:52Z</time>
      </trkpt>
      <trkpt lat="59.331399" lon="18.074715">
        <ele>8</ele>
        <time>2020-01-20T06:46:53Z</time>
      </trkpt>
      <trkpt lat="59.33143" lon="18.074729">
        <ele>8</ele>
        <time>2020-01-20T06:46:54Z</time>
      </trkpt>
      <trkpt lat="59.331527" lon="18.074764">
        <ele>8</ele>
        <time>2020-01-20T06:46:57Z</time>
      </trkpt>
      <trkpt lat="59.331619" lon="18.074794">
        <ele>8</ele>
        <time>2020-01-20T06:47:00Z</time>
      </trkpt>
      <trkpt lat="59.33173" lon="18.074863">
        <ele>9</ele>
        <time>2020-01-20T06:47:05Z</time>
      </trkpt>
      <trkpt lat="59.331817" lon="18.074986">
        <ele>8</ele>
        <time>2020-01-20T06:47:08Z</time>
      </trkpt>
      <trkpt lat="59.331841" lon="18.075125">
        <ele>8</ele>
        <time>2020-01-20T06:47:11Z</time>
      </trkpt>
      <trkpt lat="59.331852" lon="18.075186">
        <ele>7</ele>
        <time>2020-01-20T06:47:11Z</time>
      </trkpt>
      <trkpt lat="59.331866" lon="18.075255">
        <ele>8</ele>
        <time>2020-01-20T06:47:12Z</time>
      </trkpt>
      <trkpt lat="59.331892" lon="18.07533">
        <ele>8</ele>
        <time>2020-01-20T06:47:13Z</time>
      </trkpt>
      <trkpt lat="59.331915" lon="18.075391">
        <ele>8</ele>
        <time>2020-01-20T06:47:15Z</time>
      </trkpt>
      <trkpt lat="59.331939" lon="18.075443">
        <ele>8</ele>
        <time>2020-01-20T06:47:15Z</time>
      </trkpt>
      <trkpt lat="59.331955" lon="18.075495">
        <ele>8</ele>
        <time>2020-01-20T06:47:16Z</time>
      </trkpt>
      <trkpt lat="59.331974" lon="18.075543">
        <ele>8</ele>
        <time>2020-01-20T06:47:17Z</time>
      </trkpt>
      <trkpt lat="59.331996" lon="18.075586">
        <ele>9</ele>
        <time>2020-01-20T06:47:18Z</time>
      </trkpt>
      <trkpt lat="59.332014" lon="18.075634">
        <ele>9</ele>
        <time>2020-01-20T06:47:19Z</time>
      </trkpt>
      <trkpt lat="59.332032" lon="18.075682">
        <ele>10</ele>
        <time>2020-01-20T06:47:20Z</time>
      </trkpt>
      <trkpt lat="59.332055" lon="18.075723">
        <ele>10</ele>
        <time>2020-01-20T06:47:21Z</time>
      </trkpt>
      <trkpt lat="59.332073" lon="18.07576">
        <ele>10</ele>
        <time>2020-01-20T06:47:22Z</time>
      </trkpt>
      <trkpt lat="59.33209" lon="18.075793">
        <ele>10</ele>
        <time>2020-01-20T06:47:23Z</time>
      </trkpt>
      <trkpt lat="59.332107" lon="18.075824">
        <ele>10</ele>
        <time>2020-01-20T06:47:25Z</time>
      </trkpt>
      <trkpt lat="59.332122" lon="18.07586">
        <ele>10</ele>
        <time>2020-01-20T06:47:25Z</time>
      </trkpt>
      <trkpt lat="59.332141" lon="18.075896">
        <ele>10</ele>
        <time>2020-01-20T06:47:27Z</time>
      </trkpt>
      <trkpt lat="59.332159" lon="18.075928">
        <ele>10</ele>
        <time>2020-01-20T06:47:27Z</time>
      </trkpt>
      <trkpt lat="59.332175" lon="18.075963">
        <ele>10</ele>
        <time>2020-01-20T06:47:28Z</time>
      </trkpt>
      <trkpt lat="59.332191" lon="18.075998">
        <ele>10</ele>
        <time>2020-01-20T06:47:29Z</time>
      </trkpt>
      <trkpt lat="59.332206" lon="18.076034">
        <ele>10</ele>
        <time>2020-01-20T06:47:30Z</time>
      </trkpt>
      <trkpt lat="59.332221" lon="18.076075">
        <ele>10</ele>
        <time>2020-01-20T06:47:31Z</time>
      </trkpt>
      <trkpt lat="59.332241" lon="18.076115">
        <ele>10</ele>
        <time>2020-01-20T06:47:32Z</time>
      </trkpt>
      <trkpt lat="59.33226" lon="18.076154">
        <ele>10</ele>
        <time>2020-01-20T06:47:34Z</time>
      </trkpt>
      <trkpt lat="59.332277" lon="18.076191">
        <ele>10</ele>
        <time>2020-01-20T06:47:34Z</time>
      </trkpt>
      <trkpt lat="59.332296" lon="18.076225">
        <ele>10</ele>
        <time>2020-01-20T06:47:36Z</time>
      </trkpt>
      <trkpt lat="59.332314" lon="18.07626">
        <ele>10</ele>
        <time>2020-01-20T06:47:36Z</time>
      </trkpt>
      <trkpt lat="59.332334" lon="18.076294">
        <ele>10</ele>
        <time>2020-01-20T06:47:37Z</time>
      </trkpt>
      <trkpt lat="59.332352" lon="18.076328">
        <ele>10</ele>
        <time>2020-01-20T06:47:38Z</time>
      </trkpt>
      <trkpt lat="59.332368" lon="18.076363">
        <ele>11</ele>
        <time>2020-01-20T06:47:39Z</time>
      </trkpt>
      <trkpt lat="59.332384" lon="18.076399">
        <ele>11</ele>
        <time>2020-01-20T06:47:40Z</time>
      </trkpt>
      <trkpt lat="59.332401" lon="18.076435">
        <ele>11</ele>
        <time>2020-01-20T06:47:41Z</time>
      </trkpt>
      <trkpt lat="59.332418" lon="18.076474">
        <ele>11</ele>
        <time>2020-01-20T06:47:42Z</time>
      </trkpt>
      <trkpt lat="59.332434" lon="18.076517">
        <ele>11</ele>
        <time>2020-01-20T06:47:43Z</time>
      </trkpt>
      <trkpt lat="59.332449" lon="18.076564">
        <ele>11</ele>
        <time>2020-01-20T06:47:44Z</time>
      </trkpt>
      <trkpt lat="59.332462" lon="18.076609">
        <ele>12</ele>
        <time>2020-01-20T06:47:46Z</time>
      </trkpt>
      <trkpt lat="59.332472" lon="18.076657">
        <ele>12</ele>
        <time>2020-01-20T06:47:46Z</time>
      </trkpt>
      <trkpt lat="59.332479" lon="18.076704">
        <ele>12</ele>
        <time>2020-01-20T06:47:47Z</time>
      </trkpt>
      <trkpt lat="59.332485" lon="18.076756">
        <ele>12</ele>
        <time>2020-01-20T06:47:48Z</time>
      </trkpt>
      <trkpt lat="59.332493" lon="18.076806">
        <ele>12</ele>
        <time>2020-01-20T06:47:49Z</time>
      </trkpt>
      <trkpt lat="59.332501" lon="18.076854">
        <ele>13</ele>
        <time>2020-01-20T06:47:50Z</time>
      </trkpt>
      <trkpt lat="59.332507" lon="18.076899">
        <ele>13</ele>
        <time>2020-01-20T06:47:51Z</time>
      </trkpt>
      <trkpt lat="59.332514" lon="18.076938">
        <ele>13</ele>
        <time>2020-01-20T06:47:53Z</time>
      </trkpt>
      <trkpt lat="59.332524" lon="18.076975">
        <ele>13</ele>
        <time>2020-01-20T06:47:53Z</time>
      </trkpt>
      <trkpt lat="59.332539" lon="18.077006">
        <ele>13</ele>
        <time>2020-01-20T06:47:54Z</time>
      </trkpt>
      <trkpt lat="59.332554" lon="18.077033">
        <ele>13</ele>
        <time>2020-01-20T06:47:55Z</time>
      </trkpt>
      <trkpt lat="59.33257" lon="18.077061">
        <ele>14</ele>
        <time>2020-01-20T06:47:56Z</time>
      </trkpt>
      <trkpt lat="59.332589" lon="18.077078">
        <ele>14</ele>
        <time>2020-01-20T06:47:57Z</time>
      </trkpt>
      <trkpt lat="59.332613" lon="18.077086">
        <ele>14</ele>
        <time>2020-01-20T06:47:58Z</time>
      </trkpt>
      <trkpt lat="59.33264" lon="18.077087">
        <ele>14</ele>
        <time>2020-01-20T06:47:59Z</time>
      </trkpt>
      <trkpt lat="59.332665" lon="18.07709">
        <ele>15</ele>
        <time>2020-01-20T06:48:00Z</time>
      </trkpt>
      <trkpt lat="59.332694" lon="18.077098">
        <ele>15</ele>
        <time>2020-01-20T06:48:01Z</time>
      </trkpt>
      <trkpt lat="59.332724" lon="18.077117">
        <ele>15</ele>
        <time>2020-01-20T06:48:02Z</time>
      </trkpt>
      <trkpt lat="59.332753" lon="18.077135">
        <ele>15</ele>
        <time>2020-01-20T06:48:03Z</time>
      </trkpt>
      <trkpt lat="59.332782" lon="18.077162">
        <ele>15</ele>
        <time>2020-01-20T06:48:05Z</time>
      </trkpt>
      <trkpt lat="59.332812" lon="18.077191">
        <ele>15</ele>
        <time>2020-01-20T06:48:06Z</time>
      </trkpt>
      <trkpt lat="59.332844" lon="18.077219">
        <ele>15</ele>
        <time>2020-01-20T06:48:06Z</time>
      </trkpt>
      <trkpt lat="59.332876" lon="18.077253">
        <ele>15</ele>
        <time>2020-01-20T06:48:07Z</time>
      </trkpt>
      <trkpt lat="59.332907" lon="18.077289">
        <ele>14</ele>
        <time>2020-01-20T06:48:08Z</time>
      </trkpt>
      <trkpt lat="59.332934" lon="18.07733">
        <ele>14</ele>
        <time>2020-01-20T06:48:09Z</time>
      </trkpt>
      <trkpt lat="59.332955" lon="18.077365">
        <ele>14</ele>
        <time>2020-01-20T06:48:10Z</time>
      </trkpt>
      <trkpt lat="59.332977" lon="18.077394">
        <ele>14</ele>
        <time>2020-01-20T06:48:12Z</time>
      </trkpt>
      <trkpt lat="59.333005" lon="18.077419">
        <ele>14</ele>
        <time>2020-01-20T06:48:12Z</time>
      </trkpt>
      <trkpt lat="59.33303" lon="18.077445">
        <ele>14</ele>
        <time>2020-01-20T06:48:13Z</time>
      </trkpt>
      <trkpt lat="59.333051" lon="18.077472">
        <ele>14</ele>
        <time>2020-01-20T06:48:14Z</time>
      </trkpt>
      <trkpt lat="59.333074" lon="18.077497">
        <ele>14</ele>
        <time>2020-01-20T06:48:15Z</time>
      </trkpt>
      <trkpt lat="59.333096" lon="18.077518">
        <ele>14</ele>
        <time>2020-01-20T06:48:16Z</time>
      </trkpt>
      <trkpt lat="59.333122" lon="18.077533">
        <ele>14</ele>
        <time>2020-01-20T06:48:17Z</time>
      </trkpt>
      <trkpt lat="59.33315" lon="18.077544">
        <ele>14</ele>
        <time>2020-01-20T06:48:18Z</time>
      </trkpt>
      <trkpt lat="59.333172" lon="18.077561">
        <ele>14</ele>
        <time>2020-01-20T06:48:19Z</time>
      </trkpt>
      <trkpt lat="59.333199" lon="18.077574">
        <ele>14</ele>
        <time>2020-01-20T06:48:20Z</time>
      </trkpt>
      <trkpt lat="59.333225" lon="18.077589">
        <ele>14</ele>
        <time>2020-01-20T06:48:21Z</time>
      </trkpt>
      <trkpt lat="59.333248" lon="18.077611">
        <ele>14</ele>
        <time>2020-01-20T06:48:23Z</time>
      </trkpt>
      <trkpt lat="59.333269" lon="18.077639">
        <ele>14</ele>
        <time>2020-01-20T06:48:23Z</time>
      </trkpt>
      <trkpt lat="59.333288" lon="18.077663">
        <ele>14</ele>
        <time>2020-01-20T06:48:24Z</time>
      </trkpt>
      <trkpt lat="59.33337" lon="18.077694">
        <ele>15</ele>
        <time>2020-01-20T06:48:27Z</time>
      </trkpt>
      <trkpt lat="59.333405" lon="18.077696">
        <ele>15</ele>
        <time>2020-01-20T06:48:29Z</time>
      </trkpt>
      <trkpt lat="59.333439" lon="18.077703">
        <ele>15</ele>
        <time>2020-01-20T06:48:29Z</time>
      </trkpt>
      <trkpt lat="59.333464" lon="18.077722">
        <ele>14</ele>
        <time>2020-01-20T06:48:31Z</time>
      </trkpt>
      <trkpt lat="59.333486" lon="18.077744">
        <ele>14</ele>
        <time>2020-01-20T06:48:31Z</time>
      </trkpt>
      <trkpt lat="59.333511" lon="18.077768">
        <ele>14</ele>
        <time>2020-01-20T06:48:32Z</time>
      </trkpt>
      <trkpt lat="59.333532" lon="18.077795">
        <ele>14</ele>
        <time>2020-01-20T06:48:33Z</time>
      </trkpt>
      <trkpt lat="59.333549" lon="18.077828">
        <ele>14</ele>
        <time>2020-01-20T06:48:34Z</time>
      </trkpt>
      <trkpt lat="59.333565" lon="18.077867">
        <ele>14</ele>
        <time>2020-01-20T06:48:35Z</time>
      </trkpt>
      <trkpt lat="59.333586" lon="18.077902">
        <ele>14</ele>
        <time>2020-01-20T06:48:36Z</time>
      </trkpt>
      <trkpt lat="59.333608" lon="18.077928">
        <ele>14</ele>
        <time>2020-01-20T06:48:37Z</time>
      </trkpt>
      <trkpt lat="59.333627" lon="18.077958">
        <ele>14</ele>
        <time>2020-01-20T06:48:38Z</time>
      </trkpt>
      <trkpt lat="59.333649" lon="18.077986">
        <ele>14</ele>
        <time>2020-01-20T06:48:39Z</time>
      </trkpt>
      <trkpt lat="59.333671" lon="18.078011">
        <ele>14</ele>
        <time>2020-01-20T06:48:41Z</time>
      </trkpt>
      <trkpt lat="59.333696" lon="18.078034">
        <ele>13</ele>
        <time>2020-01-20T06:48:42Z</time>
      </trkpt>
      <trkpt lat="59.333721" lon="18.078056">
        <ele>13</ele>
        <time>2020-01-20T06:48:42Z</time>
      </trkpt>
      <trkpt lat="59.333745" lon="18.078075">
        <ele>13</ele>
        <time>2020-01-20T06:48:43Z</time>
      </trkpt>
      <trkpt lat="59.333772" lon="18.078095">
        <ele>13</ele>
        <time>2020-01-20T06:48:44Z</time>
      </trkpt>
      <trkpt lat="59.333801" lon="18.078104">
        <ele>12</ele>
        <time>2020-01-20T06:48:45Z</time>
      </trkpt>
      <trkpt lat="59.33389" lon="18.078144">
        <ele>12</ele>
        <time>2020-01-20T06:48:48Z</time>
      </trkpt>
      <trkpt lat="59.334003" lon="18.078141">
        <ele>12</ele>
        <time>2020-01-20T06:48:51Z</time>
      </trkpt>
      <trkpt lat="59.334047" lon="18.078191">
        <ele>13</ele>
        <time>2020-01-20T06:48:53Z</time>
      </trkpt>
      <trkpt lat="59.334078" lon="18.078217">
        <ele>13</ele>
        <time>2020-01-20T06:48:54Z</time>
      </trkpt>
      <trkpt lat="59.334109" lon="18.07824">
        <ele>14</ele>
        <time>2020-01-20T06:48:56Z</time>
      </trkpt>
      <trkpt lat="59.334131" lon="18.078265">
        <ele>14</ele>
        <time>2020-01-20T06:48:56Z</time>
      </trkpt>
      <trkpt lat="59.334151" lon="18.078284">
        <ele>14</ele>
        <time>2020-01-20T06:48:57Z</time>
      </trkpt>
      <trkpt lat="59.334169" lon="18.078303">
        <ele>14</ele>
        <time>2020-01-20T06:48:59Z</time>
      </trkpt>
      <trkpt lat="59.334187" lon="18.07833">
        <ele>14</ele>
        <time>2020-01-20T06:48:59Z</time>
      </trkpt>
      <trkpt lat="59.334204" lon="18.078358">
        <ele>14</ele>
        <time>2020-01-20T06:49:00Z</time>
      </trkpt>
      <trkpt lat="59.334222" lon="18.078385">
        <ele>14</ele>
        <time>2020-01-20T06:49:01Z</time>
      </trkpt>
      <trkpt lat="59.33424" lon="18.078414">
        <ele>14</ele>
        <time>2020-01-20T06:49:02Z</time>
      </trkpt>
      <trkpt lat="59.334258" lon="18.078452">
        <ele>14</ele>
        <time>2020-01-20T06:49:03Z</time>
      </trkpt>
      <trkpt lat="59.334275" lon="18.078489">
        <ele>14</ele>
        <time>2020-01-20T06:49:05Z</time>
      </trkpt>
      <trkpt lat="59.334298" lon="18.07852">
        <ele>14</ele>
        <time>2020-01-20T06:49:05Z</time>
      </trkpt>
      <trkpt lat="59.334321" lon="18.078549">
        <ele>14</ele>
        <time>2020-01-20T06:49:06Z</time>
      </trkpt>
      <trkpt lat="59.334343" lon="18.07858">
        <ele>13</ele>
        <time>2020-01-20T06:49:07Z</time>
      </trkpt>
      <trkpt lat="59.33443" lon="18.078644">
        <ele>14</ele>
        <time>2020-01-20T06:49:10Z</time>
      </trkpt>
      <trkpt lat="59.334539" lon="18.07866">
        <ele>14</ele>
        <time>2020-01-20T06:49:13Z</time>
      </trkpt>
      <trkpt lat="59.33465" lon="18.07867">
        <ele>14</ele>
        <time>2020-01-20T06:49:16Z</time>
      </trkpt>
      <trkpt lat="59.334741" lon="18.07869">
        <ele>14</ele>
        <time>2020-01-20T06:49:19Z</time>
      </trkpt>
      <trkpt lat="59.33483" lon="18.078738">
        <ele>15</ele>
        <time>2020-01-20T06:49:22Z</time>
      </trkpt>
      <trkpt lat="59.334874" lon="18.078786">
        <ele>15</ele>
        <time>2020-01-20T06:49:24Z</time>
      </trkpt>
      <trkpt lat="59.334958" lon="18.078906">
        <ele>16</ele>
        <time>2020-01-20T06:49:28Z</time>
      </trkpt>
      <trkpt lat="59.334985" lon="18.07893">
        <ele>16</ele>
        <time>2020-01-20T06:49:30Z</time>
      </trkpt>
      <trkpt lat="59.335011" lon="18.07895">
        <ele>17</ele>
        <time>2020-01-20T06:49:30Z</time>
      </trkpt>
      <trkpt lat="59.335036" lon="18.078975">
        <ele>17</ele>
        <time>2020-01-20T06:49:31Z</time>
      </trkpt>
      <trkpt lat="59.335058" lon="18.079006">
        <ele>17</ele>
        <time>2020-01-20T06:49:33Z</time>
      </trkpt>
      <trkpt lat="59.335086" lon="18.079028">
        <ele>18</ele>
        <time>2020-01-20T06:49:33Z</time>
      </trkpt>
      <trkpt lat="59.335116" lon="18.079049">
        <ele>18</ele>
        <time>2020-01-20T06:49:34Z</time>
      </trkpt>
      <trkpt lat="59.335142" lon="18.079069">
        <ele>18</ele>
        <time>2020-01-20T06:49:36Z</time>
      </trkpt>
      <trkpt lat="59.33517" lon="18.079085">
        <ele>18</ele>
        <time>2020-01-20T06:49:36Z</time>
      </trkpt>
      <trkpt lat="59.335204" lon="18.079091">
        <ele>18</ele>
        <time>2020-01-20T06:49:37Z</time>
      </trkpt>
      <trkpt lat="59.33523" lon="18.079111">
        <ele>18</ele>
        <time>2020-01-20T06:49:38Z</time>
      </trkpt>
      <trkpt lat="59.335258" lon="18.079127">
        <ele>18</ele>
        <time>2020-01-20T06:49:39Z</time>
      </trkpt>
      <trkpt lat="59.335283" lon="18.079144">
        <ele>18</ele>
        <time>2020-01-20T06:49:40Z</time>
      </trkpt>
      <trkpt lat="59.33531" lon="18.079161">
        <ele>18</ele>
        <time>2020-01-20T06:49:41Z</time>
      </trkpt>
      <trkpt lat="59.335331" lon="18.079186">
        <ele>18</ele>
        <time>2020-01-20T06:49:42Z</time>
      </trkpt>
      <trkpt lat="59.335359" lon="18.079207">
        <ele>19</ele>
        <time>2020-01-20T06:49:43Z</time>
      </trkpt>
      <trkpt lat="59.335382" lon="18.07923">
        <ele>19</ele>
        <time>2020-01-20T06:49:44Z</time>
      </trkpt>
      <trkpt lat="59.335405" lon="18.079254">
        <ele>19</ele>
        <time>2020-01-20T06:49:45Z</time>
      </trkpt>
      <trkpt lat="59.335429" lon="18.079274">
        <ele>19</ele>
        <time>2020-01-20T06:49:47Z</time>
      </trkpt>
      <trkpt lat="59.335455" lon="18.079294">
        <ele>19</ele>
        <time>2020-01-20T06:49:47Z</time>
      </trkpt>
      <trkpt lat="59.335478" lon="18.079315">
        <ele>19</ele>
        <time>2020-01-20T06:49:48Z</time>
      </trkpt>
      <trkpt lat="59.3355" lon="18.079351">
        <ele>19</ele>
        <time>2020-01-20T06:49:50Z</time>
      </trkpt>
      <trkpt lat="59.335523" lon="18.079385">
        <ele>19</ele>
        <time>2020-01-20T06:49:51Z</time>
      </trkpt>
      <trkpt lat="59.335547" lon="18.07942">
        <ele>19</ele>
        <time>2020-01-20T06:49:51Z</time>
      </trkpt>
      <trkpt lat="59.335569" lon="18.07945">
        <ele>19</ele>
        <time>2020-01-20T06:49:52Z</time>
      </trkpt>
      <trkpt lat="59.335587" lon="18.079482">
        <ele>19</ele>
        <time>2020-01-20T06:49:53Z</time>
      </trkpt>
      <trkpt lat="59.335612" lon="18.07951">
        <ele>19</ele>
        <time>2020-01-20T06:49:54Z</time>
      </trkpt>
      <trkpt lat="59.335635" lon="18.079544">
        <ele>19</ele>
        <time>2020-01-20T06:49:55Z</time>
      </trkpt>
      <trkpt lat="59.335662" lon="18.079565">
        <ele>20</ele>
        <time>2020-01-20T06:49:56Z</time>
      </trkpt>
      <trkpt lat="59.335683" lon="18.079592">
        <ele>20</ele>
        <time>2020-01-20T06:49:57Z</time>
      </trkpt>
      <trkpt lat="59.335706" lon="18.079621">
        <ele>20</ele>
        <time>2020-01-20T06:49:58Z</time>
      </trkpt>
      <trkpt lat="59.33573" lon="18.07965">
        <ele>20</ele>
        <time>2020-01-20T06:49:59Z</time>
      </trkpt>
      <trkpt lat="59.335752" lon="18.079674">
        <ele>20</ele>
        <time>2020-01-20T06:50:00Z</time>
      </trkpt>
      <trkpt lat="59.335776" lon="18.079698">
        <ele>20</ele>
        <time>2020-01-20T06:50:02Z</time>
      </trkpt>
      <trkpt lat="59.335802" lon="18.07972">
        <ele>20</ele>
        <time>2020-01-20T06:50:02Z</time>
      </trkpt>
      <trkpt lat="59.335828" lon="18.07974">
        <ele>21</ele>
        <time>2020-01-20T06:50:03Z</time>
      </trkpt>
      <trkpt lat="59.335852" lon="18.079759">
        <ele>21</ele>
        <time>2020-01-20T06:50:05Z</time>
      </trkpt>
      <trkpt lat="59.335876" lon="18.07977">
        <ele>21</ele>
        <time>2020-01-20T06:50:06Z</time>
      </trkpt>
      <trkpt lat="59.335898" lon="18.07978">
        <ele>21</ele>
        <time>2020-01-20T06:50:06Z</time>
      </trkpt>
      <trkpt lat="59.335922" lon="18.079792">
        <ele>21</ele>
        <time>2020-01-20T06:50:07Z</time>
      </trkpt>
      <trkpt lat="59.33595" lon="18.079804">
        <ele>21</ele>
        <time>2020-01-20T06:50:09Z</time>
      </trkpt>
      <trkpt lat="59.335976" lon="18.079817">
        <ele>21</ele>
        <time>2020-01-20T06:50:09Z</time>
      </trkpt>
      <trkpt lat="59.336003" lon="18.079829">
        <ele>21</ele>
        <time>2020-01-20T06:50:10Z</time>
      </trkpt>
      <trkpt lat="59.336029" lon="18.079839">
        <ele>21</ele>
        <time>2020-01-20T06:50:11Z</time>
      </trkpt>
      <trkpt lat="59.336054" lon="18.079856">
        <ele>20</ele>
        <time>2020-01-20T06:50:12Z</time>
      </trkpt>
      <trkpt lat="59.336079" lon="18.07987">
        <ele>20</ele>
        <time>2020-01-20T06:50:13Z</time>
      </trkpt>
      <trkpt lat="59.336102" lon="18.079892">
        <ele>20</ele>
        <time>2020-01-20T06:50:14Z</time>
      </trkpt>
      <trkpt lat="59.336125" lon="18.079908">
        <ele>20</ele>
        <time>2020-01-20T06:50:15Z</time>
      </trkpt>
      <trkpt lat="59.336151" lon="18.079935">
        <ele>20</ele>
        <time>2020-01-20T06:50:17Z</time>
      </trkpt>
      <trkpt lat="59.336175" lon="18.079962">
        <ele>20</ele>
        <time>2020-01-20T06:50:17Z</time>
      </trkpt>
      <trkpt lat="59.3362" lon="18.079989">
        <ele>19</ele>
        <time>2020-01-20T06:50:18Z</time>
      </trkpt>
      <trkpt lat="59.336226" lon="18.080008">
        <ele>19</ele>
        <time>2020-01-20T06:50:19Z</time>
      </trkpt>
      <trkpt lat="59.336257" lon="18.080027">
        <ele>19</ele>
        <time>2020-01-20T06:50:20Z</time>
      </trkpt>
      <trkpt lat="59.336289" lon="18.080043">
        <ele>19</ele>
        <time>2020-01-20T06:50:21Z</time>
      </trkpt>
      <trkpt lat="59.336322" lon="18.080063">
        <ele>19</ele>
        <time>2020-01-20T06:50:22Z</time>
      </trkpt>
      <trkpt lat="59.336352" lon="18.080079">
        <ele>19</ele>
        <time>2020-01-20T06:50:23Z</time>
      </trkpt>
      <trkpt lat="59.336383" lon="18.080091">
        <ele>18</ele>
        <time>2020-01-20T06:50:25Z</time>
      </trkpt>
      <trkpt lat="59.336411" lon="18.080105">
        <ele>19</ele>
        <time>2020-01-20T06:50:25Z</time>
      </trkpt>
      <trkpt lat="59.336441" lon="18.080113">
        <ele>18</ele>
        <time>2020-01-20T06:50:27Z</time>
      </trkpt>
      <trkpt lat="59.336472" lon="18.080122">
        <ele>18</ele>
        <time>2020-01-20T06:50:27Z</time>
      </trkpt>
      <trkpt lat="59.3365" lon="18.080142">
        <ele>18</ele>
        <time>2020-01-20T06:50:28Z</time>
      </trkpt>
      <trkpt lat="59.33653" lon="18.080156">
        <ele>19</ele>
        <time>2020-01-20T06:50:30Z</time>
      </trkpt>
      <trkpt lat="59.33656" lon="18.080172">
        <ele>19</ele>
        <time>2020-01-20T06:50:30Z</time>
      </trkpt>
      <trkpt lat="59.336593" lon="18.080186">
        <ele>19</ele>
        <time>2020-01-20T06:50:31Z</time>
      </trkpt>
      <trkpt lat="59.33662" lon="18.080202">
        <ele>19</ele>
        <time>2020-01-20T06:50:33Z</time>
      </trkpt>
      <trkpt lat="59.336648" lon="18.080217">
        <ele>19</ele>
        <time>2020-01-20T06:50:33Z</time>
      </trkpt>
      <trkpt lat="59.336679" lon="18.080224">
        <ele>19</ele>
        <time>2020-01-20T06:50:34Z</time>
      </trkpt>
      <trkpt lat="59.33671" lon="18.080237">
        <ele>19</ele>
        <time>2020-01-20T06:50:35Z</time>
      </trkpt>
      <trkpt lat="59.336741" lon="18.08025">
        <ele>19</ele>
        <time>2020-01-20T06:50:36Z</time>
      </trkpt>
      <trkpt lat="59.336773" lon="18.080262">
        <ele>19</ele>
        <time>2020-01-20T06:50:37Z</time>
      </trkpt>
      <trkpt lat="59.336802" lon="18.080274">
        <ele>19</ele>
        <time>2020-01-20T06:50:38Z</time>
      </trkpt>
      <trkpt lat="59.336833" lon="18.080284">
        <ele>20</ele>
        <time>2020-01-20T06:50:39Z</time>
      </trkpt>
      <trkpt lat="59.336864" lon="18.080294">
        <ele>20</ele>
        <time>2020-01-20T06:50:40Z</time>
      </trkpt>
      <trkpt lat="59.336892" lon="18.080304">
        <ele>20</ele>
        <time>2020-01-20T06:50:41Z</time>
      </trkpt>
      <trkpt lat="59.336916" lon="18.080322">
        <ele>20</ele>
        <time>2020-01-20T06:50:43Z</time>
      </trkpt>
      <trkpt lat="59.33694" lon="18.080341">
        <ele>20</ele>
        <time>2020-01-20T06:50:44Z</time>
      </trkpt>
      <trkpt lat="59.336971" lon="18.080348">
        <ele>20</ele>
        <time>2020-01-20T06:50:44Z</time>
      </trkpt>
      <trkpt lat="59.337001" lon="18.080358">
        <ele>20</ele>
        <time>2020-01-20T06:50:45Z</time>
      </trkpt>
      <trkpt lat="59.33703" lon="18.080366">
        <ele>20</ele>
        <time>2020-01-20T06:50:46Z</time>
      </trkpt>
      <trkpt lat="59.33707" lon="18.080352">
        <ele>21</ele>
        <time>2020-01-20T06:50:47Z</time>
      </trkpt>
      <trkpt lat="59.337101" lon="18.080363">
        <ele>20</ele>
        <time>2020-01-20T06:50:48Z</time>
      </trkpt>
      <trkpt lat="59.337107" lon="18.080457">
        <ele>20</ele>
        <time>2020-01-20T06:50:49Z</time>
      </trkpt>
      <trkpt lat="59.337133" lon="18.080493">
        <ele>21</ele>
        <time>2020-01-20T06:50:50Z</time>
      </trkpt>
      <trkpt lat="59.337154" lon="18.080556">
        <ele>21</ele>
        <time>2020-01-20T06:50:51Z</time>
      </trkpt>
      <trkpt lat="59.337174" lon="18.080603">
        <ele>21</ele>
        <time>2020-01-20T06:50:52Z</time>
      </trkpt>
      <trkpt lat="59.337196" lon="18.080639">
        <ele>22</ele>
        <time>2020-01-20T06:50:53Z</time>
      </trkpt>
      <trkpt lat="59.337217" lon="18.080682">
        <ele>22</ele>
        <time>2020-01-20T06:50:54Z</time>
      </trkpt>
      <trkpt lat="59.337241" lon="18.08071">
        <ele>22</ele>
        <time>2020-01-20T06:50:55Z</time>
      </trkpt>
      <trkpt lat="59.337268" lon="18.080739">
        <ele>22</ele>
        <time>2020-01-20T06:50:57Z</time>
      </trkpt>
      <trkpt lat="59.337296" lon="18.080758">
        <ele>22</ele>
        <time>2020-01-20T06:50:58Z</time>
      </trkpt>
      <trkpt lat="59.337323" lon="18.080779">
        <ele>22</ele>
        <time>2020-01-20T06:50:59Z</time>
      </trkpt>
      <trkpt lat="59.337351" lon="18.080801">
        <ele>21</ele>
        <time>2020-01-20T06:50:59Z</time>
      </trkpt>
      <trkpt lat="59.337378" lon="18.080825">
        <ele>21</ele>
        <time>2020-01-20T06:51:00Z</time>
      </trkpt>
      <trkpt lat="59.337406" lon="18.080842">
        <ele>21</ele>
        <time>2020-01-20T06:51:01Z</time>
      </trkpt>
      <trkpt lat="59.337428" lon="18.080861">
        <ele>21</ele>
        <time>2020-01-20T06:51:03Z</time>
      </trkpt>
      <trkpt lat="59.337455" lon="18.080873">
        <ele>20</ele>
        <time>2020-01-20T06:51:03Z</time>
      </trkpt>
      <trkpt lat="59.337482" lon="18.080876">
        <ele>20</ele>
        <time>2020-01-20T06:51:04Z</time>
      </trkpt>
      <trkpt lat="59.337511" lon="18.080881">
        <ele>20</ele>
        <time>2020-01-20T06:51:05Z</time>
      </trkpt>
      <trkpt lat="59.337538" lon="18.080896">
        <ele>20</ele>
        <time>2020-01-20T06:51:06Z</time>
      </trkpt>
      <trkpt lat="59.337563" lon="18.080908">
        <ele>20</ele>
        <time>2020-01-20T06:51:07Z</time>
      </trkpt>
      <trkpt lat="59.33759" lon="18.080922">
        <ele>20</ele>
        <time>2020-01-20T06:51:08Z</time>
      </trkpt>
      <trkpt lat="59.337615" lon="18.080941">
        <ele>19</ele>
        <time>2020-01-20T06:51:09Z</time>
      </trkpt>
      <trkpt lat="59.337639" lon="18.080949">
        <ele>19</ele>
        <time>2020-01-20T06:51:10Z</time>
      </trkpt>
      <trkpt lat="59.337662" lon="18.080966">
        <ele>20</ele>
        <time>2020-01-20T06:51:11Z</time>
      </trkpt>
      <trkpt lat="59.337691" lon="18.08098">
        <ele>20</ele>
        <time>2020-01-20T06:51:13Z</time>
      </trkpt>
      <trkpt lat="59.337722" lon="18.080988">
        <ele>20</ele>
        <time>2020-01-20T06:51:13Z</time>
      </trkpt>
      <trkpt lat="59.337752" lon="18.080993">
        <ele>20</ele>
        <time>2020-01-20T06:51:14Z</time>
      </trkpt>
      <trkpt lat="59.337779" lon="18.08101">
        <ele>20</ele>
        <time>2020-01-20T06:51:16Z</time>
      </trkpt>
      <trkpt lat="59.337808" lon="18.081026">
        <ele>20</ele>
        <time>2020-01-20T06:51:16Z</time>
      </trkpt>
      <trkpt lat="59.337841" lon="18.081035">
        <ele>20</ele>
        <time>2020-01-20T06:51:17Z</time>
      </trkpt>
      <trkpt lat="59.337866" lon="18.081055">
        <ele>20</ele>
        <time>2020-01-20T06:51:19Z</time>
      </trkpt>
      <trkpt lat="59.337895" lon="18.081072">
        <ele>20</ele>
        <time>2020-01-20T06:51:19Z</time>
      </trkpt>
      <trkpt lat="59.337925" lon="18.081081">
        <ele>20</ele>
        <time>2020-01-20T06:51:20Z</time>
      </trkpt>
      <trkpt lat="59.337954" lon="18.0811">
        <ele>20</ele>
        <time>2020-01-20T06:51:22Z</time>
      </trkpt>
      <trkpt lat="59.337984" lon="18.081124">
        <ele>20</ele>
        <time>2020-01-20T06:51:22Z</time>
      </trkpt>
      <trkpt lat="59.33801" lon="18.08115">
        <ele>20</ele>
        <time>2020-01-20T06:51:23Z</time>
      </trkpt>
      <trkpt lat="59.338109" lon="18.081254">
        <ele>21</ele>
        <time>2020-01-20T06:51:27Z</time>
      </trkpt>
      <trkpt lat="59.338136" lon="18.08137">
        <ele>21</ele>
        <time>2020-01-20T06:51:30Z</time>
      </trkpt>
      <trkpt lat="59.33818" lon="18.081437">
        <ele>21</ele>
        <time>2020-01-20T06:51:31Z</time>
      </trkpt>
      <trkpt lat="59.338199" lon="18.081488">
        <ele>21</ele>
        <time>2020-01-20T06:51:33Z</time>
      </trkpt>
      <trkpt lat="59.338221" lon="18.081533">
        <ele>21</ele>
        <time>2020-01-20T06:51:33Z</time>
      </trkpt>
      <trkpt lat="59.338244" lon="18.081573">
        <ele>21</ele>
        <time>2020-01-20T06:51:34Z</time>
      </trkpt>
      <trkpt lat="59.338271" lon="18.081612">
        <ele>21</ele>
        <time>2020-01-20T06:51:36Z</time>
      </trkpt>
      <trkpt lat="59.338294" lon="18.081661">
        <ele>21</ele>
        <time>2020-01-20T06:51:36Z</time>
      </trkpt>
      <trkpt lat="59.338314" lon="18.081699">
        <ele>21</ele>
        <time>2020-01-20T06:51:37Z</time>
      </trkpt>
      <trkpt lat="59.33834" lon="18.081727">
        <ele>21</ele>
        <time>2020-01-20T06:51:38Z</time>
      </trkpt>
      <trkpt lat="59.338368" lon="18.08175">
        <ele>21</ele>
        <time>2020-01-20T06:51:39Z</time>
      </trkpt>
      <trkpt lat="59.338399" lon="18.081773">
        <ele>21</ele>
        <time>2020-01-20T06:51:41Z</time>
      </trkpt>
      <trkpt lat="59.338432" lon="18.081794">
        <ele>21</ele>
        <time>2020-01-20T06:51:41Z</time>
      </trkpt>
      <trkpt lat="59.338463" lon="18.081812">
        <ele>20</ele>
        <time>2020-01-20T06:51:43Z</time>
      </trkpt>
      <trkpt lat="59.338501" lon="18.081826">
        <ele>20</ele>
        <time>2020-01-20T06:51:43Z</time>
      </trkpt>
      <trkpt lat="59.338533" lon="18.081842">
        <ele>20</ele>
        <time>2020-01-20T06:51:44Z</time>
      </trkpt>
      <trkpt lat="59.338561" lon="18.08186">
        <ele>20</ele>
        <time>2020-01-20T06:51:45Z</time>
      </trkpt>
      <trkpt lat="59.338582" lon="18.081888">
        <ele>20</ele>
        <time>2020-01-20T06:51:46Z</time>
      </trkpt>
      <trkpt lat="59.338608" lon="18.081906">
        <ele>19</ele>
        <time>2020-01-20T06:51:47Z</time>
      </trkpt>
      <trkpt lat="59.33863" lon="18.081928">
        <ele>19</ele>
        <time>2020-01-20T06:51:49Z</time>
      </trkpt>
      <trkpt lat="59.338654" lon="18.081945">
        <ele>20</ele>
        <time>2020-01-20T06:51:49Z</time>
      </trkpt>
      <trkpt lat="59.338677" lon="18.081965">
        <ele>20</ele>
        <time>2020-01-20T06:51:50Z</time>
      </trkpt>
      <trkpt lat="59.338699" lon="18.081993">
        <ele>19</ele>
        <time>2020-01-20T06:51:51Z</time>
      </trkpt>
      <trkpt lat="59.338718" lon="18.082018">
        <ele>19</ele>
        <time>2020-01-20T06:51:52Z</time>
      </trkpt>
      <trkpt lat="59.338741" lon="18.082041">
        <ele>19</ele>
        <time>2020-01-20T06:51:53Z</time>
      </trkpt>
      <trkpt lat="59.338768" lon="18.082063">
        <ele>18</ele>
        <time>2020-01-20T06:51:54Z</time>
      </trkpt>
      <trkpt lat="59.338795" lon="18.082083">
        <ele>18</ele>
        <time>2020-01-20T06:51:55Z</time>
      </trkpt>
      <trkpt lat="59.338823" lon="18.0821">
        <ele>18</ele>
        <time>2020-01-20T06:51:56Z</time>
      </trkpt>
      <trkpt lat="59.338846" lon="18.082123">
        <ele>18</ele>
        <time>2020-01-20T06:51:57Z</time>
      </trkpt>
      <trkpt lat="59.33887" lon="18.082144">
        <ele>18</ele>
        <time>2020-01-20T06:51:58Z</time>
      </trkpt>
      <trkpt lat="59.338893" lon="18.082168">
        <ele>18</ele>
        <time>2020-01-20T06:52:00Z</time>
      </trkpt>
      <trkpt lat="59.338912" lon="18.082192">
        <ele>18</ele>
        <time>2020-01-20T06:52:00Z</time>
      </trkpt>
      <trkpt lat="59.338934" lon="18.082216">
        <ele>18</ele>
        <time>2020-01-20T06:52:01Z</time>
      </trkpt>
      <trkpt lat="59.338956" lon="18.082235">
        <ele>18</ele>
        <time>2020-01-20T06:52:02Z</time>
      </trkpt>
      <trkpt lat="59.338982" lon="18.082249">
        <ele>17</ele>
        <time>2020-01-20T06:52:03Z</time>
      </trkpt>
      <trkpt lat="59.33902" lon="18.082271">
        <ele>17</ele>
        <time>2020-01-20T06:52:04Z</time>
      </trkpt>
      <trkpt lat="59.339049" lon="18.0823">
        <ele>17</ele>
        <time>2020-01-20T06:52:05Z</time>
      </trkpt>
      <trkpt lat="59.339065" lon="18.082333">
        <ele>17</ele>
        <time>2020-01-20T06:52:06Z</time>
      </trkpt>
      <trkpt lat="59.33908" lon="18.08236">
        <ele>17</ele>
        <time>2020-01-20T06:52:08Z</time>
      </trkpt>
      <trkpt lat="59.339091" lon="18.082391">
        <ele>17</ele>
        <time>2020-01-20T06:52:08Z</time>
      </trkpt>
      <trkpt lat="59.339114" lon="18.082426">
        <ele>17</ele>
        <time>2020-01-20T06:52:09Z</time>
      </trkpt>
      <trkpt lat="59.339143" lon="18.082458">
        <ele>17</ele>
        <time>2020-01-20T06:52:10Z</time>
      </trkpt>
      <trkpt lat="59.339174" lon="18.082489">
        <ele>18</ele>
        <time>2020-01-20T06:52:11Z</time>
      </trkpt>
      <trkpt lat="59.339203" lon="18.082511">
        <ele>18</ele>
        <time>2020-01-20T06:52:12Z</time>
      </trkpt>
      <trkpt lat="59.339231" lon="18.082535">
        <ele>19</ele>
        <time>2020-01-20T06:52:13Z</time>
      </trkpt>
      <trkpt lat="59.339254" lon="18.082563">
        <ele>19</ele>
        <time>2020-01-20T06:52:14Z</time>
      </trkpt>
      <trkpt lat="59.339277" lon="18.082597">
        <ele>19</ele>
        <time>2020-01-20T06:52:16Z</time>
      </trkpt>
      <trkpt lat="59.339295" lon="18.082644">
        <ele>20</ele>
        <time>2020-01-20T06:52:16Z</time>
      </trkpt>
      <trkpt lat="59.339303" lon="18.082695">
        <ele>20</ele>
        <time>2020-01-20T06:52:17Z</time>
      </trkpt>
      <trkpt lat="59.3393" lon="18.082747">
        <ele>21</ele>
        <time>2020-01-20T06:52:19Z</time>
      </trkpt>
      <trkpt lat="59.33929" lon="18.082805">
        <ele>21</ele>
        <time>2020-01-20T06:52:19Z</time>
      </trkpt>
      <trkpt lat="59.339282" lon="18.082867">
        <ele>22</ele>
        <time>2020-01-20T06:52:20Z</time>
      </trkpt>
      <trkpt lat="59.339272" lon="18.082913">
        <ele>22</ele>
        <time>2020-01-20T06:52:21Z</time>
      </trkpt>
      <trkpt lat="59.33926" lon="18.082957">
        <ele>23</ele>
        <time>2020-01-20T06:52:22Z</time>
      </trkpt>
      <trkpt lat="59.339257" lon="18.083002">
        <ele>23</ele>
        <time>2020-01-20T06:52:23Z</time>
      </trkpt>
      <trkpt lat="59.339252" lon="18.083049">
        <ele>23</ele>
        <time>2020-01-20T06:52:25Z</time>
      </trkpt>
      <trkpt lat="59.339246" lon="18.083105">
        <ele>23</ele>
        <time>2020-01-20T06:52:26Z</time>
      </trkpt>
      <trkpt lat="59.339239" lon="18.083164">
        <ele>23</ele>
        <time>2020-01-20T06:52:26Z</time>
      </trkpt>
      <trkpt lat="59.339236" lon="18.08322">
        <ele>23</ele>
        <time>2020-01-20T06:52:27Z</time>
      </trkpt>
      <trkpt lat="59.339232" lon="18.083269">
        <ele>24</ele>
        <time>2020-01-20T06:52:28Z</time>
      </trkpt>
      <trkpt lat="59.339225" lon="18.083323">
        <ele>24</ele>
        <time>2020-01-20T06:52:29Z</time>
      </trkpt>
      <trkpt lat="59.33922" lon="18.083382">
        <ele>24</ele>
        <time>2020-01-20T06:52:30Z</time>
      </trkpt>
      <trkpt lat="59.339211" lon="18.08343">
        <ele>24</ele>
        <time>2020-01-20T06:52:31Z</time>
      </trkpt>
      <trkpt lat="59.339207" lon="18.083475">
        <ele>24</ele>
        <time>2020-01-20T06:52:32Z</time>
      </trkpt>
      <trkpt lat="59.339214" lon="18.083524">
        <ele>24</ele>
        <time>2020-01-20T06:52:34Z</time>
      </trkpt>
      <trkpt lat="59.339229" lon="18.08358">
        <ele>24</ele>
        <time>2020-01-20T06:52:34Z</time>
      </trkpt>
      <trkpt lat="59.339246" lon="18.083629">
        <ele>24</ele>
        <time>2020-01-20T06:52:35Z</time>
      </trkpt>
      <trkpt lat="59.339267" lon="18.083666">
        <ele>24</ele>
        <time>2020-01-20T06:52:37Z</time>
      </trkpt>
      <trkpt lat="59.339292" lon="18.0837">
        <ele>23</ele>
        <time>2020-01-20T06:52:38Z</time>
      </trkpt>
      <trkpt lat="59.339316" lon="18.083733">
        <ele>23</ele>
        <time>2020-01-20T06:52:38Z</time>
      </trkpt>
      <trkpt lat="59.339342" lon="18.083762">
        <ele>23</ele>
        <time>2020-01-20T06:52:39Z</time>
      </trkpt>
      <trkpt lat="59.339363" lon="18.083794">
        <ele>23</ele>
        <time>2020-01-20T06:52:40Z</time>
      </trkpt>
      <trkpt lat="59.339386" lon="18.083826">
        <ele>23</ele>
        <time>2020-01-20T06:52:41Z</time>
      </trkpt>
      <trkpt lat="59.339414" lon="18.083842">
        <ele>23</ele>
        <time>2020-01-20T06:52:43Z</time>
      </trkpt>
      <trkpt lat="59.33944" lon="18.083862">
        <ele>23</ele>
        <time>2020-01-20T06:52:43Z</time>
      </trkpt>
      <trkpt lat="59.33946" lon="18.083878">
        <ele>23</ele>
        <time>2020-01-20T06:52:44Z</time>
      </trkpt>
      <trkpt lat="59.339484" lon="18.083897">
        <ele>23</ele>
        <time>2020-01-20T06:52:45Z</time>
      </trkpt>
      <trkpt lat="59.339508" lon="18.083909">
        <ele>23</ele>
        <time>2020-01-20T06:52:46Z</time>
      </trkpt>
      <trkpt lat="59.339531" lon="18.08393">
        <ele>23</ele>
        <time>2020-01-20T06:52:47Z</time>
      </trkpt>
      <trkpt lat="59.33962" lon="18.08399">
        <ele>23</ele>
        <time>2020-01-20T06:52:51Z</time>
      </trkpt>
      <trkpt lat="59.339653" lon="18.084016">
        <ele>23</ele>
        <time>2020-01-20T06:52:51Z</time>
      </trkpt>
      <trkpt lat="59.339685" lon="18.084052">
        <ele>23</ele>
        <time>2020-01-20T06:52:52Z</time>
      </trkpt>
      <trkpt lat="59.33971" lon="18.084098">
        <ele>24</ele>
        <time>2020-01-20T06:52:53Z</time>
      </trkpt>
      <trkpt lat="59.339734" lon="18.084138">
        <ele>24</ele>
        <time>2020-01-20T06:52:54Z</time>
      </trkpt>
      <trkpt lat="59.339757" lon="18.084175">
        <ele>24</ele>
        <time>2020-01-20T06:52:55Z</time>
      </trkpt>
      <trkpt lat="59.339784" lon="18.084204">
        <ele>24</ele>
        <time>2020-01-20T06:52:57Z</time>
      </trkpt>
      <trkpt lat="59.339807" lon="18.084225">
        <ele>24</ele>
        <time>2020-01-20T06:52:57Z</time>
      </trkpt>
      <trkpt lat="59.339836" lon="18.084246">
        <ele>24</ele>
        <time>2020-01-20T06:52:58Z</time>
      </trkpt>
      <trkpt lat="59.339863" lon="18.084269">
        <ele>24</ele>
        <time>2020-01-20T06:53:00Z</time>
      </trkpt>
      <trkpt lat="59.339893" lon="18.084295">
        <ele>24</ele>
        <time>2020-01-20T06:53:00Z</time>
      </trkpt>
      <trkpt lat="59.339922" lon="18.084323">
        <ele>24</ele>
        <time>2020-01-20T06:53:01Z</time>
      </trkpt>
      <trkpt lat="59.339952" lon="18.084355">
        <ele>23</ele>
        <time>2020-01-20T06:53:02Z</time>
      </trkpt>
      <trkpt lat="59.339979" lon="18.084387">
        <ele>23</ele>
        <time>2020-01-20T06:53:03Z</time>
      </trkpt>
      <trkpt lat="59.340006" lon="18.084417">
        <ele>24</ele>
        <time>2020-01-20T06:53:04Z</time>
      </trkpt>
      <trkpt lat="59.340034" lon="18.084448">
        <ele>24</ele>
        <time>2020-01-20T06:53:05Z</time>
      </trkpt>
      <trkpt lat="59.340062" lon="18.084476">
        <ele>23</ele>
        <time>2020-01-20T06:53:06Z</time>
      </trkpt>
      <trkpt lat="59.340084" lon="18.084516">
        <ele>23</ele>
        <time>2020-01-20T06:53:07Z</time>
      </trkpt>
      <trkpt lat="59.340107" lon="18.084551">
        <ele>23</ele>
        <time>2020-01-20T06:53:08Z</time>
      </trkpt>
      <trkpt lat="59.340135" lon="18.084583">
        <ele>23</ele>
        <time>2020-01-20T06:53:09Z</time>
      </trkpt>
      <trkpt lat="59.340163" lon="18.084603">
        <ele>23</ele>
        <time>2020-01-20T06:53:11Z</time>
      </trkpt>
      <trkpt lat="59.340187" lon="18.084622">
        <ele>23</ele>
        <time>2020-01-20T06:53:11Z</time>
      </trkpt>
      <trkpt lat="59.340204" lon="18.084654">
        <ele>23</ele>
        <time>2020-01-20T06:53:12Z</time>
      </trkpt>
      <trkpt lat="59.340224" lon="18.084692">
        <ele>23</ele>
        <time>2020-01-20T06:53:13Z</time>
      </trkpt>
      <trkpt lat="59.340253" lon="18.084707">
        <ele>23</ele>
        <time>2020-01-20T06:53:14Z</time>
      </trkpt>
      <trkpt lat="59.340294" lon="18.084733">
        <ele>0</ele>
        <time>2020-01-20T06:53:15Z</time>
      </trkpt>
      <trkpt lat="59.340325" lon="18.084777">
        <ele>24</ele>
        <time>2020-01-20T06:53:16Z</time>
      </trkpt>
      <trkpt lat="59.340354" lon="18.084825">
        <ele>24</ele>
        <time>2020-01-20T06:53:18Z</time>
      </trkpt>
      <trkpt lat="59.340378" lon="18.084856">
        <ele>24</ele>
        <time>2020-01-20T06:53:18Z</time>
      </trkpt>
      <trkpt lat="59.340387" lon="18.084888">
        <ele>25</ele>
        <time>2020-01-20T06:53:19Z</time>
      </trkpt>
      <trkpt lat="59.340386" lon="18.08493">
        <ele>25</ele>
        <time>2020-01-20T06:53:20Z</time>
      </trkpt>
      <trkpt lat="59.340375" lon="18.084974">
        <ele>25</ele>
        <time>2020-01-20T06:53:21Z</time>
      </trkpt>
      <trkpt lat="59.340364" lon="18.085021">
        <ele>0</ele>
        <time>2020-01-20T06:53:22Z</time>
      </trkpt>
      <trkpt lat="59.340351" lon="18.08506">
        <ele>0</ele>
        <time>2020-01-20T06:53:23Z</time>
      </trkpt>
    </trkseg>
  </trk>
</gpx>